<?xml version="1.0" encoding="UTF-8" standalone="no" ?>
<gpx xmlns="http://www.topografix.com/GPX/1/1" xmlns:xsi="http://www.w3.org/2001/XMLSchema-instance" xsi:schemaLocation="http://www.topografix.com/GPX/1/1 http://www.topografix.com/GPX/1/1/gpx.xsd" version="1.1" creator="VisuGPX - https://www.visugpx.com">
  <metadata>
    <name>10224139-Bastille Dune E5 def</name>
  </metadata>
  <trk>
    <name><![CDATA[10224139-Bastille Dune E5 def]]></name>
    <trkseg>
      <trkpt lat="44.61016" lon="2.05043">
        <ele>206</ele>
        <time>2019-07-16T19:55:32Z</time>
      </trkpt>
      <trkpt lat="44.61017" lon="2.05047">
        <ele>207</ele>
        <time>2019-07-16T19:55:33Z</time>
      </trkpt>
      <trkpt lat="44.61011" lon="2.05048">
        <ele>207</ele>
        <time>2019-07-16T19:55:34Z</time>
      </trkpt>
      <trkpt lat="44.60959" lon="2.05033">
        <ele>205</ele>
        <time>2019-07-16T19:55:43Z</time>
      </trkpt>
      <trkpt lat="44.60932" lon="2.05022">
        <ele>205</ele>
        <time>2019-07-16T19:55:48Z</time>
      </trkpt>
      <trkpt lat="44.60921" lon="2.05001">
        <ele>204</ele>
        <time>2019-07-16T19:55:51Z</time>
      </trkpt>
      <trkpt lat="44.60903" lon="2.04995">
        <ele>205</ele>
        <time>2019-07-16T19:55:55Z</time>
      </trkpt>
      <trkpt lat="44.60897" lon="2.04983">
        <ele>205</ele>
        <time>2019-07-16T19:55:57Z</time>
      </trkpt>
      <trkpt lat="44.60886" lon="2.04948">
        <ele>204</ele>
        <time>2019-07-16T19:56:01Z</time>
      </trkpt>
      <trkpt lat="44.60786" lon="2.04755">
        <ele>209</ele>
        <time>2019-07-16T19:56:32Z</time>
      </trkpt>
      <trkpt lat="44.60774" lon="2.04706">
        <ele>210</ele>
        <time>2019-07-16T19:56:38Z</time>
      </trkpt>
      <trkpt lat="44.60766" lon="2.04647">
        <ele>209</ele>
        <time>2019-07-16T19:56:46Z</time>
      </trkpt>
      <trkpt lat="44.60752" lon="2.04496">
        <ele>206</ele>
        <time>2019-07-16T19:57:05Z</time>
      </trkpt>
      <trkpt lat="44.60744" lon="2.0445">
        <ele>206</ele>
        <time>2019-07-16T19:57:11Z</time>
      </trkpt>
      <trkpt lat="44.60714" lon="2.04317">
        <ele>207</ele>
        <time>2019-07-16T19:57:29Z</time>
      </trkpt>
      <trkpt lat="44.60709" lon="2.04283">
        <ele>207</ele>
        <time>2019-07-16T19:57:33Z</time>
      </trkpt>
      <trkpt lat="44.60707" lon="2.04277">
        <ele>207</ele>
        <time>2019-07-16T19:57:34Z</time>
      </trkpt>
      <trkpt lat="44.6071" lon="2.04258">
        <ele>206</ele>
        <time>2019-07-16T19:57:36Z</time>
      </trkpt>
      <trkpt lat="44.60709" lon="2.04225">
        <ele>206</ele>
        <time>2019-07-16T19:57:41Z</time>
      </trkpt>
      <trkpt lat="44.60648" lon="2.03639">
        <ele>199</ele>
        <time>2019-07-16T19:58:56Z</time>
      </trkpt>
      <trkpt lat="44.60662" lon="2.03621">
        <ele>198</ele>
        <time>2019-07-16T19:58:59Z</time>
      </trkpt>
      <trkpt lat="44.60671" lon="2.03586">
        <ele>198</ele>
        <time>2019-07-16T19:59:04Z</time>
      </trkpt>
      <trkpt lat="44.60669" lon="2.03528">
        <ele>199</ele>
        <time>2019-07-16T19:59:11Z</time>
      </trkpt>
      <trkpt lat="44.60658" lon="2.03438">
        <ele>199</ele>
        <time>2019-07-16T19:59:23Z</time>
      </trkpt>
      <trkpt lat="44.6066" lon="2.03397">
        <ele>199</ele>
        <time>2019-07-16T19:59:28Z</time>
      </trkpt>
      <trkpt lat="44.60708" lon="2.03386">
        <ele>200</ele>
        <time>2019-07-16T19:59:37Z</time>
      </trkpt>
      <trkpt lat="44.6071" lon="2.03374">
        <ele>200</ele>
        <time>2019-07-16T19:59:38Z</time>
      </trkpt>
      <trkpt lat="44.60709" lon="2.03336">
        <ele>200</ele>
        <time>2019-07-16T19:59:43Z</time>
      </trkpt>
      <trkpt lat="44.60714" lon="2.03297">
        <ele>199</ele>
        <time>2019-07-16T19:59:48Z</time>
      </trkpt>
      <trkpt lat="44.60738" lon="2.03126">
        <ele>195</ele>
        <time>2019-07-16T20:00:10Z</time>
      </trkpt>
      <trkpt lat="44.60746" lon="2.03107">
        <ele>195</ele>
        <time>2019-07-16T20:00:13Z</time>
      </trkpt>
      <trkpt lat="44.60746" lon="2.03079">
        <ele>194</ele>
        <time>2019-07-16T20:00:16Z</time>
      </trkpt>
      <trkpt lat="44.60809" lon="2.02587">
        <ele>194</ele>
        <time>2019-07-16T20:01:20Z</time>
      </trkpt>
      <trkpt lat="44.60816" lon="2.02575">
        <ele>193</ele>
        <time>2019-07-16T20:01:22Z</time>
      </trkpt>
      <trkpt lat="44.60826" lon="2.02566">
        <ele>193</ele>
        <time>2019-07-16T20:01:24Z</time>
      </trkpt>
      <trkpt lat="44.60923" lon="2.02567">
        <ele>196</ele>
        <time>2019-07-16T20:01:41Z</time>
      </trkpt>
      <trkpt lat="44.60934" lon="2.02577">
        <ele>197</ele>
        <time>2019-07-16T20:01:43Z</time>
      </trkpt>
      <trkpt lat="44.60934" lon="2.02567">
        <ele>197</ele>
        <time>2019-07-16T20:01:45Z</time>
      </trkpt>
      <trkpt lat="44.61035" lon="2.02571">
        <ele>202</ele>
        <time>2019-07-16T20:02:03Z</time>
      </trkpt>
      <trkpt lat="44.61036" lon="2.02536">
        <ele>202</ele>
        <time>2019-07-16T20:02:07Z</time>
      </trkpt>
      <trkpt lat="44.61045" lon="2.0244">
        <ele>202</ele>
        <time>2019-07-16T20:02:19Z</time>
      </trkpt>
      <trkpt lat="44.61057" lon="2.02371">
        <ele>203</ele>
        <time>2019-07-16T20:02:28Z</time>
      </trkpt>
      <trkpt lat="44.6109" lon="2.02223">
        <ele>204</ele>
        <time>2019-07-16T20:02:48Z</time>
      </trkpt>
      <trkpt lat="44.61116" lon="2.02116">
        <ele>205</ele>
        <time>2019-07-16T20:03:02Z</time>
      </trkpt>
      <trkpt lat="44.61151" lon="2.01955">
        <ele>204</ele>
        <time>2019-07-16T20:03:24Z</time>
      </trkpt>
      <trkpt lat="44.61162" lon="2.01923">
        <ele>204</ele>
        <time>2019-07-16T20:03:28Z</time>
      </trkpt>
      <trkpt lat="44.61168" lon="2.01908">
        <ele>204</ele>
        <time>2019-07-16T20:03:30Z</time>
      </trkpt>
      <trkpt lat="44.61235" lon="2.01808">
        <ele>207</ele>
        <time>2019-07-16T20:03:48Z</time>
      </trkpt>
      <trkpt lat="44.61256" lon="2.01767">
        <ele>207</ele>
        <time>2019-07-16T20:03:54Z</time>
      </trkpt>
      <trkpt lat="44.61285" lon="2.01649">
        <ele>210</ele>
        <time>2019-07-16T20:04:10Z</time>
      </trkpt>
      <trkpt lat="44.61292" lon="2.01626">
        <ele>210</ele>
        <time>2019-07-16T20:04:13Z</time>
      </trkpt>
      <trkpt lat="44.61306" lon="2.01592">
        <ele>212</ele>
        <time>2019-07-16T20:04:18Z</time>
      </trkpt>
      <trkpt lat="44.61316" lon="2.0158">
        <ele>213</ele>
        <time>2019-07-16T20:04:20Z</time>
      </trkpt>
      <trkpt lat="44.61352" lon="2.01551">
        <ele>217</ele>
        <time>2019-07-16T20:04:28Z</time>
      </trkpt>
      <trkpt lat="44.61421" lon="2.01504">
        <ele>220</ele>
        <time>2019-07-16T20:04:41Z</time>
      </trkpt>
      <trkpt lat="44.61466" lon="2.01467">
        <ele>224</ele>
        <time>2019-07-16T20:04:51Z</time>
      </trkpt>
      <trkpt lat="44.61484" lon="2.01448">
        <ele>225</ele>
        <time>2019-07-16T20:04:55Z</time>
      </trkpt>
      <trkpt lat="44.61493" lon="2.01434">
        <ele>226</ele>
        <time>2019-07-16T20:04:57Z</time>
      </trkpt>
      <trkpt lat="44.61532" lon="2.01344">
        <ele>235</ele>
        <time>2019-07-16T20:05:10Z</time>
      </trkpt>
      <trkpt lat="44.61583" lon="2.01275">
        <ele>240</ele>
        <time>2019-07-16T20:05:23Z</time>
      </trkpt>
      <trkpt lat="44.61602" lon="2.01246">
        <ele>242</ele>
        <time>2019-07-16T20:05:28Z</time>
      </trkpt>
      <trkpt lat="44.61614" lon="2.01213">
        <ele>245</ele>
        <time>2019-07-16T20:05:33Z</time>
      </trkpt>
      <trkpt lat="44.61624" lon="2.01171">
        <ele>249</ele>
        <time>2019-07-16T20:05:38Z</time>
      </trkpt>
      <trkpt lat="44.6163" lon="2.01102">
        <ele>256</ele>
        <time>2019-07-16T20:05:47Z</time>
      </trkpt>
      <trkpt lat="44.61638" lon="2.01082">
        <ele>257</ele>
        <time>2019-07-16T20:05:50Z</time>
      </trkpt>
      <trkpt lat="44.61648" lon="2.01068">
        <ele>257</ele>
        <time>2019-07-16T20:05:52Z</time>
      </trkpt>
      <trkpt lat="44.61674" lon="2.01053">
        <ele>257</ele>
        <time>2019-07-16T20:05:57Z</time>
      </trkpt>
      <trkpt lat="44.61686" lon="2.01051">
        <ele>257</ele>
        <time>2019-07-16T20:06:00Z</time>
      </trkpt>
      <trkpt lat="44.61698" lon="2.01053">
        <ele>258</ele>
        <time>2019-07-16T20:06:02Z</time>
      </trkpt>
      <trkpt lat="44.61709" lon="2.01062">
        <ele>257</ele>
        <time>2019-07-16T20:06:04Z</time>
      </trkpt>
      <trkpt lat="44.61719" lon="2.01075">
        <ele>256</ele>
        <time>2019-07-16T20:06:06Z</time>
      </trkpt>
      <trkpt lat="44.61729" lon="2.01096">
        <ele>254</ele>
        <time>2019-07-16T20:06:10Z</time>
      </trkpt>
      <trkpt lat="44.61736" lon="2.01107">
        <ele>253</ele>
        <time>2019-07-16T20:06:12Z</time>
      </trkpt>
      <trkpt lat="44.61744" lon="2.01114">
        <ele>253</ele>
        <time>2019-07-16T20:06:13Z</time>
      </trkpt>
      <trkpt lat="44.61758" lon="2.01114">
        <ele>252</ele>
        <time>2019-07-16T20:06:16Z</time>
      </trkpt>
      <trkpt lat="44.61767" lon="2.01109">
        <ele>252</ele>
        <time>2019-07-16T20:06:17Z</time>
      </trkpt>
      <trkpt lat="44.61772" lon="2.01101">
        <ele>252</ele>
        <time>2019-07-16T20:06:19Z</time>
      </trkpt>
      <trkpt lat="44.61795" lon="2.01006">
        <ele>261</ele>
        <time>2019-07-16T20:06:31Z</time>
      </trkpt>
      <trkpt lat="44.61809" lon="2.00968">
        <ele>264</ele>
        <time>2019-07-16T20:06:37Z</time>
      </trkpt>
      <trkpt lat="44.61821" lon="2.00919">
        <ele>269</ele>
        <time>2019-07-16T20:06:43Z</time>
      </trkpt>
      <trkpt lat="44.61824" lon="2.00878">
        <ele>273</ele>
        <time>2019-07-16T20:06:49Z</time>
      </trkpt>
      <trkpt lat="44.61821" lon="2.00849">
        <ele>275</ele>
        <time>2019-07-16T20:06:52Z</time>
      </trkpt>
      <trkpt lat="44.61822" lon="2.00816">
        <ele>279</ele>
        <time>2019-07-16T20:06:57Z</time>
      </trkpt>
      <trkpt lat="44.61828" lon="2.00796">
        <ele>281</ele>
        <time>2019-07-16T20:06:59Z</time>
      </trkpt>
      <trkpt lat="44.61839" lon="2.00781">
        <ele>282</ele>
        <time>2019-07-16T20:07:02Z</time>
      </trkpt>
      <trkpt lat="44.61857" lon="2.0076">
        <ele>282</ele>
        <time>2019-07-16T20:07:06Z</time>
      </trkpt>
      <trkpt lat="44.61886" lon="2.00705">
        <ele>287</ele>
        <time>2019-07-16T20:07:15Z</time>
      </trkpt>
      <trkpt lat="44.619" lon="2.00675">
        <ele>289</ele>
        <time>2019-07-16T20:07:19Z</time>
      </trkpt>
      <trkpt lat="44.61945" lon="2.00591">
        <ele>295</ele>
        <time>2019-07-16T20:07:33Z</time>
      </trkpt>
      <trkpt lat="44.61961" lon="2.00555">
        <ele>297</ele>
        <time>2019-07-16T20:07:38Z</time>
      </trkpt>
      <trkpt lat="44.61965" lon="2.00535">
        <ele>298</ele>
        <time>2019-07-16T20:07:41Z</time>
      </trkpt>
      <trkpt lat="44.61964" lon="2.00515">
        <ele>300</ele>
        <time>2019-07-16T20:07:43Z</time>
      </trkpt>
      <trkpt lat="44.61958" lon="2.00492">
        <ele>301</ele>
        <time>2019-07-16T20:07:46Z</time>
      </trkpt>
      <trkpt lat="44.6195" lon="2.00478">
        <ele>302</ele>
        <time>2019-07-16T20:07:49Z</time>
      </trkpt>
      <trkpt lat="44.6194" lon="2.00465">
        <ele>302</ele>
        <time>2019-07-16T20:07:51Z</time>
      </trkpt>
      <trkpt lat="44.61927" lon="2.00456">
        <ele>303</ele>
        <time>2019-07-16T20:07:54Z</time>
      </trkpt>
      <trkpt lat="44.61811" lon="2.00428">
        <ele>305</ele>
        <time>2019-07-16T20:08:15Z</time>
      </trkpt>
      <trkpt lat="44.61788" lon="2.00424">
        <ele>305</ele>
        <time>2019-07-16T20:08:19Z</time>
      </trkpt>
      <trkpt lat="44.61704" lon="2.00417">
        <ele>306</ele>
        <time>2019-07-16T20:08:34Z</time>
      </trkpt>
      <trkpt lat="44.61666" lon="2.00407">
        <ele>306</ele>
        <time>2019-07-16T20:08:41Z</time>
      </trkpt>
      <trkpt lat="44.61648" lon="2.00393">
        <ele>304</ele>
        <time>2019-07-16T20:08:44Z</time>
      </trkpt>
      <trkpt lat="44.61632" lon="2.00371">
        <ele>303</ele>
        <time>2019-07-16T20:08:48Z</time>
      </trkpt>
      <trkpt lat="44.61615" lon="2.00338">
        <ele>301</ele>
        <time>2019-07-16T20:08:53Z</time>
      </trkpt>
      <trkpt lat="44.61604" lon="2.00304">
        <ele>300</ele>
        <time>2019-07-16T20:08:58Z</time>
      </trkpt>
      <trkpt lat="44.61596" lon="2.00272">
        <ele>299</ele>
        <time>2019-07-16T20:09:02Z</time>
      </trkpt>
      <trkpt lat="44.61592" lon="2.00224">
        <ele>297</ele>
        <time>2019-07-16T20:09:09Z</time>
      </trkpt>
      <trkpt lat="44.61593" lon="2.00199">
        <ele>297</ele>
        <time>2019-07-16T20:09:12Z</time>
      </trkpt>
      <trkpt lat="44.61604" lon="2.00118">
        <ele>294</ele>
        <time>2019-07-16T20:09:22Z</time>
      </trkpt>
      <trkpt lat="44.61619" lon="2.00025">
        <ele>291</ele>
        <time>2019-07-16T20:09:34Z</time>
      </trkpt>
      <trkpt lat="44.61638" lon="1.99956">
        <ele>290</ele>
        <time>2019-07-16T20:09:44Z</time>
      </trkpt>
      <trkpt lat="44.61646" lon="1.99919">
        <ele>289</ele>
        <time>2019-07-16T20:09:49Z</time>
      </trkpt>
      <trkpt lat="44.61648" lon="1.99902">
        <ele>289</ele>
        <time>2019-07-16T20:09:51Z</time>
      </trkpt>
      <trkpt lat="44.61642" lon="1.99862">
        <ele>288</ele>
        <time>2019-07-16T20:09:56Z</time>
      </trkpt>
      <trkpt lat="44.61578" lon="1.99733">
        <ele>282</ele>
        <time>2019-07-16T20:10:16Z</time>
      </trkpt>
      <trkpt lat="44.61571" lon="1.99716">
        <ele>282</ele>
        <time>2019-07-16T20:10:18Z</time>
      </trkpt>
      <trkpt lat="44.61567" lon="1.99691">
        <ele>282</ele>
        <time>2019-07-16T20:10:22Z</time>
      </trkpt>
      <trkpt lat="44.61569" lon="1.99662">
        <ele>281</ele>
        <time>2019-07-16T20:10:25Z</time>
      </trkpt>
      <trkpt lat="44.61574" lon="1.99643">
        <ele>280</ele>
        <time>2019-07-16T20:10:28Z</time>
      </trkpt>
      <trkpt lat="44.6159" lon="1.99602">
        <ele>277</ele>
        <time>2019-07-16T20:10:34Z</time>
      </trkpt>
      <trkpt lat="44.61617" lon="1.99549">
        <ele>273</ele>
        <time>2019-07-16T20:10:42Z</time>
      </trkpt>
      <trkpt lat="44.61629" lon="1.99511">
        <ele>270</ele>
        <time>2019-07-16T20:10:47Z</time>
      </trkpt>
      <trkpt lat="44.61654" lon="1.99378">
        <ele>258</ele>
        <time>2019-07-16T20:11:05Z</time>
      </trkpt>
      <trkpt lat="44.61668" lon="1.99338">
        <ele>256</ele>
        <time>2019-07-16T20:11:10Z</time>
      </trkpt>
      <trkpt lat="44.61713" lon="1.99251">
        <ele>252</ele>
        <time>2019-07-16T20:11:24Z</time>
      </trkpt>
      <trkpt lat="44.61756" lon="1.99201">
        <ele>247</ele>
        <time>2019-07-16T20:11:34Z</time>
      </trkpt>
      <trkpt lat="44.61865" lon="1.99159">
        <ele>241</ele>
        <time>2019-07-16T20:11:54Z</time>
      </trkpt>
      <trkpt lat="44.61875" lon="1.99158">
        <ele>241</ele>
        <time>2019-07-16T20:11:56Z</time>
      </trkpt>
      <trkpt lat="44.61885" lon="1.99162">
        <ele>241</ele>
        <time>2019-07-16T20:11:58Z</time>
      </trkpt>
      <trkpt lat="44.61902" lon="1.99185">
        <ele>243</ele>
        <time>2019-07-16T20:12:02Z</time>
      </trkpt>
      <trkpt lat="44.61921" lon="1.99225">
        <ele>246</ele>
        <time>2019-07-16T20:12:08Z</time>
      </trkpt>
      <trkpt lat="44.61931" lon="1.99241">
        <ele>246</ele>
        <time>2019-07-16T20:12:11Z</time>
      </trkpt>
      <trkpt lat="44.61941" lon="1.99251">
        <ele>246</ele>
        <time>2019-07-16T20:12:13Z</time>
      </trkpt>
      <trkpt lat="44.6195" lon="1.99258">
        <ele>245</ele>
        <time>2019-07-16T20:12:15Z</time>
      </trkpt>
      <trkpt lat="44.61959" lon="1.99259">
        <ele>244</ele>
        <time>2019-07-16T20:12:16Z</time>
      </trkpt>
      <trkpt lat="44.61984" lon="1.99252">
        <ele>238</ele>
        <time>2019-07-16T20:12:21Z</time>
      </trkpt>
      <trkpt lat="44.61999" lon="1.99243">
        <ele>235</ele>
        <time>2019-07-16T20:12:24Z</time>
      </trkpt>
      <trkpt lat="44.62055" lon="1.99218">
        <ele>233</ele>
        <time>2019-07-16T20:12:34Z</time>
      </trkpt>
      <trkpt lat="44.6219" lon="1.99152">
        <ele>223</ele>
        <time>2019-07-16T20:13:00Z</time>
      </trkpt>
      <trkpt lat="44.62289" lon="1.99106">
        <ele>217</ele>
        <time>2019-07-16T20:13:18Z</time>
      </trkpt>
      <trkpt lat="44.62311" lon="1.99104">
        <ele>215</ele>
        <time>2019-07-16T20:13:22Z</time>
      </trkpt>
      <trkpt lat="44.62358" lon="1.99114">
        <ele>216</ele>
        <time>2019-07-16T20:13:30Z</time>
      </trkpt>
      <trkpt lat="44.62407" lon="1.99121">
        <ele>215</ele>
        <time>2019-07-16T20:13:39Z</time>
      </trkpt>
      <trkpt lat="44.6245" lon="1.99121">
        <ele>214</ele>
        <time>2019-07-16T20:13:47Z</time>
      </trkpt>
      <trkpt lat="44.62491" lon="1.99116">
        <ele>212</ele>
        <time>2019-07-16T20:13:54Z</time>
      </trkpt>
      <trkpt lat="44.62508" lon="1.99112">
        <ele>211</ele>
        <time>2019-07-16T20:13:57Z</time>
      </trkpt>
      <trkpt lat="44.62531" lon="1.99099">
        <ele>209</ele>
        <time>2019-07-16T20:14:02Z</time>
      </trkpt>
      <trkpt lat="44.62549" lon="1.99075">
        <ele>205</ele>
        <time>2019-07-16T20:14:06Z</time>
      </trkpt>
      <trkpt lat="44.62622" lon="1.98911">
        <ele>201</ele>
        <time>2019-07-16T20:14:31Z</time>
      </trkpt>
      <trkpt lat="44.62828" lon="1.98537">
        <ele>221</ele>
        <time>2019-07-16T20:15:30Z</time>
      </trkpt>
      <trkpt lat="44.62847" lon="1.98479">
        <ele>223</ele>
        <time>2019-07-16T20:15:39Z</time>
      </trkpt>
      <trkpt lat="44.62857" lon="1.98413">
        <ele>226</ele>
        <time>2019-07-16T20:15:47Z</time>
      </trkpt>
      <trkpt lat="44.62862" lon="1.98348">
        <ele>229</ele>
        <time>2019-07-16T20:15:55Z</time>
      </trkpt>
      <trkpt lat="44.62872" lon="1.9832">
        <ele>231</ele>
        <time>2019-07-16T20:15:59Z</time>
      </trkpt>
      <trkpt lat="44.62877" lon="1.98297">
        <ele>232</ele>
        <time>2019-07-16T20:16:02Z</time>
      </trkpt>
      <trkpt lat="44.62906" lon="1.98256">
        <ele>237</ele>
        <time>2019-07-16T20:16:10Z</time>
      </trkpt>
      <trkpt lat="44.62928" lon="1.98221">
        <ele>239</ele>
        <time>2019-07-16T20:16:16Z</time>
      </trkpt>
      <trkpt lat="44.6295" lon="1.98175">
        <ele>241</ele>
        <time>2019-07-16T20:16:23Z</time>
      </trkpt>
      <trkpt lat="44.6298" lon="1.98108">
        <ele>243</ele>
        <time>2019-07-16T20:16:33Z</time>
      </trkpt>
      <trkpt lat="44.63021" lon="1.98022">
        <ele>246</ele>
        <time>2019-07-16T20:16:46Z</time>
      </trkpt>
      <trkpt lat="44.63076" lon="1.97948">
        <ele>255</ele>
        <time>2019-07-16T20:16:59Z</time>
      </trkpt>
      <trkpt lat="44.63205" lon="1.97804">
        <ele>269</ele>
        <time>2019-07-16T20:17:29Z</time>
      </trkpt>
      <trkpt lat="44.63331" lon="1.97635">
        <ele>278</ele>
        <time>2019-07-16T20:18:00Z</time>
      </trkpt>
      <trkpt lat="44.63407" lon="1.97559">
        <ele>285</ele>
        <time>2019-07-16T20:18:16Z</time>
      </trkpt>
      <trkpt lat="44.63419" lon="1.97536">
        <ele>288</ele>
        <time>2019-07-16T20:18:20Z</time>
      </trkpt>
      <trkpt lat="44.63421" lon="1.97516">
        <ele>289</ele>
        <time>2019-07-16T20:18:22Z</time>
      </trkpt>
      <trkpt lat="44.63402" lon="1.97472">
        <ele>290</ele>
        <time>2019-07-16T20:18:29Z</time>
      </trkpt>
      <trkpt lat="44.63394" lon="1.97444">
        <ele>291</ele>
        <time>2019-07-16T20:18:33Z</time>
      </trkpt>
      <trkpt lat="44.6339" lon="1.97406">
        <ele>292</ele>
        <time>2019-07-16T20:18:38Z</time>
      </trkpt>
      <trkpt lat="44.63382" lon="1.97118">
        <ele>301</ele>
        <time>2019-07-16T20:19:14Z</time>
      </trkpt>
      <trkpt lat="44.63385" lon="1.97085">
        <ele>303</ele>
        <time>2019-07-16T20:19:18Z</time>
      </trkpt>
      <trkpt lat="44.63398" lon="1.97049">
        <ele>305</ele>
        <time>2019-07-16T20:19:23Z</time>
      </trkpt>
      <trkpt lat="44.63423" lon="1.97011">
        <ele>310</ele>
        <time>2019-07-16T20:19:30Z</time>
      </trkpt>
      <trkpt lat="44.63455" lon="1.96968">
        <ele>311</ele>
        <time>2019-07-16T20:19:38Z</time>
      </trkpt>
      <trkpt lat="44.63479" lon="1.96928">
        <ele>312</ele>
        <time>2019-07-16T20:19:44Z</time>
      </trkpt>
      <trkpt lat="44.63491" lon="1.96899">
        <ele>314</ele>
        <time>2019-07-16T20:19:49Z</time>
      </trkpt>
      <trkpt lat="44.63498" lon="1.96865">
        <ele>315</ele>
        <time>2019-07-16T20:19:53Z</time>
      </trkpt>
      <trkpt lat="44.63499" lon="1.96647">
        <ele>328</ele>
        <time>2019-07-16T20:20:21Z</time>
      </trkpt>
      <trkpt lat="44.63504" lon="1.9661">
        <ele>330</ele>
        <time>2019-07-16T20:20:26Z</time>
      </trkpt>
      <trkpt lat="44.63511" lon="1.96581">
        <ele>332</ele>
        <time>2019-07-16T20:20:29Z</time>
      </trkpt>
      <trkpt lat="44.63533" lon="1.96524">
        <ele>334</ele>
        <time>2019-07-16T20:20:38Z</time>
      </trkpt>
      <trkpt lat="44.63537" lon="1.96493">
        <ele>334</ele>
        <time>2019-07-16T20:20:42Z</time>
      </trkpt>
      <trkpt lat="44.63537" lon="1.9638">
        <ele>338</ele>
        <time>2019-07-16T20:20:56Z</time>
      </trkpt>
      <trkpt lat="44.63543" lon="1.96343">
        <ele>339</ele>
        <time>2019-07-16T20:21:01Z</time>
      </trkpt>
      <trkpt lat="44.6356" lon="1.96291">
        <ele>340</ele>
        <time>2019-07-16T20:21:08Z</time>
      </trkpt>
      <trkpt lat="44.63564" lon="1.96268">
        <ele>340</ele>
        <time>2019-07-16T20:21:11Z</time>
      </trkpt>
      <trkpt lat="44.63561" lon="1.96176">
        <ele>338</ele>
        <time>2019-07-16T20:21:23Z</time>
      </trkpt>
      <trkpt lat="44.63569" lon="1.96149">
        <ele>337</ele>
        <time>2019-07-16T20:21:26Z</time>
      </trkpt>
      <trkpt lat="44.63586" lon="1.96123">
        <ele>335</ele>
        <time>2019-07-16T20:21:31Z</time>
      </trkpt>
      <trkpt lat="44.63612" lon="1.96095">
        <ele>333</ele>
        <time>2019-07-16T20:21:37Z</time>
      </trkpt>
      <trkpt lat="44.63636" lon="1.96074">
        <ele>332</ele>
        <time>2019-07-16T20:21:42Z</time>
      </trkpt>
      <trkpt lat="44.63658" lon="1.96045">
        <ele>331</ele>
        <time>2019-07-16T20:21:47Z</time>
      </trkpt>
      <trkpt lat="44.63667" lon="1.95961">
        <ele>330</ele>
        <time>2019-07-16T20:21:58Z</time>
      </trkpt>
      <trkpt lat="44.63669" lon="1.95916">
        <ele>329</ele>
        <time>2019-07-16T20:22:03Z</time>
      </trkpt>
      <trkpt lat="44.63658" lon="1.95885">
        <ele>329</ele>
        <time>2019-07-16T20:22:08Z</time>
      </trkpt>
      <trkpt lat="44.63643" lon="1.95858">
        <ele>328</ele>
        <time>2019-07-16T20:22:12Z</time>
      </trkpt>
      <trkpt lat="44.63635" lon="1.95827">
        <ele>327</ele>
        <time>2019-07-16T20:22:16Z</time>
      </trkpt>
      <trkpt lat="44.63642" lon="1.95743">
        <ele>327</ele>
        <time>2019-07-16T20:22:27Z</time>
      </trkpt>
      <trkpt lat="44.63648" lon="1.95687">
        <ele>329</ele>
        <time>2019-07-16T20:22:34Z</time>
      </trkpt>
      <trkpt lat="44.63662" lon="1.95639">
        <ele>330</ele>
        <time>2019-07-16T20:22:41Z</time>
      </trkpt>
      <trkpt lat="44.63714" lon="1.95517">
        <ele>325</ele>
        <time>2019-07-16T20:22:59Z</time>
      </trkpt>
      <trkpt lat="44.63756" lon="1.95295">
        <ele>332</ele>
        <time>2019-07-16T20:23:28Z</time>
      </trkpt>
      <trkpt lat="44.63789" lon="1.9519">
        <ele>333</ele>
        <time>2019-07-16T20:23:42Z</time>
      </trkpt>
      <trkpt lat="44.6389" lon="1.94917">
        <ele>344</ele>
        <time>2019-07-16T20:24:21Z</time>
      </trkpt>
      <trkpt lat="44.63909" lon="1.94853">
        <ele>345</ele>
        <time>2019-07-16T20:24:30Z</time>
      </trkpt>
      <trkpt lat="44.64007" lon="1.94696">
        <ele>345</ele>
        <time>2019-07-16T20:24:57Z</time>
      </trkpt>
      <trkpt lat="44.64054" lon="1.94583">
        <ele>346</ele>
        <time>2019-07-16T20:25:13Z</time>
      </trkpt>
      <trkpt lat="44.64109" lon="1.94441">
        <ele>353</ele>
        <time>2019-07-16T20:25:34Z</time>
      </trkpt>
      <trkpt lat="44.64215" lon="1.94285">
        <ele>351</ele>
        <time>2019-07-16T20:26:01Z</time>
      </trkpt>
      <trkpt lat="44.64266" lon="1.94195">
        <ele>351</ele>
        <time>2019-07-16T20:26:16Z</time>
      </trkpt>
      <trkpt lat="44.64316" lon="1.94076">
        <ele>354</ele>
        <time>2019-07-16T20:26:33Z</time>
      </trkpt>
      <trkpt lat="44.64333" lon="1.94045">
        <ele>352</ele>
        <time>2019-07-16T20:26:38Z</time>
      </trkpt>
      <trkpt lat="44.64361" lon="1.94005">
        <ele>349</ele>
        <time>2019-07-16T20:26:45Z</time>
      </trkpt>
      <trkpt lat="44.6444" lon="1.93902">
        <ele>342</ele>
        <time>2019-07-16T20:27:04Z</time>
      </trkpt>
      <trkpt lat="44.64471" lon="1.93857">
        <ele>341</ele>
        <time>2019-07-16T20:27:12Z</time>
      </trkpt>
      <trkpt lat="44.64492" lon="1.93812">
        <ele>340</ele>
        <time>2019-07-16T20:27:19Z</time>
      </trkpt>
      <trkpt lat="44.64499" lon="1.93734">
        <ele>341</ele>
        <time>2019-07-16T20:27:29Z</time>
      </trkpt>
      <trkpt lat="44.64506" lon="1.93693">
        <ele>344</ele>
        <time>2019-07-16T20:27:34Z</time>
      </trkpt>
      <trkpt lat="44.64543" lon="1.93611">
        <ele>347</ele>
        <time>2019-07-16T20:27:47Z</time>
      </trkpt>
      <trkpt lat="44.64579" lon="1.93516">
        <ele>348</ele>
        <time>2019-07-16T20:28:00Z</time>
      </trkpt>
      <trkpt lat="44.64599" lon="1.93494">
        <ele>348</ele>
        <time>2019-07-16T20:28:05Z</time>
      </trkpt>
      <trkpt lat="44.64632" lon="1.93471">
        <ele>349</ele>
        <time>2019-07-16T20:28:11Z</time>
      </trkpt>
      <trkpt lat="44.64649" lon="1.93454">
        <ele>349</ele>
        <time>2019-07-16T20:28:15Z</time>
      </trkpt>
      <trkpt lat="44.64667" lon="1.93428">
        <ele>350</ele>
        <time>2019-07-16T20:28:20Z</time>
      </trkpt>
      <trkpt lat="44.64779" lon="1.93194">
        <ele>346</ele>
        <time>2019-07-16T20:28:55Z</time>
      </trkpt>
      <trkpt lat="44.6481" lon="1.9312">
        <ele>347</ele>
        <time>2019-07-16T20:29:06Z</time>
      </trkpt>
      <trkpt lat="44.64838" lon="1.93058">
        <ele>348</ele>
        <time>2019-07-16T20:29:15Z</time>
      </trkpt>
      <trkpt lat="44.64855" lon="1.93034">
        <ele>347</ele>
        <time>2019-07-16T20:29:20Z</time>
      </trkpt>
      <trkpt lat="44.64877" lon="1.93021">
        <ele>346</ele>
        <time>2019-07-16T20:29:24Z</time>
      </trkpt>
      <trkpt lat="44.6491" lon="1.93013">
        <ele>345</ele>
        <time>2019-07-16T20:29:30Z</time>
      </trkpt>
      <trkpt lat="44.6494" lon="1.92991">
        <ele>345</ele>
        <time>2019-07-16T20:29:36Z</time>
      </trkpt>
      <trkpt lat="44.6498" lon="1.92921">
        <ele>342</ele>
        <time>2019-07-16T20:29:47Z</time>
      </trkpt>
      <trkpt lat="44.65002" lon="1.92857">
        <ele>339</ele>
        <time>2019-07-16T20:29:56Z</time>
      </trkpt>
      <trkpt lat="44.65033" lon="1.9273">
        <ele>337</ele>
        <time>2019-07-16T20:30:13Z</time>
      </trkpt>
      <trkpt lat="44.65042" lon="1.92658">
        <ele>339</ele>
        <time>2019-07-16T20:30:23Z</time>
      </trkpt>
      <trkpt lat="44.65034" lon="1.92307">
        <ele>339</ele>
        <time>2019-07-16T20:31:07Z</time>
      </trkpt>
      <trkpt lat="44.65048" lon="1.92263">
        <ele>339</ele>
        <time>2019-07-16T20:31:13Z</time>
      </trkpt>
      <trkpt lat="44.65095" lon="1.92214">
        <ele>342</ele>
        <time>2019-07-16T20:31:24Z</time>
      </trkpt>
      <trkpt lat="44.6515" lon="1.92159">
        <ele>347</ele>
        <time>2019-07-16T20:31:36Z</time>
      </trkpt>
      <trkpt lat="44.65202" lon="1.92093">
        <ele>351</ele>
        <time>2019-07-16T20:31:48Z</time>
      </trkpt>
      <trkpt lat="44.65213" lon="1.92069">
        <ele>353</ele>
        <time>2019-07-16T20:31:52Z</time>
      </trkpt>
      <trkpt lat="44.65219" lon="1.92038">
        <ele>355</ele>
        <time>2019-07-16T20:31:56Z</time>
      </trkpt>
      <trkpt lat="44.65222" lon="1.91985">
        <ele>358</ele>
        <time>2019-07-16T20:32:02Z</time>
      </trkpt>
      <trkpt lat="44.6523" lon="1.91957">
        <ele>360</ele>
        <time>2019-07-16T20:32:06Z</time>
      </trkpt>
      <trkpt lat="44.65278" lon="1.91909">
        <ele>363</ele>
        <time>2019-07-16T20:32:17Z</time>
      </trkpt>
      <trkpt lat="44.65394" lon="1.91825">
        <ele>366</ele>
        <time>2019-07-16T20:32:40Z</time>
      </trkpt>
      <trkpt lat="44.65408" lon="1.91808">
        <ele>367</ele>
        <time>2019-07-16T20:32:43Z</time>
      </trkpt>
      <trkpt lat="44.65424" lon="1.91764">
        <ele>369</ele>
        <time>2019-07-16T20:32:50Z</time>
      </trkpt>
      <trkpt lat="44.6543" lon="1.917">
        <ele>370</ele>
        <time>2019-07-16T20:32:58Z</time>
      </trkpt>
      <trkpt lat="44.65435" lon="1.91628">
        <ele>373</ele>
        <time>2019-07-16T20:33:07Z</time>
      </trkpt>
      <trkpt lat="44.65439" lon="1.91607">
        <ele>374</ele>
        <time>2019-07-16T20:33:10Z</time>
      </trkpt>
      <trkpt lat="44.65446" lon="1.91587">
        <ele>376</ele>
        <time>2019-07-16T20:33:12Z</time>
      </trkpt>
      <trkpt lat="44.6547" lon="1.91541">
        <ele>379</ele>
        <time>2019-07-16T20:33:20Z</time>
      </trkpt>
      <trkpt lat="44.6548" lon="1.91511">
        <ele>380</ele>
        <time>2019-07-16T20:33:24Z</time>
      </trkpt>
      <trkpt lat="44.65471" lon="1.91467">
        <ele>378</ele>
        <time>2019-07-16T20:33:30Z</time>
      </trkpt>
      <trkpt lat="44.65467" lon="1.91441">
        <ele>377</ele>
        <time>2019-07-16T20:33:33Z</time>
      </trkpt>
      <trkpt lat="44.65464" lon="1.91428">
        <ele>376</ele>
        <time>2019-07-16T20:33:35Z</time>
      </trkpt>
      <trkpt lat="44.65459" lon="1.91416">
        <ele>375</ele>
        <time>2019-07-16T20:33:36Z</time>
      </trkpt>
      <trkpt lat="44.65439" lon="1.91386">
        <ele>373</ele>
        <time>2019-07-16T20:33:42Z</time>
      </trkpt>
      <trkpt lat="44.65364" lon="1.91301">
        <ele>369</ele>
        <time>2019-07-16T20:33:59Z</time>
      </trkpt>
      <trkpt lat="44.65324" lon="1.91292">
        <ele>368</ele>
        <time>2019-07-16T20:34:06Z</time>
      </trkpt>
      <trkpt lat="44.65291" lon="1.91267">
        <ele>367</ele>
        <time>2019-07-16T20:34:13Z</time>
      </trkpt>
      <trkpt lat="44.65282" lon="1.91238">
        <ele>366</ele>
        <time>2019-07-16T20:34:17Z</time>
      </trkpt>
      <trkpt lat="44.65237" lon="1.9115">
        <ele>363</ele>
        <time>2019-07-16T20:34:30Z</time>
      </trkpt>
      <trkpt lat="44.65227" lon="1.91125">
        <ele>362</ele>
        <time>2019-07-16T20:34:34Z</time>
      </trkpt>
      <trkpt lat="44.65201" lon="1.91005">
        <ele>359</ele>
        <time>2019-07-16T20:34:50Z</time>
      </trkpt>
      <trkpt lat="44.65195" lon="1.90968">
        <ele>357</ele>
        <time>2019-07-16T20:34:55Z</time>
      </trkpt>
      <trkpt lat="44.65203" lon="1.9093">
        <ele>355</ele>
        <time>2019-07-16T20:35:00Z</time>
      </trkpt>
      <trkpt lat="44.65215" lon="1.90861">
        <ele>355</ele>
        <time>2019-07-16T20:35:09Z</time>
      </trkpt>
      <trkpt lat="44.65223" lon="1.90801">
        <ele>355</ele>
        <time>2019-07-16T20:35:16Z</time>
      </trkpt>
      <trkpt lat="44.65219" lon="1.9075">
        <ele>354</ele>
        <time>2019-07-16T20:35:23Z</time>
      </trkpt>
      <trkpt lat="44.65174" lon="1.90543">
        <ele>346</ele>
        <time>2019-07-16T20:35:50Z</time>
      </trkpt>
      <trkpt lat="44.65157" lon="1.90479">
        <ele>343</ele>
        <time>2019-07-16T20:35:59Z</time>
      </trkpt>
      <trkpt lat="44.65148" lon="1.90454">
        <ele>343</ele>
        <time>2019-07-16T20:36:03Z</time>
      </trkpt>
      <trkpt lat="44.65053" lon="1.9026">
        <ele>343</ele>
        <time>2019-07-16T20:36:32Z</time>
      </trkpt>
      <trkpt lat="44.65036" lon="1.90217">
        <ele>343</ele>
        <time>2019-07-16T20:36:39Z</time>
      </trkpt>
      <trkpt lat="44.64909" lon="1.89786">
        <ele>337</ele>
        <time>2019-07-16T20:37:38Z</time>
      </trkpt>
      <trkpt lat="44.64872" lon="1.89477">
        <ele>331</ele>
        <time>2019-07-16T20:38:17Z</time>
      </trkpt>
      <trkpt lat="44.64863" lon="1.89427">
        <ele>330</ele>
        <time>2019-07-16T20:38:24Z</time>
      </trkpt>
      <trkpt lat="44.64796" lon="1.89133">
        <ele>323</ele>
        <time>2019-07-16T20:39:03Z</time>
      </trkpt>
      <trkpt lat="44.64755" lon="1.89013">
        <ele>324</ele>
        <time>2019-07-16T20:39:20Z</time>
      </trkpt>
      <trkpt lat="44.64744" lon="1.88976">
        <ele>322</ele>
        <time>2019-07-16T20:39:25Z</time>
      </trkpt>
      <trkpt lat="44.6473" lon="1.88832">
        <ele>315</ele>
        <time>2019-07-16T20:39:43Z</time>
      </trkpt>
      <trkpt lat="44.64728" lon="1.8877">
        <ele>313</ele>
        <time>2019-07-16T20:39:51Z</time>
      </trkpt>
      <trkpt lat="44.6473" lon="1.88735">
        <ele>313</ele>
        <time>2019-07-16T20:39:56Z</time>
      </trkpt>
      <trkpt lat="44.64762" lon="1.88518">
        <ele>322</ele>
        <time>2019-07-16T20:40:24Z</time>
      </trkpt>
      <trkpt lat="44.64816" lon="1.8821">
        <ele>320</ele>
        <time>2019-07-16T20:41:04Z</time>
      </trkpt>
      <trkpt lat="44.64825" lon="1.88138">
        <ele>321</ele>
        <time>2019-07-16T20:41:13Z</time>
      </trkpt>
      <trkpt lat="44.6483" lon="1.87975">
        <ele>323</ele>
        <time>2019-07-16T20:41:34Z</time>
      </trkpt>
      <trkpt lat="44.64828" lon="1.87923">
        <ele>323</ele>
        <time>2019-07-16T20:41:40Z</time>
      </trkpt>
      <trkpt lat="44.64801" lon="1.87717">
        <ele>321</ele>
        <time>2019-07-16T20:42:07Z</time>
      </trkpt>
      <trkpt lat="44.64797" lon="1.87672">
        <ele>321</ele>
        <time>2019-07-16T20:42:13Z</time>
      </trkpt>
      <trkpt lat="44.64799" lon="1.87638">
        <ele>320</ele>
        <time>2019-07-16T20:42:17Z</time>
      </trkpt>
      <trkpt lat="44.64892" lon="1.87035">
        <ele>314</ele>
        <time>2019-07-16T20:43:35Z</time>
      </trkpt>
      <trkpt lat="44.64898" lon="1.86842">
        <ele>319</ele>
        <time>2019-07-16T20:43:59Z</time>
      </trkpt>
      <trkpt lat="44.64898" lon="1.86725">
        <ele>317</ele>
        <time>2019-07-16T20:44:14Z</time>
      </trkpt>
      <trkpt lat="44.64894" lon="1.86688">
        <ele>315</ele>
        <time>2019-07-16T20:44:19Z</time>
      </trkpt>
      <trkpt lat="44.64851" lon="1.86504">
        <ele>314</ele>
        <time>2019-07-16T20:44:43Z</time>
      </trkpt>
      <trkpt lat="44.64836" lon="1.86449">
        <ele>317</ele>
        <time>2019-07-16T20:44:51Z</time>
      </trkpt>
      <trkpt lat="44.64809" lon="1.86384">
        <ele>319</ele>
        <time>2019-07-16T20:45:00Z</time>
      </trkpt>
      <trkpt lat="44.64768" lon="1.86265">
        <ele>321</ele>
        <time>2019-07-16T20:45:17Z</time>
      </trkpt>
      <trkpt lat="44.64721" lon="1.86093">
        <ele>324</ele>
        <time>2019-07-16T20:45:40Z</time>
      </trkpt>
      <trkpt lat="44.64713" lon="1.86048">
        <ele>324</ele>
        <time>2019-07-16T20:45:46Z</time>
      </trkpt>
      <trkpt lat="44.64707" lon="1.85885">
        <ele>322</ele>
        <time>2019-07-16T20:46:07Z</time>
      </trkpt>
      <trkpt lat="44.64705" lon="1.85744">
        <ele>322</ele>
        <time>2019-07-16T20:46:25Z</time>
      </trkpt>
      <trkpt lat="44.64708" lon="1.8571">
        <ele>322</ele>
        <time>2019-07-16T20:46:29Z</time>
      </trkpt>
      <trkpt lat="44.64725" lon="1.85616">
        <ele>320</ele>
        <time>2019-07-16T20:46:41Z</time>
      </trkpt>
      <trkpt lat="44.64728" lon="1.85579">
        <ele>318</ele>
        <time>2019-07-16T20:46:46Z</time>
      </trkpt>
      <trkpt lat="44.64729" lon="1.85487">
        <ele>317</ele>
        <time>2019-07-16T20:46:58Z</time>
      </trkpt>
      <trkpt lat="44.64727" lon="1.854">
        <ele>317</ele>
        <time>2019-07-16T20:47:09Z</time>
      </trkpt>
      <trkpt lat="44.64722" lon="1.85357">
        <ele>317</ele>
        <time>2019-07-16T20:47:14Z</time>
      </trkpt>
      <trkpt lat="44.64673" lon="1.85163">
        <ele>315</ele>
        <time>2019-07-16T20:47:40Z</time>
      </trkpt>
      <trkpt lat="44.64677" lon="1.85073">
        <ele>314</ele>
        <time>2019-07-16T20:47:52Z</time>
      </trkpt>
      <trkpt lat="44.64684" lon="1.85009">
        <ele>314</ele>
        <time>2019-07-16T20:48:00Z</time>
      </trkpt>
      <trkpt lat="44.64723" lon="1.84754">
        <ele>315</ele>
        <time>2019-07-16T20:48:33Z</time>
      </trkpt>
      <trkpt lat="44.64728" lon="1.84722">
        <ele>316</ele>
        <time>2019-07-16T20:48:37Z</time>
      </trkpt>
      <trkpt lat="44.64727" lon="1.84709">
        <ele>317</ele>
        <time>2019-07-16T20:48:39Z</time>
      </trkpt>
      <trkpt lat="44.64726" lon="1.84702">
        <ele>317</ele>
        <time>2019-07-16T20:48:40Z</time>
      </trkpt>
      <trkpt lat="44.64731" lon="1.84688">
        <ele>317</ele>
        <time>2019-07-16T20:48:42Z</time>
      </trkpt>
      <trkpt lat="44.64743" lon="1.84632">
        <ele>317</ele>
        <time>2019-07-16T20:48:49Z</time>
      </trkpt>
      <trkpt lat="44.64752" lon="1.84565">
        <ele>317</ele>
        <time>2019-07-16T20:48:58Z</time>
      </trkpt>
      <trkpt lat="44.64751" lon="1.84517">
        <ele>317</ele>
        <time>2019-07-16T20:49:04Z</time>
      </trkpt>
      <trkpt lat="44.64739" lon="1.84314">
        <ele>322</ele>
        <time>2019-07-16T20:49:30Z</time>
      </trkpt>
      <trkpt lat="44.64737" lon="1.84258">
        <ele>322</ele>
        <time>2019-07-16T20:49:37Z</time>
      </trkpt>
      <trkpt lat="44.64751" lon="1.84118">
        <ele>315</ele>
        <time>2019-07-16T20:49:55Z</time>
      </trkpt>
      <trkpt lat="44.64759" lon="1.84074">
        <ele>313</ele>
        <time>2019-07-16T20:50:00Z</time>
      </trkpt>
      <trkpt lat="44.64789" lon="1.83949">
        <ele>307</ele>
        <time>2019-07-16T20:50:17Z</time>
      </trkpt>
      <trkpt lat="44.64799" lon="1.83899">
        <ele>306</ele>
        <time>2019-07-16T20:50:24Z</time>
      </trkpt>
      <trkpt lat="44.64802" lon="1.83865">
        <ele>306</ele>
        <time>2019-07-16T20:50:28Z</time>
      </trkpt>
      <trkpt lat="44.64814" lon="1.83734">
        <ele>309</ele>
        <time>2019-07-16T20:50:45Z</time>
      </trkpt>
      <trkpt lat="44.64823" lon="1.83689">
        <ele>310</ele>
        <time>2019-07-16T20:50:51Z</time>
      </trkpt>
      <trkpt lat="44.64824" lon="1.83675">
        <ele>310</ele>
        <time>2019-07-16T20:50:52Z</time>
      </trkpt>
      <trkpt lat="44.64825" lon="1.83638">
        <ele>310</ele>
        <time>2019-07-16T20:50:57Z</time>
      </trkpt>
      <trkpt lat="44.64765" lon="1.83353">
        <ele>308</ele>
        <time>2019-07-16T20:51:35Z</time>
      </trkpt>
      <trkpt lat="44.6476" lon="1.83335">
        <ele>308</ele>
        <time>2019-07-16T20:51:37Z</time>
      </trkpt>
      <trkpt lat="44.64751" lon="1.83314">
        <ele>307</ele>
        <time>2019-07-16T20:51:40Z</time>
      </trkpt>
      <trkpt lat="44.64716" lon="1.83259">
        <ele>305</ele>
        <time>2019-07-16T20:51:50Z</time>
      </trkpt>
      <trkpt lat="44.64562" lon="1.83046">
        <ele>302</ele>
        <time>2019-07-16T20:52:28Z</time>
      </trkpt>
      <trkpt lat="44.64455" lon="1.82902">
        <ele>305</ele>
        <time>2019-07-16T20:52:54Z</time>
      </trkpt>
      <trkpt lat="44.64384" lon="1.82794">
        <ele>306</ele>
        <time>2019-07-16T20:53:13Z</time>
      </trkpt>
      <trkpt lat="44.64368" lon="1.82762">
        <ele>305</ele>
        <time>2019-07-16T20:53:18Z</time>
      </trkpt>
      <trkpt lat="44.64188" lon="1.8231">
        <ele>306</ele>
        <time>2019-07-16T20:54:24Z</time>
      </trkpt>
      <trkpt lat="44.64155" lon="1.82241">
        <ele>307</ele>
        <time>2019-07-16T20:54:34Z</time>
      </trkpt>
      <trkpt lat="44.64097" lon="1.82141">
        <ele>307</ele>
        <time>2019-07-16T20:54:50Z</time>
      </trkpt>
      <trkpt lat="44.64075" lon="1.82114">
        <ele>307</ele>
        <time>2019-07-16T20:54:56Z</time>
      </trkpt>
      <trkpt lat="44.64056" lon="1.82102">
        <ele>307</ele>
        <time>2019-07-16T20:54:59Z</time>
      </trkpt>
      <trkpt lat="44.64054" lon="1.82083">
        <ele>307</ele>
        <time>2019-07-16T20:55:02Z</time>
      </trkpt>
      <trkpt lat="44.64056" lon="1.82022">
        <ele>308</ele>
        <time>2019-07-16T20:55:10Z</time>
      </trkpt>
      <trkpt lat="44.64054" lon="1.81996">
        <ele>309</ele>
        <time>2019-07-16T20:55:13Z</time>
      </trkpt>
      <trkpt lat="44.64042" lon="1.81958">
        <ele>310</ele>
        <time>2019-07-16T20:55:18Z</time>
      </trkpt>
      <trkpt lat="44.64024" lon="1.81918">
        <ele>313</ele>
        <time>2019-07-16T20:55:24Z</time>
      </trkpt>
      <trkpt lat="44.6402" lon="1.81891">
        <ele>316</ele>
        <time>2019-07-16T20:55:28Z</time>
      </trkpt>
      <trkpt lat="44.6402" lon="1.81871">
        <ele>317</ele>
        <time>2019-07-16T20:55:30Z</time>
      </trkpt>
      <trkpt lat="44.64024" lon="1.81852">
        <ele>318</ele>
        <time>2019-07-16T20:55:33Z</time>
      </trkpt>
      <trkpt lat="44.64031" lon="1.8183">
        <ele>319</ele>
        <time>2019-07-16T20:55:36Z</time>
      </trkpt>
      <trkpt lat="44.64056" lon="1.81769">
        <ele>319</ele>
        <time>2019-07-16T20:55:45Z</time>
      </trkpt>
      <trkpt lat="44.64058" lon="1.81752">
        <ele>319</ele>
        <time>2019-07-16T20:55:47Z</time>
      </trkpt>
      <trkpt lat="44.64061" lon="1.81648">
        <ele>321</ele>
        <time>2019-07-16T20:56:00Z</time>
      </trkpt>
      <trkpt lat="44.64064" lon="1.81632">
        <ele>321</ele>
        <time>2019-07-16T20:56:02Z</time>
      </trkpt>
      <trkpt lat="44.6407" lon="1.81615">
        <ele>321</ele>
        <time>2019-07-16T20:56:04Z</time>
      </trkpt>
      <trkpt lat="44.64079" lon="1.81598">
        <ele>321</ele>
        <time>2019-07-16T20:56:07Z</time>
      </trkpt>
      <trkpt lat="44.64234" lon="1.81386">
        <ele>327</ele>
        <time>2019-07-16T20:56:46Z</time>
      </trkpt>
      <trkpt lat="44.64248" lon="1.81364">
        <ele>327</ele>
        <time>2019-07-16T20:56:49Z</time>
      </trkpt>
      <trkpt lat="44.64255" lon="1.81344">
        <ele>327</ele>
        <time>2019-07-16T20:56:52Z</time>
      </trkpt>
      <trkpt lat="44.64258" lon="1.81326">
        <ele>326</ele>
        <time>2019-07-16T20:56:54Z</time>
      </trkpt>
      <trkpt lat="44.64263" lon="1.81238">
        <ele>322</ele>
        <time>2019-07-16T20:57:06Z</time>
      </trkpt>
      <trkpt lat="44.64269" lon="1.81189">
        <ele>320</ele>
        <time>2019-07-16T20:57:12Z</time>
      </trkpt>
      <trkpt lat="44.64388" lon="1.80712">
        <ele>313</ele>
        <time>2019-07-16T20:58:16Z</time>
      </trkpt>
      <trkpt lat="44.644" lon="1.80658">
        <ele>312</ele>
        <time>2019-07-16T20:58:23Z</time>
      </trkpt>
      <trkpt lat="44.64409" lon="1.80596">
        <ele>310</ele>
        <time>2019-07-16T20:58:31Z</time>
      </trkpt>
      <trkpt lat="44.64455" lon="1.8004">
        <ele>294</ele>
        <time>2019-07-16T20:59:42Z</time>
      </trkpt>
      <trkpt lat="44.64457" lon="1.79992">
        <ele>293</ele>
        <time>2019-07-16T20:59:48Z</time>
      </trkpt>
      <trkpt lat="44.64455" lon="1.79959">
        <ele>292</ele>
        <time>2019-07-16T20:59:52Z</time>
      </trkpt>
      <trkpt lat="44.64447" lon="1.79926">
        <ele>291</ele>
        <time>2019-07-16T20:59:57Z</time>
      </trkpt>
      <trkpt lat="44.64401" lon="1.79779">
        <ele>292</ele>
        <time>2019-07-16T21:00:17Z</time>
      </trkpt>
      <trkpt lat="44.64308" lon="1.79484">
        <ele>289</ele>
        <time>2019-07-16T21:00:58Z</time>
      </trkpt>
      <trkpt lat="44.64301" lon="1.79464">
        <ele>288</ele>
        <time>2019-07-16T21:01:01Z</time>
      </trkpt>
      <trkpt lat="44.64293" lon="1.79446">
        <ele>288</ele>
        <time>2019-07-16T21:01:03Z</time>
      </trkpt>
      <trkpt lat="44.6428" lon="1.79429">
        <ele>288</ele>
        <time>2019-07-16T21:01:07Z</time>
      </trkpt>
      <trkpt lat="44.64265" lon="1.79416">
        <ele>288</ele>
        <time>2019-07-16T21:01:10Z</time>
      </trkpt>
      <trkpt lat="44.63872" lon="1.79157">
        <ele>287</ele>
        <time>2019-07-16T21:02:27Z</time>
      </trkpt>
      <trkpt lat="44.63854" lon="1.79139">
        <ele>287</ele>
        <time>2019-07-16T21:02:31Z</time>
      </trkpt>
      <trkpt lat="44.63842" lon="1.79123">
        <ele>287</ele>
        <time>2019-07-16T21:02:34Z</time>
      </trkpt>
      <trkpt lat="44.63832" lon="1.79105">
        <ele>287</ele>
        <time>2019-07-16T21:02:37Z</time>
      </trkpt>
      <trkpt lat="44.63786" lon="1.78977">
        <ele>291</ele>
        <time>2019-07-16T21:02:55Z</time>
      </trkpt>
      <trkpt lat="44.6378" lon="1.7896">
        <ele>291</ele>
        <time>2019-07-16T21:02:57Z</time>
      </trkpt>
      <trkpt lat="44.63776" lon="1.7894">
        <ele>292</ele>
        <time>2019-07-16T21:03:00Z</time>
      </trkpt>
      <trkpt lat="44.63775" lon="1.78919">
        <ele>293</ele>
        <time>2019-07-16T21:03:02Z</time>
      </trkpt>
      <trkpt lat="44.63778" lon="1.78893">
        <ele>294</ele>
        <time>2019-07-16T21:03:06Z</time>
      </trkpt>
      <trkpt lat="44.63786" lon="1.78839">
        <ele>294</ele>
        <time>2019-07-16T21:03:13Z</time>
      </trkpt>
      <trkpt lat="44.63789" lon="1.78802">
        <ele>295</ele>
        <time>2019-07-16T21:03:18Z</time>
      </trkpt>
      <trkpt lat="44.63792" lon="1.78711">
        <ele>298</ele>
        <time>2019-07-16T21:03:29Z</time>
      </trkpt>
      <trkpt lat="44.6379" lon="1.78557">
        <ele>303</ele>
        <time>2019-07-16T21:03:49Z</time>
      </trkpt>
      <trkpt lat="44.63789" lon="1.78549">
        <ele>303</ele>
        <time>2019-07-16T21:03:50Z</time>
      </trkpt>
      <trkpt lat="44.63787" lon="1.78547">
        <ele>303</ele>
        <time>2019-07-16T21:03:50Z</time>
      </trkpt>
      <trkpt lat="44.63798" lon="1.78479">
        <ele>305</ele>
        <time>2019-07-16T21:03:59Z</time>
      </trkpt>
      <trkpt lat="44.63801" lon="1.78438">
        <ele>305</ele>
        <time>2019-07-16T21:04:04Z</time>
      </trkpt>
      <trkpt lat="44.63809" lon="1.78397">
        <ele>306</ele>
        <time>2019-07-16T21:04:09Z</time>
      </trkpt>
      <trkpt lat="44.63851" lon="1.78226">
        <ele>310</ele>
        <time>2019-07-16T21:04:32Z</time>
      </trkpt>
      <trkpt lat="44.63869" lon="1.78124">
        <ele>311</ele>
        <time>2019-07-16T21:04:46Z</time>
      </trkpt>
      <trkpt lat="44.63872" lon="1.78072">
        <ele>312</ele>
        <time>2019-07-16T21:04:52Z</time>
      </trkpt>
      <trkpt lat="44.63872" lon="1.78029">
        <ele>313</ele>
        <time>2019-07-16T21:04:58Z</time>
      </trkpt>
      <trkpt lat="44.6387" lon="1.77981">
        <ele>316</ele>
        <time>2019-07-16T21:05:04Z</time>
      </trkpt>
      <trkpt lat="44.6386" lon="1.7786">
        <ele>324</ele>
        <time>2019-07-16T21:05:19Z</time>
      </trkpt>
      <trkpt lat="44.63862" lon="1.77765">
        <ele>326</ele>
        <time>2019-07-16T21:05:31Z</time>
      </trkpt>
      <trkpt lat="44.63866" lon="1.777">
        <ele>328</ele>
        <time>2019-07-16T21:05:40Z</time>
      </trkpt>
      <trkpt lat="44.63941" lon="1.77404">
        <ele>347</ele>
        <time>2019-07-16T21:06:19Z</time>
      </trkpt>
      <trkpt lat="44.63962" lon="1.77334">
        <ele>353</ele>
        <time>2019-07-16T21:06:29Z</time>
      </trkpt>
      <trkpt lat="44.63834" lon="1.77297">
        <ele>348</ele>
        <time>2019-07-16T21:06:52Z</time>
      </trkpt>
      <trkpt lat="44.63834" lon="1.77289">
        <ele>349</ele>
        <time>2019-07-16T21:06:53Z</time>
      </trkpt>
      <trkpt lat="44.63832" lon="1.77276">
        <ele>350</ele>
        <time>2019-07-16T21:06:55Z</time>
      </trkpt>
      <trkpt lat="44.6381" lon="1.77177">
        <ele>353</ele>
        <time>2019-07-16T21:07:08Z</time>
      </trkpt>
      <trkpt lat="44.63807" lon="1.77138">
        <ele>354</ele>
        <time>2019-07-16T21:07:13Z</time>
      </trkpt>
      <trkpt lat="44.63807" lon="1.77102">
        <ele>355</ele>
        <time>2019-07-16T21:07:18Z</time>
      </trkpt>
      <trkpt lat="44.63803" lon="1.77077">
        <ele>356</ele>
        <time>2019-07-16T21:07:21Z</time>
      </trkpt>
      <trkpt lat="44.63775" lon="1.77021">
        <ele>354</ele>
        <time>2019-07-16T21:07:29Z</time>
      </trkpt>
      <trkpt lat="44.63751" lon="1.76969">
        <ele>354</ele>
        <time>2019-07-16T21:07:37Z</time>
      </trkpt>
      <trkpt lat="44.63724" lon="1.76899">
        <ele>355</ele>
        <time>2019-07-16T21:07:47Z</time>
      </trkpt>
      <trkpt lat="44.63718" lon="1.76871">
        <ele>356</ele>
        <time>2019-07-16T21:07:51Z</time>
      </trkpt>
      <trkpt lat="44.63716" lon="1.76837">
        <ele>357</ele>
        <time>2019-07-16T21:07:55Z</time>
      </trkpt>
      <trkpt lat="44.63712" lon="1.76824">
        <ele>357</ele>
        <time>2019-07-16T21:07:57Z</time>
      </trkpt>
      <trkpt lat="44.63705" lon="1.7681">
        <ele>357</ele>
        <time>2019-07-16T21:07:59Z</time>
      </trkpt>
      <trkpt lat="44.63684" lon="1.7678">
        <ele>357</ele>
        <time>2019-07-16T21:08:05Z</time>
      </trkpt>
      <trkpt lat="44.63679" lon="1.76766">
        <ele>357</ele>
        <time>2019-07-16T21:08:07Z</time>
      </trkpt>
      <trkpt lat="44.63678" lon="1.76752">
        <ele>358</ele>
        <time>2019-07-16T21:08:08Z</time>
      </trkpt>
      <trkpt lat="44.63679" lon="1.76666">
        <ele>363</ele>
        <time>2019-07-16T21:08:19Z</time>
      </trkpt>
      <trkpt lat="44.63676" lon="1.76606">
        <ele>364</ele>
        <time>2019-07-16T21:08:27Z</time>
      </trkpt>
      <trkpt lat="44.63664" lon="1.76497">
        <ele>367</ele>
        <time>2019-07-16T21:08:41Z</time>
      </trkpt>
      <trkpt lat="44.63662" lon="1.76458">
        <ele>369</ele>
        <time>2019-07-16T21:08:46Z</time>
      </trkpt>
      <trkpt lat="44.63663" lon="1.76447">
        <ele>369</ele>
        <time>2019-07-16T21:08:47Z</time>
      </trkpt>
      <trkpt lat="44.63736" lon="1.76224">
        <ele>377</ele>
        <time>2019-07-16T21:09:18Z</time>
      </trkpt>
      <trkpt lat="44.63742" lon="1.76192">
        <ele>378</ele>
        <time>2019-07-16T21:09:23Z</time>
      </trkpt>
      <trkpt lat="44.63742" lon="1.76171">
        <ele>378</ele>
        <time>2019-07-16T21:09:25Z</time>
      </trkpt>
      <trkpt lat="44.63739" lon="1.76143">
        <ele>379</ele>
        <time>2019-07-16T21:09:29Z</time>
      </trkpt>
      <trkpt lat="44.63723" lon="1.76047">
        <ele>383</ele>
        <time>2019-07-16T21:09:41Z</time>
      </trkpt>
      <trkpt lat="44.63721" lon="1.76025">
        <ele>384</ele>
        <time>2019-07-16T21:09:44Z</time>
      </trkpt>
      <trkpt lat="44.63722" lon="1.75904">
        <ele>387</ele>
        <time>2019-07-16T21:09:59Z</time>
      </trkpt>
      <trkpt lat="44.63724" lon="1.75885">
        <ele>388</ele>
        <time>2019-07-16T21:10:02Z</time>
      </trkpt>
      <trkpt lat="44.63728" lon="1.75863">
        <ele>388</ele>
        <time>2019-07-16T21:10:05Z</time>
      </trkpt>
      <trkpt lat="44.63754" lon="1.75769">
        <ele>390</ele>
        <time>2019-07-16T21:10:17Z</time>
      </trkpt>
      <trkpt lat="44.63757" lon="1.7575">
        <ele>390</ele>
        <time>2019-07-16T21:10:20Z</time>
      </trkpt>
      <trkpt lat="44.63761" lon="1.75673">
        <ele>392</ele>
        <time>2019-07-16T21:10:30Z</time>
      </trkpt>
      <trkpt lat="44.63764" lon="1.75648">
        <ele>393</ele>
        <time>2019-07-16T21:10:33Z</time>
      </trkpt>
      <trkpt lat="44.63771" lon="1.75623">
        <ele>393</ele>
        <time>2019-07-16T21:10:36Z</time>
      </trkpt>
      <trkpt lat="44.63824" lon="1.75455">
        <ele>394</ele>
        <time>2019-07-16T21:11:00Z</time>
      </trkpt>
      <trkpt lat="44.63914" lon="1.752">
        <ele>402</ele>
        <time>2019-07-16T21:11:36Z</time>
      </trkpt>
      <trkpt lat="44.63937" lon="1.75127">
        <ele>402</ele>
        <time>2019-07-16T21:11:46Z</time>
      </trkpt>
      <trkpt lat="44.63955" lon="1.75057">
        <ele>402</ele>
        <time>2019-07-16T21:11:55Z</time>
      </trkpt>
      <trkpt lat="44.63974" lon="1.74961">
        <ele>402</ele>
        <time>2019-07-16T21:12:08Z</time>
      </trkpt>
      <trkpt lat="44.64007" lon="1.74745">
        <ele>407</ele>
        <time>2019-07-16T21:12:36Z</time>
      </trkpt>
      <trkpt lat="44.64016" lon="1.74665">
        <ele>410</ele>
        <time>2019-07-16T21:12:46Z</time>
      </trkpt>
      <trkpt lat="44.64029" lon="1.74496">
        <ele>414</ele>
        <time>2019-07-16T21:13:08Z</time>
      </trkpt>
      <trkpt lat="44.64027" lon="1.74448">
        <ele>415</ele>
        <time>2019-07-16T21:13:14Z</time>
      </trkpt>
      <trkpt lat="44.64019" lon="1.74412">
        <ele>415</ele>
        <time>2019-07-16T21:13:18Z</time>
      </trkpt>
      <trkpt lat="44.63991" lon="1.74311">
        <ele>415</ele>
        <time>2019-07-16T21:13:32Z</time>
      </trkpt>
      <trkpt lat="44.63988" lon="1.74294">
        <ele>415</ele>
        <time>2019-07-16T21:13:34Z</time>
      </trkpt>
      <trkpt lat="44.63989" lon="1.7426">
        <ele>416</ele>
        <time>2019-07-16T21:13:39Z</time>
      </trkpt>
      <trkpt lat="44.63994" lon="1.74243">
        <ele>416</ele>
        <time>2019-07-16T21:13:41Z</time>
      </trkpt>
      <trkpt lat="44.64019" lon="1.74196">
        <ele>417</ele>
        <time>2019-07-16T21:13:48Z</time>
      </trkpt>
      <trkpt lat="44.64033" lon="1.74176">
        <ele>417</ele>
        <time>2019-07-16T21:13:52Z</time>
      </trkpt>
      <trkpt lat="44.6405" lon="1.74161">
        <ele>418</ele>
        <time>2019-07-16T21:13:55Z</time>
      </trkpt>
      <trkpt lat="44.64072" lon="1.74151">
        <ele>419</ele>
        <time>2019-07-16T21:14:00Z</time>
      </trkpt>
      <trkpt lat="44.64088" lon="1.74141">
        <ele>419</ele>
        <time>2019-07-16T21:14:03Z</time>
      </trkpt>
      <trkpt lat="44.64098" lon="1.74133">
        <ele>420</ele>
        <time>2019-07-16T21:14:05Z</time>
      </trkpt>
      <trkpt lat="44.64116" lon="1.74102">
        <ele>419</ele>
        <time>2019-07-16T21:14:10Z</time>
      </trkpt>
      <trkpt lat="44.64136" lon="1.74054">
        <ele>418</ele>
        <time>2019-07-16T21:14:17Z</time>
      </trkpt>
      <trkpt lat="44.64152" lon="1.7403">
        <ele>418</ele>
        <time>2019-07-16T21:14:21Z</time>
      </trkpt>
      <trkpt lat="44.64176" lon="1.74002">
        <ele>418</ele>
        <time>2019-07-16T21:14:27Z</time>
      </trkpt>
      <trkpt lat="44.64269" lon="1.73905">
        <ele>416</ele>
        <time>2019-07-16T21:14:47Z</time>
      </trkpt>
      <trkpt lat="44.64277" lon="1.73899">
        <ele>416</ele>
        <time>2019-07-16T21:14:49Z</time>
      </trkpt>
      <trkpt lat="44.64308" lon="1.73885">
        <ele>415</ele>
        <time>2019-07-16T21:14:55Z</time>
      </trkpt>
      <trkpt lat="44.64319" lon="1.73878">
        <ele>415</ele>
        <time>2019-07-16T21:14:57Z</time>
      </trkpt>
      <trkpt lat="44.64334" lon="1.7386">
        <ele>414</ele>
        <time>2019-07-16T21:15:00Z</time>
      </trkpt>
      <trkpt lat="44.64347" lon="1.73841">
        <ele>413</ele>
        <time>2019-07-16T21:15:04Z</time>
      </trkpt>
      <trkpt lat="44.64356" lon="1.73821">
        <ele>413</ele>
        <time>2019-07-16T21:15:07Z</time>
      </trkpt>
      <trkpt lat="44.64362" lon="1.73802">
        <ele>412</ele>
        <time>2019-07-16T21:15:09Z</time>
      </trkpt>
      <trkpt lat="44.64405" lon="1.73533">
        <ele>404</ele>
        <time>2019-07-16T21:15:44Z</time>
      </trkpt>
      <trkpt lat="44.64423" lon="1.73435">
        <ele>399</ele>
        <time>2019-07-16T21:15:57Z</time>
      </trkpt>
      <trkpt lat="44.64428" lon="1.73415">
        <ele>399</ele>
        <time>2019-07-16T21:16:00Z</time>
      </trkpt>
      <trkpt lat="44.64437" lon="1.73394">
        <ele>398</ele>
        <time>2019-07-16T21:16:03Z</time>
      </trkpt>
      <trkpt lat="44.64451" lon="1.73369">
        <ele>397</ele>
        <time>2019-07-16T21:16:07Z</time>
      </trkpt>
      <trkpt lat="44.64524" lon="1.73248">
        <ele>393</ele>
        <time>2019-07-16T21:16:27Z</time>
      </trkpt>
      <trkpt lat="44.64534" lon="1.73229">
        <ele>393</ele>
        <time>2019-07-16T21:16:30Z</time>
      </trkpt>
      <trkpt lat="44.64542" lon="1.73218">
        <ele>393</ele>
        <time>2019-07-16T21:16:32Z</time>
      </trkpt>
      <trkpt lat="44.6455" lon="1.73213">
        <ele>393</ele>
        <time>2019-07-16T21:16:33Z</time>
      </trkpt>
      <trkpt lat="44.64487" lon="1.7298">
        <ele>385</ele>
        <time>2019-07-16T21:17:05Z</time>
      </trkpt>
      <trkpt lat="44.64481" lon="1.72896">
        <ele>385</ele>
        <time>2019-07-16T21:17:16Z</time>
      </trkpt>
      <trkpt lat="44.64483" lon="1.72877">
        <ele>386</ele>
        <time>2019-07-16T21:17:18Z</time>
      </trkpt>
      <trkpt lat="44.64494" lon="1.72846">
        <ele>387</ele>
        <time>2019-07-16T21:17:22Z</time>
      </trkpt>
      <trkpt lat="44.64507" lon="1.72782">
        <ele>388</ele>
        <time>2019-07-16T21:17:31Z</time>
      </trkpt>
      <trkpt lat="44.64542" lon="1.72724">
        <ele>388</ele>
        <time>2019-07-16T21:17:40Z</time>
      </trkpt>
      <trkpt lat="44.64611" lon="1.72678">
        <ele>391</ele>
        <time>2019-07-16T21:17:54Z</time>
      </trkpt>
      <trkpt lat="44.64643" lon="1.72626">
        <ele>392</ele>
        <time>2019-07-16T21:18:03Z</time>
      </trkpt>
      <trkpt lat="44.64703" lon="1.72542">
        <ele>394</ele>
        <time>2019-07-16T21:18:18Z</time>
      </trkpt>
      <trkpt lat="44.64752" lon="1.72405">
        <ele>396</ele>
        <time>2019-07-16T21:18:37Z</time>
      </trkpt>
      <trkpt lat="44.64882" lon="1.72076">
        <ele>406</ele>
        <time>2019-07-16T21:19:25Z</time>
      </trkpt>
      <trkpt lat="44.65028" lon="1.71697">
        <ele>412</ele>
        <time>2019-07-16T21:20:19Z</time>
      </trkpt>
      <trkpt lat="44.6507" lon="1.71567">
        <ele>420</ele>
        <time>2019-07-16T21:20:38Z</time>
      </trkpt>
      <trkpt lat="44.65093" lon="1.71392">
        <ele>425</ele>
        <time>2019-07-16T21:21:00Z</time>
      </trkpt>
      <trkpt lat="44.65105" lon="1.71356">
        <ele>426</ele>
        <time>2019-07-16T21:21:05Z</time>
      </trkpt>
      <trkpt lat="44.65166" lon="1.71226">
        <ele>429</ele>
        <time>2019-07-16T21:21:25Z</time>
      </trkpt>
      <trkpt lat="44.65163" lon="1.71189">
        <ele>430</ele>
        <time>2019-07-16T21:21:30Z</time>
      </trkpt>
      <trkpt lat="44.65137" lon="1.71003">
        <ele>435</ele>
        <time>2019-07-16T21:21:54Z</time>
      </trkpt>
      <trkpt lat="44.65138" lon="1.70655">
        <ele>439</ele>
        <time>2019-07-16T21:22:38Z</time>
      </trkpt>
      <trkpt lat="44.65152" lon="1.70608">
        <ele>440</ele>
        <time>2019-07-16T21:22:44Z</time>
      </trkpt>
      <trkpt lat="44.65209" lon="1.70531">
        <ele>441</ele>
        <time>2019-07-16T21:22:58Z</time>
      </trkpt>
      <trkpt lat="44.65237" lon="1.70477">
        <ele>442</ele>
        <time>2019-07-16T21:23:07Z</time>
      </trkpt>
      <trkpt lat="44.65251" lon="1.70411">
        <ele>440</ele>
        <time>2019-07-16T21:23:15Z</time>
      </trkpt>
      <trkpt lat="44.65286" lon="1.70344">
        <ele>438</ele>
        <time>2019-07-16T21:23:26Z</time>
      </trkpt>
      <trkpt lat="44.65293" lon="1.70315">
        <ele>437</ele>
        <time>2019-07-16T21:23:30Z</time>
      </trkpt>
      <trkpt lat="44.65339" lon="1.70184">
        <ele>435</ele>
        <time>2019-07-16T21:23:48Z</time>
      </trkpt>
      <trkpt lat="44.65354" lon="1.6978">
        <ele>423</ele>
        <time>2019-07-16T21:24:39Z</time>
      </trkpt>
      <trkpt lat="44.65364" lon="1.69602">
        <ele>414</ele>
        <time>2019-07-16T21:25:02Z</time>
      </trkpt>
      <trkpt lat="44.65352" lon="1.69463">
        <ele>408</ele>
        <time>2019-07-16T21:25:20Z</time>
      </trkpt>
      <trkpt lat="44.6536" lon="1.69373">
        <ele>405</ele>
        <time>2019-07-16T21:25:31Z</time>
      </trkpt>
      <trkpt lat="44.65391" lon="1.69292">
        <ele>399</ele>
        <time>2019-07-16T21:25:43Z</time>
      </trkpt>
      <trkpt lat="44.65425" lon="1.69194">
        <ele>396</ele>
        <time>2019-07-16T21:25:57Z</time>
      </trkpt>
      <trkpt lat="44.65432" lon="1.69136">
        <ele>393</ele>
        <time>2019-07-16T21:26:04Z</time>
      </trkpt>
      <trkpt lat="44.65419" lon="1.69088">
        <ele>392</ele>
        <time>2019-07-16T21:26:11Z</time>
      </trkpt>
      <trkpt lat="44.65342" lon="1.69025">
        <ele>389</ele>
        <time>2019-07-16T21:26:26Z</time>
      </trkpt>
      <trkpt lat="44.65332" lon="1.68987">
        <ele>388</ele>
        <time>2019-07-16T21:26:32Z</time>
      </trkpt>
      <trkpt lat="44.65346" lon="1.68902">
        <ele>387</ele>
        <time>2019-07-16T21:26:43Z</time>
      </trkpt>
      <trkpt lat="44.65494" lon="1.68647">
        <ele>387</ele>
        <time>2019-07-16T21:27:24Z</time>
      </trkpt>
      <trkpt lat="44.65591" lon="1.6844">
        <ele>386</ele>
        <time>2019-07-16T21:27:56Z</time>
      </trkpt>
      <trkpt lat="44.6563" lon="1.68278">
        <ele>383</ele>
        <time>2019-07-16T21:28:17Z</time>
      </trkpt>
      <trkpt lat="44.6566" lon="1.67956">
        <ele>368</ele>
        <time>2019-07-16T21:28:58Z</time>
      </trkpt>
      <trkpt lat="44.65696" lon="1.67393">
        <ele>360</ele>
        <time>2019-07-16T21:30:10Z</time>
      </trkpt>
      <trkpt lat="44.65811" lon="1.66728">
        <ele>355</ele>
        <time>2019-07-16T21:31:36Z</time>
      </trkpt>
      <trkpt lat="44.65817" lon="1.66714">
        <ele>355</ele>
        <time>2019-07-16T21:31:39Z</time>
      </trkpt>
      <trkpt lat="44.65822" lon="1.66708">
        <ele>355</ele>
        <time>2019-07-16T21:31:40Z</time>
      </trkpt>
      <trkpt lat="44.65715" lon="1.66376">
        <ele>353</ele>
        <time>2019-07-16T21:32:26Z</time>
      </trkpt>
      <trkpt lat="44.65651" lon="1.6602">
        <ele>354</ele>
        <time>2019-07-16T21:33:12Z</time>
      </trkpt>
      <trkpt lat="44.65591" lon="1.6565">
        <ele>353</ele>
        <time>2019-07-16T21:34:00Z</time>
      </trkpt>
      <trkpt lat="44.65586" lon="1.65585">
        <ele>353</ele>
        <time>2019-07-16T21:34:09Z</time>
      </trkpt>
      <trkpt lat="44.65577" lon="1.65324">
        <ele>354</ele>
        <time>2019-07-16T21:34:42Z</time>
      </trkpt>
      <trkpt lat="44.65577" lon="1.65254">
        <ele>354</ele>
        <time>2019-07-16T21:34:51Z</time>
      </trkpt>
      <trkpt lat="44.65581" lon="1.65216">
        <ele>354</ele>
        <time>2019-07-16T21:34:55Z</time>
      </trkpt>
      <trkpt lat="44.65593" lon="1.65179">
        <ele>355</ele>
        <time>2019-07-16T21:35:01Z</time>
      </trkpt>
      <trkpt lat="44.65618" lon="1.65133">
        <ele>355</ele>
        <time>2019-07-16T21:35:08Z</time>
      </trkpt>
      <trkpt lat="44.65641" lon="1.6508">
        <ele>356</ele>
        <time>2019-07-16T21:35:16Z</time>
      </trkpt>
      <trkpt lat="44.65669" lon="1.65008">
        <ele>356</ele>
        <time>2019-07-16T21:35:26Z</time>
      </trkpt>
      <trkpt lat="44.65687" lon="1.64943">
        <ele>354</ele>
        <time>2019-07-16T21:35:35Z</time>
      </trkpt>
      <trkpt lat="44.6569" lon="1.64894">
        <ele>352</ele>
        <time>2019-07-16T21:35:41Z</time>
      </trkpt>
      <trkpt lat="44.65688" lon="1.64727">
        <ele>348</ele>
        <time>2019-07-16T21:36:02Z</time>
      </trkpt>
      <trkpt lat="44.6569" lon="1.6466">
        <ele>350</ele>
        <time>2019-07-16T21:36:11Z</time>
      </trkpt>
      <trkpt lat="44.65721" lon="1.64262">
        <ele>354</ele>
        <time>2019-07-16T21:37:02Z</time>
      </trkpt>
      <trkpt lat="44.65722" lon="1.64207">
        <ele>355</ele>
        <time>2019-07-16T21:37:08Z</time>
      </trkpt>
      <trkpt lat="44.65717" lon="1.64173">
        <ele>355</ele>
        <time>2019-07-16T21:37:13Z</time>
      </trkpt>
      <trkpt lat="44.65683" lon="1.64075">
        <ele>356</ele>
        <time>2019-07-16T21:37:27Z</time>
      </trkpt>
      <trkpt lat="44.65668" lon="1.6401">
        <ele>355</ele>
        <time>2019-07-16T21:37:35Z</time>
      </trkpt>
      <trkpt lat="44.65664" lon="1.6398">
        <ele>354</ele>
        <time>2019-07-16T21:37:39Z</time>
      </trkpt>
      <trkpt lat="44.65668" lon="1.63943">
        <ele>354</ele>
        <time>2019-07-16T21:37:44Z</time>
      </trkpt>
      <trkpt lat="44.6568" lon="1.63889">
        <ele>353</ele>
        <time>2019-07-16T21:37:51Z</time>
      </trkpt>
      <trkpt lat="44.65768" lon="1.63567">
        <ele>350</ele>
        <time>2019-07-16T21:38:35Z</time>
      </trkpt>
      <trkpt lat="44.65774" lon="1.63503">
        <ele>349</ele>
        <time>2019-07-16T21:38:43Z</time>
      </trkpt>
      <trkpt lat="44.65778" lon="1.63398">
        <ele>346</ele>
        <time>2019-07-16T21:38:56Z</time>
      </trkpt>
      <trkpt lat="44.65787" lon="1.63326">
        <ele>345</ele>
        <time>2019-07-16T21:39:05Z</time>
      </trkpt>
      <trkpt lat="44.65921" lon="1.62902">
        <ele>352</ele>
        <time>2019-07-16T21:40:04Z</time>
      </trkpt>
      <trkpt lat="44.6593" lon="1.6287">
        <ele>353</ele>
        <time>2019-07-16T21:40:09Z</time>
      </trkpt>
      <trkpt lat="44.65934" lon="1.62831">
        <ele>353</ele>
        <time>2019-07-16T21:40:14Z</time>
      </trkpt>
      <trkpt lat="44.65947" lon="1.62648">
        <ele>347</ele>
        <time>2019-07-16T21:40:37Z</time>
      </trkpt>
      <trkpt lat="44.65947" lon="1.62599">
        <ele>345</ele>
        <time>2019-07-16T21:40:43Z</time>
      </trkpt>
      <trkpt lat="44.65938" lon="1.62562">
        <ele>344</ele>
        <time>2019-07-16T21:40:48Z</time>
      </trkpt>
      <trkpt lat="44.65926" lon="1.62519">
        <ele>344</ele>
        <time>2019-07-16T21:40:54Z</time>
      </trkpt>
      <trkpt lat="44.65841" lon="1.62242">
        <ele>342</ele>
        <time>2019-07-16T21:41:32Z</time>
      </trkpt>
      <trkpt lat="44.65826" lon="1.62207">
        <ele>341</ele>
        <time>2019-07-16T21:41:37Z</time>
      </trkpt>
      <trkpt lat="44.65807" lon="1.62178">
        <ele>341</ele>
        <time>2019-07-16T21:41:42Z</time>
      </trkpt>
      <trkpt lat="44.65724" lon="1.62071">
        <ele>341</ele>
        <time>2019-07-16T21:42:02Z</time>
      </trkpt>
      <trkpt lat="44.65607" lon="1.61913">
        <ele>355</ele>
        <time>2019-07-16T21:42:31Z</time>
      </trkpt>
      <trkpt lat="44.65587" lon="1.61881">
        <ele>354</ele>
        <time>2019-07-16T21:42:36Z</time>
      </trkpt>
      <trkpt lat="44.65581" lon="1.61858">
        <ele>353</ele>
        <time>2019-07-16T21:42:40Z</time>
      </trkpt>
      <trkpt lat="44.6558" lon="1.61838">
        <ele>353</ele>
        <time>2019-07-16T21:42:42Z</time>
      </trkpt>
      <trkpt lat="44.65584" lon="1.61822">
        <ele>352</ele>
        <time>2019-07-16T21:42:44Z</time>
      </trkpt>
      <trkpt lat="44.65593" lon="1.6181">
        <ele>352</ele>
        <time>2019-07-16T21:42:46Z</time>
      </trkpt>
      <trkpt lat="44.65623" lon="1.61776">
        <ele>353</ele>
        <time>2019-07-16T21:42:53Z</time>
      </trkpt>
      <trkpt lat="44.65636" lon="1.61755">
        <ele>352</ele>
        <time>2019-07-16T21:42:57Z</time>
      </trkpt>
      <trkpt lat="44.65639" lon="1.61734">
        <ele>353</ele>
        <time>2019-07-16T21:43:00Z</time>
      </trkpt>
      <trkpt lat="44.65637" lon="1.61703">
        <ele>353</ele>
        <time>2019-07-16T21:43:03Z</time>
      </trkpt>
      <trkpt lat="44.65608" lon="1.61625">
        <ele>353</ele>
        <time>2019-07-16T21:43:15Z</time>
      </trkpt>
      <trkpt lat="44.65581" lon="1.61562">
        <ele>354</ele>
        <time>2019-07-16T21:43:24Z</time>
      </trkpt>
      <trkpt lat="44.65526" lon="1.61448">
        <ele>360</ele>
        <time>2019-07-16T21:43:41Z</time>
      </trkpt>
      <trkpt lat="44.65435" lon="1.61271">
        <ele>359</ele>
        <time>2019-07-16T21:44:09Z</time>
      </trkpt>
      <trkpt lat="44.65392" lon="1.61183">
        <ele>360</ele>
        <time>2019-07-16T21:44:23Z</time>
      </trkpt>
      <trkpt lat="44.65376" lon="1.61129">
        <ele>359</ele>
        <time>2019-07-16T21:44:30Z</time>
      </trkpt>
      <trkpt lat="44.65361" lon="1.6107">
        <ele>359</ele>
        <time>2019-07-16T21:44:38Z</time>
      </trkpt>
      <trkpt lat="44.65342" lon="1.60943">
        <ele>364</ele>
        <time>2019-07-16T21:44:54Z</time>
      </trkpt>
      <trkpt lat="44.65317" lon="1.60811">
        <ele>363</ele>
        <time>2019-07-16T21:45:12Z</time>
      </trkpt>
      <trkpt lat="44.65302" lon="1.60718">
        <ele>365</ele>
        <time>2019-07-16T21:45:24Z</time>
      </trkpt>
      <trkpt lat="44.6529" lon="1.60691">
        <ele>366</ele>
        <time>2019-07-16T21:45:28Z</time>
      </trkpt>
      <trkpt lat="44.6528" lon="1.60677">
        <ele>366</ele>
        <time>2019-07-16T21:45:30Z</time>
      </trkpt>
      <trkpt lat="44.65258" lon="1.60655">
        <ele>366</ele>
        <time>2019-07-16T21:45:35Z</time>
      </trkpt>
      <trkpt lat="44.65204" lon="1.60611">
        <ele>370</ele>
        <time>2019-07-16T21:45:46Z</time>
      </trkpt>
      <trkpt lat="44.65035" lon="1.60494">
        <ele>373</ele>
        <time>2019-07-16T21:46:20Z</time>
      </trkpt>
      <trkpt lat="44.65025" lon="1.60482">
        <ele>372</ele>
        <time>2019-07-16T21:46:22Z</time>
      </trkpt>
      <trkpt lat="44.6502" lon="1.6047">
        <ele>371</ele>
        <time>2019-07-16T21:46:24Z</time>
      </trkpt>
      <trkpt lat="44.65019" lon="1.60455">
        <ele>371</ele>
        <time>2019-07-16T21:46:26Z</time>
      </trkpt>
      <trkpt lat="44.65024" lon="1.60436">
        <ele>372</ele>
        <time>2019-07-16T21:46:28Z</time>
      </trkpt>
      <trkpt lat="44.6504" lon="1.60399">
        <ele>373</ele>
        <time>2019-07-16T21:46:34Z</time>
      </trkpt>
      <trkpt lat="44.65059" lon="1.60367">
        <ele>374</ele>
        <time>2019-07-16T21:46:39Z</time>
      </trkpt>
      <trkpt lat="44.65143" lon="1.60301">
        <ele>377</ele>
        <time>2019-07-16T21:46:56Z</time>
      </trkpt>
      <trkpt lat="44.65192" lon="1.60283">
        <ele>378</ele>
        <time>2019-07-16T21:47:05Z</time>
      </trkpt>
      <trkpt lat="44.65209" lon="1.6027">
        <ele>379</ele>
        <time>2019-07-16T21:47:08Z</time>
      </trkpt>
      <trkpt lat="44.65216" lon="1.60257">
        <ele>379</ele>
        <time>2019-07-16T21:47:11Z</time>
      </trkpt>
      <trkpt lat="44.65218" lon="1.60233">
        <ele>379</ele>
        <time>2019-07-16T21:47:14Z</time>
      </trkpt>
      <trkpt lat="44.65215" lon="1.60199">
        <ele>379</ele>
        <time>2019-07-16T21:47:18Z</time>
      </trkpt>
      <trkpt lat="44.65215" lon="1.60154">
        <ele>380</ele>
        <time>2019-07-16T21:47:24Z</time>
      </trkpt>
      <trkpt lat="44.65225" lon="1.60077">
        <ele>384</ele>
        <time>2019-07-16T21:47:34Z</time>
      </trkpt>
      <trkpt lat="44.65221" lon="1.60053">
        <ele>387</ele>
        <time>2019-07-16T21:47:37Z</time>
      </trkpt>
      <trkpt lat="44.65207" lon="1.60041">
        <ele>388</ele>
        <time>2019-07-16T21:47:40Z</time>
      </trkpt>
      <trkpt lat="44.65129" lon="1.60036">
        <ele>388</ele>
        <time>2019-07-16T21:47:53Z</time>
      </trkpt>
      <trkpt lat="44.65094" lon="1.60023">
        <ele>389</ele>
        <time>2019-07-16T21:48:00Z</time>
      </trkpt>
      <trkpt lat="44.65074" lon="1.60013">
        <ele>390</ele>
        <time>2019-07-16T21:48:04Z</time>
      </trkpt>
      <trkpt lat="44.65061" lon="1.59992">
        <ele>390</ele>
        <time>2019-07-16T21:48:07Z</time>
      </trkpt>
      <trkpt lat="44.65049" lon="1.59951">
        <ele>390</ele>
        <time>2019-07-16T21:48:13Z</time>
      </trkpt>
      <trkpt lat="44.65036" lon="1.59897">
        <ele>391</ele>
        <time>2019-07-16T21:48:20Z</time>
      </trkpt>
      <trkpt lat="44.65032" lon="1.59857">
        <ele>391</ele>
        <time>2019-07-16T21:48:25Z</time>
      </trkpt>
      <trkpt lat="44.65033" lon="1.59815">
        <ele>392</ele>
        <time>2019-07-16T21:48:30Z</time>
      </trkpt>
      <trkpt lat="44.65043" lon="1.59768">
        <ele>393</ele>
        <time>2019-07-16T21:48:37Z</time>
      </trkpt>
      <trkpt lat="44.65056" lon="1.59717">
        <ele>395</ele>
        <time>2019-07-16T21:48:44Z</time>
      </trkpt>
      <trkpt lat="44.65085" lon="1.59648">
        <ele>401</ele>
        <time>2019-07-16T21:48:54Z</time>
      </trkpt>
      <trkpt lat="44.65085" lon="1.59628">
        <ele>403</ele>
        <time>2019-07-16T21:48:56Z</time>
      </trkpt>
      <trkpt lat="44.6508" lon="1.59609">
        <ele>404</ele>
        <time>2019-07-16T21:48:59Z</time>
      </trkpt>
      <trkpt lat="44.65067" lon="1.59595">
        <ele>404</ele>
        <time>2019-07-16T21:49:02Z</time>
      </trkpt>
      <trkpt lat="44.64982" lon="1.59559">
        <ele>397</ele>
        <time>2019-07-16T21:49:18Z</time>
      </trkpt>
      <trkpt lat="44.6496" lon="1.59544">
        <ele>396</ele>
        <time>2019-07-16T21:49:22Z</time>
      </trkpt>
      <trkpt lat="44.64951" lon="1.59528">
        <ele>396</ele>
        <time>2019-07-16T21:49:24Z</time>
      </trkpt>
      <trkpt lat="44.64949" lon="1.59502">
        <ele>398</ele>
        <time>2019-07-16T21:49:28Z</time>
      </trkpt>
      <trkpt lat="44.64953" lon="1.59475">
        <ele>398</ele>
        <time>2019-07-16T21:49:31Z</time>
      </trkpt>
      <trkpt lat="44.64964" lon="1.59451">
        <ele>398</ele>
        <time>2019-07-16T21:49:35Z</time>
      </trkpt>
      <trkpt lat="44.65006" lon="1.59385">
        <ele>402</ele>
        <time>2019-07-16T21:49:46Z</time>
      </trkpt>
      <trkpt lat="44.65019" lon="1.59346">
        <ele>403</ele>
        <time>2019-07-16T21:49:52Z</time>
      </trkpt>
      <trkpt lat="44.65037" lon="1.59263">
        <ele>404</ele>
        <time>2019-07-16T21:50:03Z</time>
      </trkpt>
      <trkpt lat="44.65038" lon="1.59228">
        <ele>405</ele>
        <time>2019-07-16T21:50:07Z</time>
      </trkpt>
      <trkpt lat="44.65038" lon="1.59191">
        <ele>406</ele>
        <time>2019-07-16T21:50:12Z</time>
      </trkpt>
      <trkpt lat="44.65032" lon="1.59155">
        <ele>407</ele>
        <time>2019-07-16T21:50:16Z</time>
      </trkpt>
      <trkpt lat="44.6502" lon="1.59107">
        <ele>409</ele>
        <time>2019-07-16T21:50:23Z</time>
      </trkpt>
      <trkpt lat="44.65012" lon="1.59091">
        <ele>409</ele>
        <time>2019-07-16T21:50:25Z</time>
      </trkpt>
      <trkpt lat="44.65005" lon="1.59087">
        <ele>409</ele>
        <time>2019-07-16T21:50:27Z</time>
      </trkpt>
      <trkpt lat="44.64994" lon="1.59084">
        <ele>409</ele>
        <time>2019-07-16T21:50:29Z</time>
      </trkpt>
      <trkpt lat="44.64976" lon="1.59088">
        <ele>409</ele>
        <time>2019-07-16T21:50:32Z</time>
      </trkpt>
      <trkpt lat="44.64919" lon="1.59095">
        <ele>409</ele>
        <time>2019-07-16T21:50:42Z</time>
      </trkpt>
      <trkpt lat="44.64896" lon="1.59089">
        <ele>409</ele>
        <time>2019-07-16T21:50:46Z</time>
      </trkpt>
      <trkpt lat="44.6483" lon="1.59052">
        <ele>407</ele>
        <time>2019-07-16T21:50:59Z</time>
      </trkpt>
      <trkpt lat="44.6482" lon="1.59042">
        <ele>406</ele>
        <time>2019-07-16T21:51:01Z</time>
      </trkpt>
      <trkpt lat="44.64813" lon="1.59022">
        <ele>406</ele>
        <time>2019-07-16T21:51:04Z</time>
      </trkpt>
      <trkpt lat="44.64813" lon="1.59">
        <ele>407</ele>
        <time>2019-07-16T21:51:07Z</time>
      </trkpt>
      <trkpt lat="44.64818" lon="1.58973">
        <ele>407</ele>
        <time>2019-07-16T21:51:10Z</time>
      </trkpt>
      <trkpt lat="44.64839" lon="1.58918">
        <ele>410</ele>
        <time>2019-07-16T21:51:18Z</time>
      </trkpt>
      <trkpt lat="44.64882" lon="1.58823">
        <ele>412</ele>
        <time>2019-07-16T21:51:32Z</time>
      </trkpt>
      <trkpt lat="44.64894" lon="1.58789">
        <ele>413</ele>
        <time>2019-07-16T21:51:37Z</time>
      </trkpt>
      <trkpt lat="44.64906" lon="1.58733">
        <ele>412</ele>
        <time>2019-07-16T21:51:44Z</time>
      </trkpt>
      <trkpt lat="44.64921" lon="1.5869">
        <ele>413</ele>
        <time>2019-07-16T21:51:51Z</time>
      </trkpt>
      <trkpt lat="44.64943" lon="1.58654">
        <ele>414</ele>
        <time>2019-07-16T21:51:57Z</time>
      </trkpt>
      <trkpt lat="44.65069" lon="1.58477">
        <ele>416</ele>
        <time>2019-07-16T21:52:28Z</time>
      </trkpt>
      <trkpt lat="44.65083" lon="1.58446">
        <ele>416</ele>
        <time>2019-07-16T21:52:33Z</time>
      </trkpt>
      <trkpt lat="44.65091" lon="1.58408">
        <ele>416</ele>
        <time>2019-07-16T21:52:38Z</time>
      </trkpt>
      <trkpt lat="44.65092" lon="1.58366">
        <ele>417</ele>
        <time>2019-07-16T21:52:43Z</time>
      </trkpt>
      <trkpt lat="44.65091" lon="1.58337">
        <ele>417</ele>
        <time>2019-07-16T21:52:47Z</time>
      </trkpt>
      <trkpt lat="44.65083" lon="1.58319">
        <ele>417</ele>
        <time>2019-07-16T21:52:50Z</time>
      </trkpt>
      <trkpt lat="44.65072" lon="1.58308">
        <ele>418</ele>
        <time>2019-07-16T21:52:52Z</time>
      </trkpt>
      <trkpt lat="44.65058" lon="1.58301">
        <ele>420</ele>
        <time>2019-07-16T21:52:55Z</time>
      </trkpt>
      <trkpt lat="44.65042" lon="1.58299">
        <ele>421</ele>
        <time>2019-07-16T21:52:57Z</time>
      </trkpt>
      <trkpt lat="44.65028" lon="1.58307">
        <ele>421</ele>
        <time>2019-07-16T21:53:00Z</time>
      </trkpt>
      <trkpt lat="44.64986" lon="1.58347">
        <ele>419</ele>
        <time>2019-07-16T21:53:09Z</time>
      </trkpt>
      <trkpt lat="44.64962" lon="1.5836">
        <ele>418</ele>
        <time>2019-07-16T21:53:14Z</time>
      </trkpt>
      <trkpt lat="44.64934" lon="1.58366">
        <ele>418</ele>
        <time>2019-07-16T21:53:19Z</time>
      </trkpt>
      <trkpt lat="44.64908" lon="1.58365">
        <ele>419</ele>
        <time>2019-07-16T21:53:23Z</time>
      </trkpt>
      <trkpt lat="44.64883" lon="1.58357">
        <ele>419</ele>
        <time>2019-07-16T21:53:28Z</time>
      </trkpt>
      <trkpt lat="44.64867" lon="1.58346">
        <ele>420</ele>
        <time>2019-07-16T21:53:31Z</time>
      </trkpt>
      <trkpt lat="44.64858" lon="1.58325">
        <ele>420</ele>
        <time>2019-07-16T21:53:34Z</time>
      </trkpt>
      <trkpt lat="44.64856" lon="1.58301">
        <ele>419</ele>
        <time>2019-07-16T21:53:37Z</time>
      </trkpt>
      <trkpt lat="44.6486" lon="1.58277">
        <ele>419</ele>
        <time>2019-07-16T21:53:40Z</time>
      </trkpt>
      <trkpt lat="44.64885" lon="1.58236">
        <ele>421</ele>
        <time>2019-07-16T21:53:47Z</time>
      </trkpt>
      <trkpt lat="44.64893" lon="1.5822">
        <ele>422</ele>
        <time>2019-07-16T21:53:50Z</time>
      </trkpt>
      <trkpt lat="44.64899" lon="1.58199">
        <ele>423</ele>
        <time>2019-07-16T21:53:53Z</time>
      </trkpt>
      <trkpt lat="44.64901" lon="1.58173">
        <ele>423</ele>
        <time>2019-07-16T21:53:56Z</time>
      </trkpt>
      <trkpt lat="44.64901" lon="1.58137">
        <ele>424</ele>
        <time>2019-07-16T21:54:00Z</time>
      </trkpt>
      <trkpt lat="44.64896" lon="1.5811">
        <ele>425</ele>
        <time>2019-07-16T21:54:04Z</time>
      </trkpt>
      <trkpt lat="44.64884" lon="1.5809">
        <ele>425</ele>
        <time>2019-07-16T21:54:07Z</time>
      </trkpt>
      <trkpt lat="44.64863" lon="1.58063">
        <ele>425</ele>
        <time>2019-07-16T21:54:12Z</time>
      </trkpt>
      <trkpt lat="44.6485" lon="1.58036">
        <ele>426</ele>
        <time>2019-07-16T21:54:17Z</time>
      </trkpt>
      <trkpt lat="44.64841" lon="1.58007">
        <ele>428</ele>
        <time>2019-07-16T21:54:21Z</time>
      </trkpt>
      <trkpt lat="44.64836" lon="1.57974">
        <ele>429</ele>
        <time>2019-07-16T21:54:25Z</time>
      </trkpt>
      <trkpt lat="44.64837" lon="1.57939">
        <ele>429</ele>
        <time>2019-07-16T21:54:29Z</time>
      </trkpt>
      <trkpt lat="44.64839" lon="1.57917">
        <ele>429</ele>
        <time>2019-07-16T21:54:32Z</time>
      </trkpt>
      <trkpt lat="44.64849" lon="1.57895">
        <ele>429</ele>
        <time>2019-07-16T21:54:35Z</time>
      </trkpt>
      <trkpt lat="44.64857" lon="1.57886">
        <ele>429</ele>
        <time>2019-07-16T21:54:37Z</time>
      </trkpt>
      <trkpt lat="44.64869" lon="1.57882">
        <ele>429</ele>
        <time>2019-07-16T21:54:39Z</time>
      </trkpt>
      <trkpt lat="44.64898" lon="1.57883">
        <ele>432</ele>
        <time>2019-07-16T21:54:45Z</time>
      </trkpt>
      <trkpt lat="44.64918" lon="1.57881">
        <ele>433</ele>
        <time>2019-07-16T21:54:48Z</time>
      </trkpt>
      <trkpt lat="44.64928" lon="1.57873">
        <ele>434</ele>
        <time>2019-07-16T21:54:50Z</time>
      </trkpt>
      <trkpt lat="44.64935" lon="1.57858">
        <ele>434</ele>
        <time>2019-07-16T21:54:52Z</time>
      </trkpt>
      <trkpt lat="44.64936" lon="1.57823">
        <ele>433</ele>
        <time>2019-07-16T21:54:57Z</time>
      </trkpt>
      <trkpt lat="44.64917" lon="1.57355">
        <ele>436</ele>
        <time>2019-07-16T21:55:56Z</time>
      </trkpt>
      <trkpt lat="44.6492" lon="1.57321">
        <ele>436</ele>
        <time>2019-07-16T21:56:01Z</time>
      </trkpt>
      <trkpt lat="44.64942" lon="1.5725">
        <ele>438</ele>
        <time>2019-07-16T21:56:10Z</time>
      </trkpt>
      <trkpt lat="44.64966" lon="1.57182">
        <ele>438</ele>
        <time>2019-07-16T21:56:20Z</time>
      </trkpt>
      <trkpt lat="44.64865" lon="1.56925">
        <ele>442</ele>
        <time>2019-07-16T21:56:57Z</time>
      </trkpt>
      <trkpt lat="44.64874" lon="1.56858">
        <ele>444</ele>
        <time>2019-07-16T21:57:06Z</time>
      </trkpt>
      <trkpt lat="44.64875" lon="1.5679">
        <ele>446</ele>
        <time>2019-07-16T21:57:14Z</time>
      </trkpt>
      <trkpt lat="44.64955" lon="1.56739">
        <ele>441</ele>
        <time>2019-07-16T21:57:30Z</time>
      </trkpt>
      <trkpt lat="44.64986" lon="1.56706">
        <ele>437</ele>
        <time>2019-07-16T21:57:37Z</time>
      </trkpt>
      <trkpt lat="44.65045" lon="1.5663">
        <ele>428</ele>
        <time>2019-07-16T21:57:51Z</time>
      </trkpt>
      <trkpt lat="44.65071" lon="1.5661">
        <ele>426</ele>
        <time>2019-07-16T21:57:56Z</time>
      </trkpt>
      <trkpt lat="44.65118" lon="1.56599">
        <ele>424</ele>
        <time>2019-07-16T21:58:05Z</time>
      </trkpt>
      <trkpt lat="44.65155" lon="1.56598">
        <ele>423</ele>
        <time>2019-07-16T21:58:11Z</time>
      </trkpt>
      <trkpt lat="44.65217" lon="1.56606">
        <ele>418</ele>
        <time>2019-07-16T21:58:23Z</time>
      </trkpt>
      <trkpt lat="44.65253" lon="1.56605">
        <ele>415</ele>
        <time>2019-07-16T21:58:29Z</time>
      </trkpt>
      <trkpt lat="44.65312" lon="1.56595">
        <ele>415</ele>
        <time>2019-07-16T21:58:40Z</time>
      </trkpt>
      <trkpt lat="44.65432" lon="1.56579">
        <ele>414</ele>
        <time>2019-07-16T21:59:01Z</time>
      </trkpt>
      <trkpt lat="44.65475" lon="1.56567">
        <ele>415</ele>
        <time>2019-07-16T21:59:09Z</time>
      </trkpt>
      <trkpt lat="44.65501" lon="1.56554">
        <ele>415</ele>
        <time>2019-07-16T21:59:14Z</time>
      </trkpt>
      <trkpt lat="44.65519" lon="1.56541">
        <ele>415</ele>
        <time>2019-07-16T21:59:17Z</time>
      </trkpt>
      <trkpt lat="44.65574" lon="1.56487">
        <ele>413</ele>
        <time>2019-07-16T21:59:29Z</time>
      </trkpt>
      <trkpt lat="44.65638" lon="1.56421">
        <ele>409</ele>
        <time>2019-07-16T21:59:43Z</time>
      </trkpt>
      <trkpt lat="44.65657" lon="1.56409">
        <ele>409</ele>
        <time>2019-07-16T21:59:47Z</time>
      </trkpt>
      <trkpt lat="44.65681" lon="1.56402">
        <ele>409</ele>
        <time>2019-07-16T21:59:51Z</time>
      </trkpt>
      <trkpt lat="44.65704" lon="1.56406">
        <ele>410</ele>
        <time>2019-07-16T21:59:56Z</time>
      </trkpt>
      <trkpt lat="44.65773" lon="1.56454">
        <ele>413</ele>
        <time>2019-07-16T22:00:09Z</time>
      </trkpt>
      <trkpt lat="44.65813" lon="1.56471">
        <ele>413</ele>
        <time>2019-07-16T22:00:17Z</time>
      </trkpt>
      <trkpt lat="44.65847" lon="1.56469">
        <ele>413</ele>
        <time>2019-07-16T22:00:23Z</time>
      </trkpt>
      <trkpt lat="44.65925" lon="1.56436">
        <ele>416</ele>
        <time>2019-07-16T22:00:37Z</time>
      </trkpt>
      <trkpt lat="44.65965" lon="1.56434">
        <ele>414</ele>
        <time>2019-07-16T22:00:44Z</time>
      </trkpt>
      <trkpt lat="44.65999" lon="1.56446">
        <ele>413</ele>
        <time>2019-07-16T22:00:51Z</time>
      </trkpt>
      <trkpt lat="44.66003" lon="1.5642">
        <ele>412</ele>
        <time>2019-07-16T22:00:54Z</time>
      </trkpt>
      <trkpt lat="44.66001" lon="1.56356">
        <ele>410</ele>
        <time>2019-07-16T22:01:02Z</time>
      </trkpt>
      <trkpt lat="44.65995" lon="1.5632">
        <ele>407</ele>
        <time>2019-07-16T22:01:07Z</time>
      </trkpt>
      <trkpt lat="44.65986" lon="1.56297">
        <ele>404</ele>
        <time>2019-07-16T22:01:10Z</time>
      </trkpt>
      <trkpt lat="44.6597" lon="1.56279">
        <ele>403</ele>
        <time>2019-07-16T22:01:14Z</time>
      </trkpt>
      <trkpt lat="44.65873" lon="1.56236">
        <ele>396</ele>
        <time>2019-07-16T22:01:32Z</time>
      </trkpt>
      <trkpt lat="44.65855" lon="1.56219">
        <ele>393</ele>
        <time>2019-07-16T22:01:36Z</time>
      </trkpt>
      <trkpt lat="44.6585" lon="1.56202">
        <ele>392</ele>
        <time>2019-07-16T22:01:38Z</time>
      </trkpt>
      <trkpt lat="44.65823" lon="1.56143">
        <ele>386</ele>
        <time>2019-07-16T22:01:47Z</time>
      </trkpt>
      <trkpt lat="44.65809" lon="1.56121">
        <ele>383</ele>
        <time>2019-07-16T22:01:51Z</time>
      </trkpt>
      <trkpt lat="44.65803" lon="1.56104">
        <ele>381</ele>
        <time>2019-07-16T22:01:53Z</time>
      </trkpt>
      <trkpt lat="44.65803" lon="1.56088">
        <ele>380</ele>
        <time>2019-07-16T22:01:55Z</time>
      </trkpt>
      <trkpt lat="44.65805" lon="1.56071">
        <ele>379</ele>
        <time>2019-07-16T22:01:57Z</time>
      </trkpt>
      <trkpt lat="44.65813" lon="1.56058">
        <ele>378</ele>
        <time>2019-07-16T22:01:59Z</time>
      </trkpt>
      <trkpt lat="44.65824" lon="1.56051">
        <ele>378</ele>
        <time>2019-07-16T22:02:02Z</time>
      </trkpt>
      <trkpt lat="44.65838" lon="1.56049">
        <ele>379</ele>
        <time>2019-07-16T22:02:04Z</time>
      </trkpt>
      <trkpt lat="44.65853" lon="1.56054">
        <ele>378</ele>
        <time>2019-07-16T22:02:07Z</time>
      </trkpt>
      <trkpt lat="44.6587" lon="1.56067">
        <ele>379</ele>
        <time>2019-07-16T22:02:10Z</time>
      </trkpt>
      <trkpt lat="44.65985" lon="1.56193">
        <ele>387</ele>
        <time>2019-07-16T22:02:36Z</time>
      </trkpt>
      <trkpt lat="44.66015" lon="1.56224">
        <ele>391</ele>
        <time>2019-07-16T22:02:43Z</time>
      </trkpt>
      <trkpt lat="44.66037" lon="1.56244">
        <ele>392</ele>
        <time>2019-07-16T22:02:47Z</time>
      </trkpt>
      <trkpt lat="44.66049" lon="1.5625">
        <ele>392</ele>
        <time>2019-07-16T22:02:50Z</time>
      </trkpt>
      <trkpt lat="44.66059" lon="1.56252">
        <ele>391</ele>
        <time>2019-07-16T22:02:52Z</time>
      </trkpt>
      <trkpt lat="44.66067" lon="1.56246">
        <ele>390</ele>
        <time>2019-07-16T22:02:53Z</time>
      </trkpt>
      <trkpt lat="44.66073" lon="1.56235">
        <ele>390</ele>
        <time>2019-07-16T22:02:55Z</time>
      </trkpt>
      <trkpt lat="44.66073" lon="1.5622">
        <ele>390</ele>
        <time>2019-07-16T22:02:57Z</time>
      </trkpt>
      <trkpt lat="44.66069" lon="1.56209">
        <ele>390</ele>
        <time>2019-07-16T22:02:58Z</time>
      </trkpt>
      <trkpt lat="44.66007" lon="1.56112">
        <ele>380</ele>
        <time>2019-07-16T22:03:15Z</time>
      </trkpt>
      <trkpt lat="44.65955" lon="1.56013">
        <ele>377</ele>
        <time>2019-07-16T22:03:30Z</time>
      </trkpt>
      <trkpt lat="44.65923" lon="1.5596">
        <ele>373</ele>
        <time>2019-07-16T22:03:39Z</time>
      </trkpt>
      <trkpt lat="44.65911" lon="1.55929">
        <ele>373</ele>
        <time>2019-07-16T22:03:44Z</time>
      </trkpt>
      <trkpt lat="44.659" lon="1.5591">
        <ele>373</ele>
        <time>2019-07-16T22:03:47Z</time>
      </trkpt>
      <trkpt lat="44.65889" lon="1.55896">
        <ele>373</ele>
        <time>2019-07-16T22:03:49Z</time>
      </trkpt>
      <trkpt lat="44.65872" lon="1.55887">
        <ele>369</ele>
        <time>2019-07-16T22:03:53Z</time>
      </trkpt>
      <trkpt lat="44.65853" lon="1.55879">
        <ele>365</ele>
        <time>2019-07-16T22:03:56Z</time>
      </trkpt>
      <trkpt lat="44.65834" lon="1.55866">
        <ele>361</ele>
        <time>2019-07-16T22:04:00Z</time>
      </trkpt>
      <trkpt lat="44.65823" lon="1.55856">
        <ele>360</ele>
        <time>2019-07-16T22:04:02Z</time>
      </trkpt>
      <trkpt lat="44.65816" lon="1.5584">
        <ele>360</ele>
        <time>2019-07-16T22:04:05Z</time>
      </trkpt>
      <trkpt lat="44.65811" lon="1.55823">
        <ele>359</ele>
        <time>2019-07-16T22:04:07Z</time>
      </trkpt>
      <trkpt lat="44.65813" lon="1.55805">
        <ele>358</ele>
        <time>2019-07-16T22:04:09Z</time>
      </trkpt>
      <trkpt lat="44.65819" lon="1.55785">
        <ele>358</ele>
        <time>2019-07-16T22:04:12Z</time>
      </trkpt>
      <trkpt lat="44.65837" lon="1.55752">
        <ele>359</ele>
        <time>2019-07-16T22:04:17Z</time>
      </trkpt>
      <trkpt lat="44.65864" lon="1.55706">
        <ele>361</ele>
        <time>2019-07-16T22:04:25Z</time>
      </trkpt>
      <trkpt lat="44.65908" lon="1.55643">
        <ele>357</ele>
        <time>2019-07-16T22:04:36Z</time>
      </trkpt>
      <trkpt lat="44.65975" lon="1.55554">
        <ele>357</ele>
        <time>2019-07-16T22:04:52Z</time>
      </trkpt>
      <trkpt lat="44.66049" lon="1.5544">
        <ele>352</ele>
        <time>2019-07-16T22:05:12Z</time>
      </trkpt>
      <trkpt lat="44.66113" lon="1.55348">
        <ele>349</ele>
        <time>2019-07-16T22:05:28Z</time>
      </trkpt>
      <trkpt lat="44.66142" lon="1.55294">
        <ele>347</ele>
        <time>2019-07-16T22:05:37Z</time>
      </trkpt>
      <trkpt lat="44.66176" lon="1.55225">
        <ele>341</ele>
        <time>2019-07-16T22:05:47Z</time>
      </trkpt>
      <trkpt lat="44.66225" lon="1.55116">
        <ele>340</ele>
        <time>2019-07-16T22:06:04Z</time>
      </trkpt>
      <trkpt lat="44.66251" lon="1.55067">
        <ele>335</ele>
        <time>2019-07-16T22:06:11Z</time>
      </trkpt>
      <trkpt lat="44.66278" lon="1.55028">
        <ele>337</ele>
        <time>2019-07-16T22:06:18Z</time>
      </trkpt>
      <trkpt lat="44.66293" lon="1.54999">
        <ele>336</ele>
        <time>2019-07-16T22:06:23Z</time>
      </trkpt>
      <trkpt lat="44.66346" lon="1.54887">
        <ele>330</ele>
        <time>2019-07-16T22:06:40Z</time>
      </trkpt>
      <trkpt lat="44.66411" lon="1.54764">
        <ele>326</ele>
        <time>2019-07-16T22:06:59Z</time>
      </trkpt>
      <trkpt lat="44.66429" lon="1.54739">
        <ele>325</ele>
        <time>2019-07-16T22:07:04Z</time>
      </trkpt>
      <trkpt lat="44.66571" lon="1.54567">
        <ele>317</ele>
        <time>2019-07-16T22:07:37Z</time>
      </trkpt>
      <trkpt lat="44.66709" lon="1.54431">
        <ele>309</ele>
        <time>2019-07-16T22:08:07Z</time>
      </trkpt>
      <trkpt lat="44.66723" lon="1.54409">
        <ele>308</ele>
        <time>2019-07-16T22:08:11Z</time>
      </trkpt>
      <trkpt lat="44.66742" lon="1.54373">
        <ele>307</ele>
        <time>2019-07-16T22:08:17Z</time>
      </trkpt>
      <trkpt lat="44.66755" lon="1.54343">
        <ele>307</ele>
        <time>2019-07-16T22:08:21Z</time>
      </trkpt>
      <trkpt lat="44.66765" lon="1.54311">
        <ele>307</ele>
        <time>2019-07-16T22:08:25Z</time>
      </trkpt>
      <trkpt lat="44.66798" lon="1.5417">
        <ele>303</ele>
        <time>2019-07-16T22:08:44Z</time>
      </trkpt>
      <trkpt lat="44.66805" lon="1.54124">
        <ele>302</ele>
        <time>2019-07-16T22:08:50Z</time>
      </trkpt>
      <trkpt lat="44.6681" lon="1.54044">
        <ele>301</ele>
        <time>2019-07-16T22:09:00Z</time>
      </trkpt>
      <trkpt lat="44.66812" lon="1.53987">
        <ele>300</ele>
        <time>2019-07-16T22:09:08Z</time>
      </trkpt>
      <trkpt lat="44.6681" lon="1.5394">
        <ele>301</ele>
        <time>2019-07-16T22:09:14Z</time>
      </trkpt>
      <trkpt lat="44.66777" lon="1.5376">
        <ele>298</ele>
        <time>2019-07-16T22:09:37Z</time>
      </trkpt>
      <trkpt lat="44.66776" lon="1.53738">
        <ele>298</ele>
        <time>2019-07-16T22:09:40Z</time>
      </trkpt>
      <trkpt lat="44.66779" lon="1.53722">
        <ele>297</ele>
        <time>2019-07-16T22:09:42Z</time>
      </trkpt>
      <trkpt lat="44.66789" lon="1.53707">
        <ele>297</ele>
        <time>2019-07-16T22:09:45Z</time>
      </trkpt>
      <trkpt lat="44.6698" lon="1.53554">
        <ele>294</ele>
        <time>2019-07-16T22:10:24Z</time>
      </trkpt>
      <trkpt lat="44.66999" lon="1.53535">
        <ele>293</ele>
        <time>2019-07-16T22:10:28Z</time>
      </trkpt>
      <trkpt lat="44.67025" lon="1.53502">
        <ele>295</ele>
        <time>2019-07-16T22:10:34Z</time>
      </trkpt>
      <trkpt lat="44.67059" lon="1.53448">
        <ele>295</ele>
        <time>2019-07-16T22:10:43Z</time>
      </trkpt>
      <trkpt lat="44.67084" lon="1.53412">
        <ele>293</ele>
        <time>2019-07-16T22:10:50Z</time>
      </trkpt>
      <trkpt lat="44.67118" lon="1.53372">
        <ele>291</ele>
        <time>2019-07-16T22:10:57Z</time>
      </trkpt>
      <trkpt lat="44.67172" lon="1.53317">
        <ele>287</ele>
        <time>2019-07-16T22:11:09Z</time>
      </trkpt>
      <trkpt lat="44.67227" lon="1.53244">
        <ele>290</ele>
        <time>2019-07-16T22:11:23Z</time>
      </trkpt>
      <trkpt lat="44.67377" lon="1.5303">
        <ele>285</ele>
        <time>2019-07-16T22:12:01Z</time>
      </trkpt>
      <trkpt lat="44.67381" lon="1.53016">
        <ele>284</ele>
        <time>2019-07-16T22:12:03Z</time>
      </trkpt>
      <trkpt lat="44.67394" lon="1.52996">
        <ele>283</ele>
        <time>2019-07-16T22:12:06Z</time>
      </trkpt>
      <trkpt lat="44.67407" lon="1.52979">
        <ele>283</ele>
        <time>2019-07-16T22:12:09Z</time>
      </trkpt>
      <trkpt lat="44.67417" lon="1.5297">
        <ele>283</ele>
        <time>2019-07-16T22:12:11Z</time>
      </trkpt>
      <trkpt lat="44.6743" lon="1.52953">
        <ele>283</ele>
        <time>2019-07-16T22:12:14Z</time>
      </trkpt>
      <trkpt lat="44.67454" lon="1.52915">
        <ele>283</ele>
        <time>2019-07-16T22:12:21Z</time>
      </trkpt>
      <trkpt lat="44.67505" lon="1.52842">
        <ele>282</ele>
        <time>2019-07-16T22:12:34Z</time>
      </trkpt>
      <trkpt lat="44.67516" lon="1.52822">
        <ele>283</ele>
        <time>2019-07-16T22:12:37Z</time>
      </trkpt>
      <trkpt lat="44.67519" lon="1.52799">
        <ele>282</ele>
        <time>2019-07-16T22:12:40Z</time>
      </trkpt>
      <trkpt lat="44.67519" lon="1.52774">
        <ele>280</ele>
        <time>2019-07-16T22:12:43Z</time>
      </trkpt>
      <trkpt lat="44.67509" lon="1.52719">
        <ele>277</ele>
        <time>2019-07-16T22:12:50Z</time>
      </trkpt>
      <trkpt lat="44.67516" lon="1.52692">
        <ele>277</ele>
        <time>2019-07-16T22:12:54Z</time>
      </trkpt>
      <trkpt lat="44.67541" lon="1.52616">
        <ele>277</ele>
        <time>2019-07-16T22:13:05Z</time>
      </trkpt>
      <trkpt lat="44.67548" lon="1.52581">
        <ele>277</ele>
        <time>2019-07-16T22:13:09Z</time>
      </trkpt>
      <trkpt lat="44.6755" lon="1.52538">
        <ele>276</ele>
        <time>2019-07-16T22:13:15Z</time>
      </trkpt>
      <trkpt lat="44.67555" lon="1.52503">
        <ele>275</ele>
        <time>2019-07-16T22:13:19Z</time>
      </trkpt>
      <trkpt lat="44.6758" lon="1.5237">
        <ele>276</ele>
        <time>2019-07-16T22:13:37Z</time>
      </trkpt>
      <trkpt lat="44.676" lon="1.52314">
        <ele>277</ele>
        <time>2019-07-16T22:13:45Z</time>
      </trkpt>
      <trkpt lat="44.67616" lon="1.52282">
        <ele>277</ele>
        <time>2019-07-16T22:13:49Z</time>
      </trkpt>
      <trkpt lat="44.67664" lon="1.52215">
        <ele>274</ele>
        <time>2019-07-16T22:14:01Z</time>
      </trkpt>
      <trkpt lat="44.67705" lon="1.52148">
        <ele>275</ele>
        <time>2019-07-16T22:14:13Z</time>
      </trkpt>
      <trkpt lat="44.67719" lon="1.52126">
        <ele>275</ele>
        <time>2019-07-16T22:14:16Z</time>
      </trkpt>
      <trkpt lat="44.67744" lon="1.5207">
        <ele>277</ele>
        <time>2019-07-16T22:14:25Z</time>
      </trkpt>
      <trkpt lat="44.67808" lon="1.52">
        <ele>279</ele>
        <time>2019-07-16T22:14:39Z</time>
      </trkpt>
      <trkpt lat="44.6785" lon="1.51967">
        <ele>279</ele>
        <time>2019-07-16T22:14:48Z</time>
      </trkpt>
      <trkpt lat="44.67922" lon="1.51922">
        <ele>277</ele>
        <time>2019-07-16T22:15:02Z</time>
      </trkpt>
      <trkpt lat="44.67992" lon="1.51891">
        <ele>274</ele>
        <time>2019-07-16T22:15:15Z</time>
      </trkpt>
      <trkpt lat="44.68071" lon="1.51849">
        <ele>273</ele>
        <time>2019-07-16T22:15:30Z</time>
      </trkpt>
      <trkpt lat="44.6809" lon="1.51832">
        <ele>273</ele>
        <time>2019-07-16T22:15:34Z</time>
      </trkpt>
      <trkpt lat="44.68105" lon="1.51802">
        <ele>272</ele>
        <time>2019-07-16T22:15:39Z</time>
      </trkpt>
      <trkpt lat="44.68115" lon="1.51774">
        <ele>271</ele>
        <time>2019-07-16T22:15:42Z</time>
      </trkpt>
      <trkpt lat="44.68117" lon="1.51712">
        <ele>268</ele>
        <time>2019-07-16T22:15:50Z</time>
      </trkpt>
      <trkpt lat="44.68104" lon="1.51612">
        <ele>265</ele>
        <time>2019-07-16T22:16:03Z</time>
      </trkpt>
      <trkpt lat="44.68095" lon="1.51556">
        <ele>264</ele>
        <time>2019-07-16T22:16:10Z</time>
      </trkpt>
      <trkpt lat="44.68085" lon="1.51515">
        <ele>263</ele>
        <time>2019-07-16T22:16:16Z</time>
      </trkpt>
      <trkpt lat="44.68048" lon="1.51401">
        <ele>258</ele>
        <time>2019-07-16T22:16:32Z</time>
      </trkpt>
      <trkpt lat="44.68049" lon="1.51247">
        <ele>257</ele>
        <time>2019-07-16T22:16:51Z</time>
      </trkpt>
      <trkpt lat="44.68055" lon="1.5123">
        <ele>257</ele>
        <time>2019-07-16T22:16:54Z</time>
      </trkpt>
      <trkpt lat="44.6807" lon="1.51221">
        <ele>257</ele>
        <time>2019-07-16T22:16:57Z</time>
      </trkpt>
      <trkpt lat="44.68113" lon="1.51206">
        <ele>260</ele>
        <time>2019-07-16T22:17:04Z</time>
      </trkpt>
      <trkpt lat="44.68164" lon="1.51192">
        <ele>265</ele>
        <time>2019-07-16T22:17:14Z</time>
      </trkpt>
      <trkpt lat="44.68162" lon="1.5117">
        <ele>266</ele>
        <time>2019-07-16T22:17:17Z</time>
      </trkpt>
      <trkpt lat="44.68146" lon="1.51063">
        <ele>263</ele>
        <time>2019-07-16T22:17:30Z</time>
      </trkpt>
      <trkpt lat="44.68121" lon="1.50959">
        <ele>266</ele>
        <time>2019-07-16T22:17:44Z</time>
      </trkpt>
      <trkpt lat="44.68102" lon="1.50905">
        <ele>267</ele>
        <time>2019-07-16T22:17:52Z</time>
      </trkpt>
      <trkpt lat="44.68079" lon="1.50867">
        <ele>265</ele>
        <time>2019-07-16T22:17:58Z</time>
      </trkpt>
      <trkpt lat="44.68053" lon="1.50829">
        <ele>265</ele>
        <time>2019-07-16T22:18:05Z</time>
      </trkpt>
      <trkpt lat="44.68012" lon="1.50782">
        <ele>263</ele>
        <time>2019-07-16T22:18:14Z</time>
      </trkpt>
      <trkpt lat="44.67963" lon="1.5073">
        <ele>261</ele>
        <time>2019-07-16T22:18:25Z</time>
      </trkpt>
      <trkpt lat="44.67932" lon="1.50694">
        <ele>259</ele>
        <time>2019-07-16T22:18:32Z</time>
      </trkpt>
      <trkpt lat="44.67891" lon="1.50654">
        <ele>257</ele>
        <time>2019-07-16T22:18:41Z</time>
      </trkpt>
      <trkpt lat="44.67868" lon="1.50617">
        <ele>256</ele>
        <time>2019-07-16T22:18:47Z</time>
      </trkpt>
      <trkpt lat="44.67844" lon="1.50562">
        <ele>256</ele>
        <time>2019-07-16T22:18:56Z</time>
      </trkpt>
      <trkpt lat="44.67786" lon="1.5028">
        <ele>253</ele>
        <time>2019-07-16T22:19:33Z</time>
      </trkpt>
      <trkpt lat="44.67679" lon="1.49971">
        <ele>250</ele>
        <time>2019-07-16T22:20:16Z</time>
      </trkpt>
      <trkpt lat="44.67644" lon="1.49863">
        <ele>249</ele>
        <time>2019-07-16T22:20:31Z</time>
      </trkpt>
      <trkpt lat="44.67636" lon="1.49714">
        <ele>252</ele>
        <time>2019-07-16T22:20:50Z</time>
      </trkpt>
      <trkpt lat="44.67618" lon="1.49577">
        <ele>254</ele>
        <time>2019-07-16T22:21:08Z</time>
      </trkpt>
      <trkpt lat="44.67588" lon="1.49454">
        <ele>251</ele>
        <time>2019-07-16T22:21:24Z</time>
      </trkpt>
      <trkpt lat="44.67561" lon="1.4936">
        <ele>251</ele>
        <time>2019-07-16T22:21:37Z</time>
      </trkpt>
      <trkpt lat="44.67516" lon="1.49234">
        <ele>251</ele>
        <time>2019-07-16T22:21:55Z</time>
      </trkpt>
      <trkpt lat="44.67498" lon="1.49168">
        <ele>250</ele>
        <time>2019-07-16T22:22:04Z</time>
      </trkpt>
      <trkpt lat="44.67479" lon="1.49084">
        <ele>248</ele>
        <time>2019-07-16T22:22:15Z</time>
      </trkpt>
      <trkpt lat="44.67471" lon="1.49028">
        <ele>249</ele>
        <time>2019-07-16T22:22:22Z</time>
      </trkpt>
      <trkpt lat="44.67466" lon="1.48945">
        <ele>249</ele>
        <time>2019-07-16T22:22:33Z</time>
      </trkpt>
      <trkpt lat="44.67461" lon="1.48803">
        <ele>252</ele>
        <time>2019-07-16T22:22:51Z</time>
      </trkpt>
      <trkpt lat="44.67448" lon="1.48611">
        <ele>248</ele>
        <time>2019-07-16T22:23:15Z</time>
      </trkpt>
      <trkpt lat="44.67439" lon="1.48549">
        <ele>250</ele>
        <time>2019-07-16T22:23:23Z</time>
      </trkpt>
      <trkpt lat="44.67425" lon="1.48474">
        <ele>250</ele>
        <time>2019-07-16T22:23:33Z</time>
      </trkpt>
      <trkpt lat="44.67411" lon="1.48418">
        <ele>247</ele>
        <time>2019-07-16T22:23:40Z</time>
      </trkpt>
      <trkpt lat="44.67402" lon="1.48344">
        <ele>249</ele>
        <time>2019-07-16T22:23:50Z</time>
      </trkpt>
      <trkpt lat="44.674" lon="1.48206">
        <ele>247</ele>
        <time>2019-07-16T22:24:07Z</time>
      </trkpt>
      <trkpt lat="44.67402" lon="1.48153">
        <ele>246</ele>
        <time>2019-07-16T22:24:14Z</time>
      </trkpt>
      <trkpt lat="44.67407" lon="1.48096">
        <ele>246</ele>
        <time>2019-07-16T22:24:21Z</time>
      </trkpt>
      <trkpt lat="44.67425" lon="1.48018">
        <ele>244</ele>
        <time>2019-07-16T22:24:32Z</time>
      </trkpt>
      <trkpt lat="44.67451" lon="1.4789">
        <ele>244</ele>
        <time>2019-07-16T22:24:49Z</time>
      </trkpt>
      <trkpt lat="44.67466" lon="1.47794">
        <ele>243</ele>
        <time>2019-07-16T22:25:01Z</time>
      </trkpt>
      <trkpt lat="44.67468" lon="1.47762">
        <ele>242</ele>
        <time>2019-07-16T22:25:05Z</time>
      </trkpt>
      <trkpt lat="44.6747" lon="1.47655">
        <ele>232</ele>
        <time>2019-07-16T22:25:19Z</time>
      </trkpt>
      <trkpt lat="44.67452" lon="1.47654">
        <ele>231</ele>
        <time>2019-07-16T22:25:22Z</time>
      </trkpt>
      <trkpt lat="44.67425" lon="1.47658">
        <ele>230</ele>
        <time>2019-07-16T22:25:27Z</time>
      </trkpt>
      <trkpt lat="44.67337" lon="1.47685">
        <ele>233</ele>
        <time>2019-07-16T22:25:43Z</time>
      </trkpt>
      <trkpt lat="44.67285" lon="1.47707">
        <ele>233</ele>
        <time>2019-07-16T22:25:52Z</time>
      </trkpt>
      <trkpt lat="44.67248" lon="1.47731">
        <ele>233</ele>
        <time>2019-07-16T22:26:00Z</time>
      </trkpt>
      <trkpt lat="44.6717" lon="1.47807">
        <ele>234</ele>
        <time>2019-07-16T22:26:17Z</time>
      </trkpt>
      <trkpt lat="44.67146" lon="1.47727">
        <ele>235</ele>
        <time>2019-07-16T22:26:28Z</time>
      </trkpt>
      <trkpt lat="44.67129" lon="1.47659">
        <ele>235</ele>
        <time>2019-07-16T22:26:37Z</time>
      </trkpt>
      <trkpt lat="44.67123" lon="1.4762">
        <ele>235</ele>
        <time>2019-07-16T22:26:42Z</time>
      </trkpt>
      <trkpt lat="44.67116" lon="1.47563">
        <ele>235</ele>
        <time>2019-07-16T22:26:49Z</time>
      </trkpt>
      <trkpt lat="44.67109" lon="1.47409">
        <ele>236</ele>
        <time>2019-07-16T22:27:09Z</time>
      </trkpt>
      <trkpt lat="44.67089" lon="1.47196">
        <ele>232</ele>
        <time>2019-07-16T22:27:36Z</time>
      </trkpt>
      <trkpt lat="44.67074" lon="1.47071">
        <ele>228</ele>
        <time>2019-07-16T22:27:52Z</time>
      </trkpt>
      <trkpt lat="44.67047" lon="1.4695">
        <ele>230</ele>
        <time>2019-07-16T22:28:08Z</time>
      </trkpt>
      <trkpt lat="44.66996" lon="1.468">
        <ele>234</ele>
        <time>2019-07-16T22:28:29Z</time>
      </trkpt>
      <trkpt lat="44.66952" lon="1.46603">
        <ele>238</ele>
        <time>2019-07-16T22:28:55Z</time>
      </trkpt>
      <trkpt lat="44.6692" lon="1.46518">
        <ele>239</ele>
        <time>2019-07-16T22:29:07Z</time>
      </trkpt>
      <trkpt lat="44.66898" lon="1.46445">
        <ele>240</ele>
        <time>2019-07-16T22:29:17Z</time>
      </trkpt>
      <trkpt lat="44.66875" lon="1.46312">
        <ele>239</ele>
        <time>2019-07-16T22:29:35Z</time>
      </trkpt>
      <trkpt lat="44.6684" lon="1.46223">
        <ele>237</ele>
        <time>2019-07-16T22:29:47Z</time>
      </trkpt>
      <trkpt lat="44.6681" lon="1.46134">
        <ele>238</ele>
        <time>2019-07-16T22:30:00Z</time>
      </trkpt>
      <trkpt lat="44.66773" lon="1.46032">
        <ele>234</ele>
        <time>2019-07-16T22:30:14Z</time>
      </trkpt>
      <trkpt lat="44.66714" lon="1.45961">
        <ele>235</ele>
        <time>2019-07-16T22:30:28Z</time>
      </trkpt>
      <trkpt lat="44.66612" lon="1.45808">
        <ele>228</ele>
        <time>2019-07-16T22:30:55Z</time>
      </trkpt>
      <trkpt lat="44.66557" lon="1.45703">
        <ele>222</ele>
        <time>2019-07-16T22:31:11Z</time>
      </trkpt>
      <trkpt lat="44.66514" lon="1.45636">
        <ele>219</ele>
        <time>2019-07-16T22:31:23Z</time>
      </trkpt>
      <trkpt lat="44.6642" lon="1.45579">
        <ele>217</ele>
        <time>2019-07-16T22:31:41Z</time>
      </trkpt>
      <trkpt lat="44.66371" lon="1.45523">
        <ele>217</ele>
        <time>2019-07-16T22:31:52Z</time>
      </trkpt>
      <trkpt lat="44.66305" lon="1.45438">
        <ele>216</ele>
        <time>2019-07-16T22:32:08Z</time>
      </trkpt>
      <trkpt lat="44.66215" lon="1.45337">
        <ele>215</ele>
        <time>2019-07-16T22:32:28Z</time>
      </trkpt>
      <trkpt lat="44.66176" lon="1.45297">
        <ele>214</ele>
        <time>2019-07-16T22:32:37Z</time>
      </trkpt>
      <trkpt lat="44.66143" lon="1.45272">
        <ele>215</ele>
        <time>2019-07-16T22:32:44Z</time>
      </trkpt>
      <trkpt lat="44.6606" lon="1.4526">
        <ele>216</ele>
        <time>2019-07-16T22:32:59Z</time>
      </trkpt>
      <trkpt lat="44.65974" lon="1.4526">
        <ele>213</ele>
        <time>2019-07-16T22:33:14Z</time>
      </trkpt>
      <trkpt lat="44.65845" lon="1.45239">
        <ele>213</ele>
        <time>2019-07-16T22:33:37Z</time>
      </trkpt>
      <trkpt lat="44.65754" lon="1.45211">
        <ele>213</ele>
        <time>2019-07-16T22:33:54Z</time>
      </trkpt>
      <trkpt lat="44.65534" lon="1.4502">
        <ele>210</ele>
        <time>2019-07-16T22:34:40Z</time>
      </trkpt>
      <trkpt lat="44.65432" lon="1.44945">
        <ele>210</ele>
        <time>2019-07-16T22:35:00Z</time>
      </trkpt>
      <trkpt lat="44.65358" lon="1.44903">
        <ele>210</ele>
        <time>2019-07-16T22:35:14Z</time>
      </trkpt>
      <trkpt lat="44.6527" lon="1.44874">
        <ele>210</ele>
        <time>2019-07-16T22:35:30Z</time>
      </trkpt>
      <trkpt lat="44.65176" lon="1.44834">
        <ele>213</ele>
        <time>2019-07-16T22:35:48Z</time>
      </trkpt>
      <trkpt lat="44.65157" lon="1.44813">
        <ele>214</ele>
        <time>2019-07-16T22:35:52Z</time>
      </trkpt>
      <trkpt lat="44.6513" lon="1.44749">
        <ele>213</ele>
        <time>2019-07-16T22:36:02Z</time>
      </trkpt>
      <trkpt lat="44.65087" lon="1.44607">
        <ele>208</ele>
        <time>2019-07-16T22:36:21Z</time>
      </trkpt>
      <trkpt lat="44.65043" lon="1.44521">
        <ele>208</ele>
        <time>2019-07-16T22:36:34Z</time>
      </trkpt>
      <trkpt lat="44.64986" lon="1.44421">
        <ele>209</ele>
        <time>2019-07-16T22:36:51Z</time>
      </trkpt>
      <trkpt lat="44.649" lon="1.44268">
        <ele>209</ele>
        <time>2019-07-16T22:37:15Z</time>
      </trkpt>
      <trkpt lat="44.64816" lon="1.44134">
        <ele>209</ele>
        <time>2019-07-16T22:37:38Z</time>
      </trkpt>
      <trkpt lat="44.64717" lon="1.44015">
        <ele>216</ele>
        <time>2019-07-16T22:38:01Z</time>
      </trkpt>
      <trkpt lat="44.64709" lon="1.44003">
        <ele>217</ele>
        <time>2019-07-16T22:38:03Z</time>
      </trkpt>
      <trkpt lat="44.64696" lon="1.43992">
        <ele>218</ele>
        <time>2019-07-16T22:38:06Z</time>
      </trkpt>
      <trkpt lat="44.6467" lon="1.43952">
        <ele>221</ele>
        <time>2019-07-16T22:38:13Z</time>
      </trkpt>
      <trkpt lat="44.64655" lon="1.43792">
        <ele>219</ele>
        <time>2019-07-16T22:38:33Z</time>
      </trkpt>
      <trkpt lat="44.64646" lon="1.43727">
        <ele>217</ele>
        <time>2019-07-16T22:38:42Z</time>
      </trkpt>
      <trkpt lat="44.64613" lon="1.43562">
        <ele>220</ele>
        <time>2019-07-16T22:39:03Z</time>
      </trkpt>
      <trkpt lat="44.64594" lon="1.43457">
        <ele>224</ele>
        <time>2019-07-16T22:39:17Z</time>
      </trkpt>
      <trkpt lat="44.64591" lon="1.43403">
        <ele>226</ele>
        <time>2019-07-16T22:39:24Z</time>
      </trkpt>
      <trkpt lat="44.64598" lon="1.43335">
        <ele>227</ele>
        <time>2019-07-16T22:39:33Z</time>
      </trkpt>
      <trkpt lat="44.64737" lon="1.42615">
        <ele>207</ele>
        <time>2019-07-16T22:41:07Z</time>
      </trkpt>
      <trkpt lat="44.64768" lon="1.42466">
        <ele>205</ele>
        <time>2019-07-16T22:41:27Z</time>
      </trkpt>
      <trkpt lat="44.64792" lon="1.42329">
        <ele>202</ele>
        <time>2019-07-16T22:41:45Z</time>
      </trkpt>
      <trkpt lat="44.64815" lon="1.42146">
        <ele>201</ele>
        <time>2019-07-16T22:42:08Z</time>
      </trkpt>
      <trkpt lat="44.64843" lon="1.42057">
        <ele>200</ele>
        <time>2019-07-16T22:42:20Z</time>
      </trkpt>
      <trkpt lat="44.64918" lon="1.41832">
        <ele>199</ele>
        <time>2019-07-16T22:42:52Z</time>
      </trkpt>
      <trkpt lat="44.64966" lon="1.41732">
        <ele>198</ele>
        <time>2019-07-16T22:43:07Z</time>
      </trkpt>
      <trkpt lat="44.65019" lon="1.41629">
        <ele>195</ele>
        <time>2019-07-16T22:43:23Z</time>
      </trkpt>
      <trkpt lat="44.65025" lon="1.41601">
        <ele>195</ele>
        <time>2019-07-16T22:43:27Z</time>
      </trkpt>
      <trkpt lat="44.65035" lon="1.41469">
        <ele>198</ele>
        <time>2019-07-16T22:43:44Z</time>
      </trkpt>
      <trkpt lat="44.65063" lon="1.41351">
        <ele>198</ele>
        <time>2019-07-16T22:43:59Z</time>
      </trkpt>
      <trkpt lat="44.65137" lon="1.41127">
        <ele>193</ele>
        <time>2019-07-16T22:44:31Z</time>
      </trkpt>
      <trkpt lat="44.65186" lon="1.40869">
        <ele>190</ele>
        <time>2019-07-16T22:45:04Z</time>
      </trkpt>
      <trkpt lat="44.65236" lon="1.40581">
        <ele>189</ele>
        <time>2019-07-16T22:45:42Z</time>
      </trkpt>
      <trkpt lat="44.65281" lon="1.40393">
        <ele>187</ele>
        <time>2019-07-16T22:46:07Z</time>
      </trkpt>
      <trkpt lat="44.65362" lon="1.40086">
        <ele>186</ele>
        <time>2019-07-16T22:46:49Z</time>
      </trkpt>
      <trkpt lat="44.65395" lon="1.39899">
        <ele>186</ele>
        <time>2019-07-16T22:47:13Z</time>
      </trkpt>
      <trkpt lat="44.65419" lon="1.39716">
        <ele>185</ele>
        <time>2019-07-16T22:47:37Z</time>
      </trkpt>
      <trkpt lat="44.65449" lon="1.39524">
        <ele>185</ele>
        <time>2019-07-16T22:48:01Z</time>
      </trkpt>
      <trkpt lat="44.65553" lon="1.39532">
        <ele>184</ele>
        <time>2019-07-16T22:48:20Z</time>
      </trkpt>
      <trkpt lat="44.65582" lon="1.39532">
        <ele>184</ele>
        <time>2019-07-16T22:48:25Z</time>
      </trkpt>
      <trkpt lat="44.65606" lon="1.39527">
        <ele>185</ele>
        <time>2019-07-16T22:48:29Z</time>
      </trkpt>
      <trkpt lat="44.65643" lon="1.39508">
        <ele>184</ele>
        <time>2019-07-16T22:48:36Z</time>
      </trkpt>
      <trkpt lat="44.65678" lon="1.39476">
        <ele>185</ele>
        <time>2019-07-16T22:48:44Z</time>
      </trkpt>
      <trkpt lat="44.65705" lon="1.39431">
        <ele>185</ele>
        <time>2019-07-16T22:48:51Z</time>
      </trkpt>
      <trkpt lat="44.65877" lon="1.39097">
        <ele>191</ele>
        <time>2019-07-16T22:49:43Z</time>
      </trkpt>
      <trkpt lat="44.65976" lon="1.38908">
        <ele>192</ele>
        <time>2019-07-16T22:50:13Z</time>
      </trkpt>
      <trkpt lat="44.66002" lon="1.38869">
        <ele>191</ele>
        <time>2019-07-16T22:50:20Z</time>
      </trkpt>
      <trkpt lat="44.66031" lon="1.38833">
        <ele>192</ele>
        <time>2019-07-16T22:50:27Z</time>
      </trkpt>
      <trkpt lat="44.66088" lon="1.38768">
        <ele>191</ele>
        <time>2019-07-16T22:50:40Z</time>
      </trkpt>
      <trkpt lat="44.66147" lon="1.3871">
        <ele>192</ele>
        <time>2019-07-16T22:50:53Z</time>
      </trkpt>
      <trkpt lat="44.66168" lon="1.38687">
        <ele>190</ele>
        <time>2019-07-16T22:50:57Z</time>
      </trkpt>
      <trkpt lat="44.66225" lon="1.38595">
        <ele>186</ele>
        <time>2019-07-16T22:51:13Z</time>
      </trkpt>
      <trkpt lat="44.66243" lon="1.38572">
        <ele>184</ele>
        <time>2019-07-16T22:51:17Z</time>
      </trkpt>
      <trkpt lat="44.66494" lon="1.38344">
        <ele>187</ele>
        <time>2019-07-16T22:52:10Z</time>
      </trkpt>
      <trkpt lat="44.66551" lon="1.38299">
        <ele>189</ele>
        <time>2019-07-16T22:52:22Z</time>
      </trkpt>
      <trkpt lat="44.66714" lon="1.38175">
        <ele>187</ele>
        <time>2019-07-16T22:52:55Z</time>
      </trkpt>
      <trkpt lat="44.66757" lon="1.38139">
        <ele>187</ele>
        <time>2019-07-16T22:53:04Z</time>
      </trkpt>
      <trkpt lat="44.66799" lon="1.38099">
        <ele>188</ele>
        <time>2019-07-16T22:53:13Z</time>
      </trkpt>
      <trkpt lat="44.66828" lon="1.38067">
        <ele>187</ele>
        <time>2019-07-16T22:53:19Z</time>
      </trkpt>
      <trkpt lat="44.66892" lon="1.37971">
        <ele>184</ele>
        <time>2019-07-16T22:53:36Z</time>
      </trkpt>
      <trkpt lat="44.66914" lon="1.37935">
        <ele>181</ele>
        <time>2019-07-16T22:53:42Z</time>
      </trkpt>
      <trkpt lat="44.66928" lon="1.37918">
        <ele>180</ele>
        <time>2019-07-16T22:53:45Z</time>
      </trkpt>
      <trkpt lat="44.66946" lon="1.37905">
        <ele>180</ele>
        <time>2019-07-16T22:53:49Z</time>
      </trkpt>
      <trkpt lat="44.67089" lon="1.37835">
        <ele>181</ele>
        <time>2019-07-16T22:54:16Z</time>
      </trkpt>
      <trkpt lat="44.67081" lon="1.37804">
        <ele>179</ele>
        <time>2019-07-16T22:54:20Z</time>
      </trkpt>
      <trkpt lat="44.67029" lon="1.37532">
        <ele>172</ele>
        <time>2019-07-16T22:54:56Z</time>
      </trkpt>
      <trkpt lat="44.67021" lon="1.3751">
        <ele>172</ele>
        <time>2019-07-16T22:54:59Z</time>
      </trkpt>
      <trkpt lat="44.67004" lon="1.37472">
        <ele>172</ele>
        <time>2019-07-16T22:55:05Z</time>
      </trkpt>
      <trkpt lat="44.66936" lon="1.37359">
        <ele>171</ele>
        <time>2019-07-16T22:55:23Z</time>
      </trkpt>
      <trkpt lat="44.66896" lon="1.37284">
        <ele>176</ele>
        <time>2019-07-16T22:55:35Z</time>
      </trkpt>
      <trkpt lat="44.66892" lon="1.37269">
        <ele>177</ele>
        <time>2019-07-16T22:55:37Z</time>
      </trkpt>
      <trkpt lat="44.66891" lon="1.37256">
        <ele>178</ele>
        <time>2019-07-16T22:55:39Z</time>
      </trkpt>
      <trkpt lat="44.66892" lon="1.37235">
        <ele>179</ele>
        <time>2019-07-16T22:55:42Z</time>
      </trkpt>
      <trkpt lat="44.66923" lon="1.37133">
        <ele>179</ele>
        <time>2019-07-16T22:55:56Z</time>
      </trkpt>
      <trkpt lat="44.66956" lon="1.37045">
        <ele>176</ele>
        <time>2019-07-16T22:56:08Z</time>
      </trkpt>
      <trkpt lat="44.66995" lon="1.36949">
        <ele>175</ele>
        <time>2019-07-16T22:56:22Z</time>
      </trkpt>
      <trkpt lat="44.67" lon="1.36931">
        <ele>175</ele>
        <time>2019-07-16T22:56:25Z</time>
      </trkpt>
      <trkpt lat="44.67002" lon="1.36913">
        <ele>176</ele>
        <time>2019-07-16T22:56:27Z</time>
      </trkpt>
      <trkpt lat="44.67003" lon="1.3688">
        <ele>178</ele>
        <time>2019-07-16T22:56:31Z</time>
      </trkpt>
      <trkpt lat="44.66999" lon="1.36856">
        <ele>179</ele>
        <time>2019-07-16T22:56:34Z</time>
      </trkpt>
      <trkpt lat="44.66974" lon="1.36762">
        <ele>183</ele>
        <time>2019-07-16T22:56:47Z</time>
      </trkpt>
      <trkpt lat="44.66937" lon="1.36545">
        <ele>192</ele>
        <time>2019-07-16T22:57:15Z</time>
      </trkpt>
      <trkpt lat="44.66935" lon="1.36513">
        <ele>194</ele>
        <time>2019-07-16T22:57:19Z</time>
      </trkpt>
      <trkpt lat="44.66938" lon="1.36481">
        <ele>196</ele>
        <time>2019-07-16T22:57:23Z</time>
      </trkpt>
      <trkpt lat="44.66943" lon="1.36454">
        <ele>198</ele>
        <time>2019-07-16T22:57:27Z</time>
      </trkpt>
      <trkpt lat="44.66971" lon="1.36386">
        <ele>201</ele>
        <time>2019-07-16T22:57:37Z</time>
      </trkpt>
      <trkpt lat="44.66977" lon="1.36364">
        <ele>202</ele>
        <time>2019-07-16T22:57:40Z</time>
      </trkpt>
      <trkpt lat="44.66979" lon="1.36337">
        <ele>203</ele>
        <time>2019-07-16T22:57:43Z</time>
      </trkpt>
      <trkpt lat="44.66976" lon="1.36313">
        <ele>204</ele>
        <time>2019-07-16T22:57:46Z</time>
      </trkpt>
      <trkpt lat="44.66944" lon="1.36202">
        <ele>209</ele>
        <time>2019-07-16T22:58:01Z</time>
      </trkpt>
      <trkpt lat="44.66936" lon="1.3619">
        <ele>209</ele>
        <time>2019-07-16T22:58:03Z</time>
      </trkpt>
      <trkpt lat="44.66922" lon="1.36181">
        <ele>210</ele>
        <time>2019-07-16T22:58:06Z</time>
      </trkpt>
      <trkpt lat="44.66856" lon="1.36166">
        <ele>218</ele>
        <time>2019-07-16T22:58:18Z</time>
      </trkpt>
      <trkpt lat="44.66845" lon="1.36159">
        <ele>220</ele>
        <time>2019-07-16T22:58:20Z</time>
      </trkpt>
      <trkpt lat="44.66837" lon="1.36147">
        <ele>222</ele>
        <time>2019-07-16T22:58:22Z</time>
      </trkpt>
      <trkpt lat="44.66833" lon="1.36132">
        <ele>223</ele>
        <time>2019-07-16T22:58:24Z</time>
      </trkpt>
      <trkpt lat="44.66832" lon="1.36115">
        <ele>224</ele>
        <time>2019-07-16T22:58:27Z</time>
      </trkpt>
      <trkpt lat="44.66834" lon="1.36102">
        <ele>224</ele>
        <time>2019-07-16T22:58:28Z</time>
      </trkpt>
      <trkpt lat="44.66846" lon="1.36085">
        <ele>223</ele>
        <time>2019-07-16T22:58:31Z</time>
      </trkpt>
      <trkpt lat="44.66877" lon="1.36048">
        <ele>224</ele>
        <time>2019-07-16T22:58:38Z</time>
      </trkpt>
      <trkpt lat="44.66884" lon="1.36029">
        <ele>226</ele>
        <time>2019-07-16T22:58:41Z</time>
      </trkpt>
      <trkpt lat="44.66889" lon="1.36006">
        <ele>228</ele>
        <time>2019-07-16T22:58:44Z</time>
      </trkpt>
      <trkpt lat="44.66894" lon="1.3594">
        <ele>235</ele>
        <time>2019-07-16T22:58:53Z</time>
      </trkpt>
      <trkpt lat="44.66903" lon="1.35898">
        <ele>236</ele>
        <time>2019-07-16T22:58:58Z</time>
      </trkpt>
      <trkpt lat="44.66905" lon="1.35871">
        <ele>238</ele>
        <time>2019-07-16T22:59:02Z</time>
      </trkpt>
      <trkpt lat="44.66903" lon="1.35853">
        <ele>239</ele>
        <time>2019-07-16T22:59:04Z</time>
      </trkpt>
      <trkpt lat="44.669" lon="1.35837">
        <ele>241</ele>
        <time>2019-07-16T22:59:06Z</time>
      </trkpt>
      <trkpt lat="44.66878" lon="1.3577">
        <ele>245</ele>
        <time>2019-07-16T22:59:15Z</time>
      </trkpt>
      <trkpt lat="44.66866" lon="1.35747">
        <ele>246</ele>
        <time>2019-07-16T22:59:19Z</time>
      </trkpt>
      <trkpt lat="44.66851" lon="1.35726">
        <ele>248</ele>
        <time>2019-07-16T22:59:23Z</time>
      </trkpt>
      <trkpt lat="44.66834" lon="1.35706">
        <ele>249</ele>
        <time>2019-07-16T22:59:27Z</time>
      </trkpt>
      <trkpt lat="44.66728" lon="1.35635">
        <ele>259</ele>
        <time>2019-07-16T22:59:48Z</time>
      </trkpt>
      <trkpt lat="44.66706" lon="1.35616">
        <ele>260</ele>
        <time>2019-07-16T22:59:52Z</time>
      </trkpt>
      <trkpt lat="44.66641" lon="1.35545">
        <ele>262</ele>
        <time>2019-07-16T23:00:07Z</time>
      </trkpt>
      <trkpt lat="44.66578" lon="1.35471">
        <ele>262</ele>
        <time>2019-07-16T23:00:21Z</time>
      </trkpt>
      <trkpt lat="44.66546" lon="1.35428">
        <ele>261</ele>
        <time>2019-07-16T23:00:29Z</time>
      </trkpt>
      <trkpt lat="44.66537" lon="1.35419">
        <ele>261</ele>
        <time>2019-07-16T23:00:31Z</time>
      </trkpt>
      <trkpt lat="44.66525" lon="1.35413">
        <ele>261</ele>
        <time>2019-07-16T23:00:34Z</time>
      </trkpt>
      <trkpt lat="44.66512" lon="1.35411">
        <ele>262</ele>
        <time>2019-07-16T23:00:36Z</time>
      </trkpt>
      <trkpt lat="44.66458" lon="1.35418">
        <ele>262</ele>
        <time>2019-07-16T23:00:45Z</time>
      </trkpt>
      <trkpt lat="44.66445" lon="1.35415">
        <ele>262</ele>
        <time>2019-07-16T23:00:48Z</time>
      </trkpt>
      <trkpt lat="44.66433" lon="1.35409">
        <ele>261</ele>
        <time>2019-07-16T23:00:50Z</time>
      </trkpt>
      <trkpt lat="44.66425" lon="1.35401">
        <ele>261</ele>
        <time>2019-07-16T23:00:52Z</time>
      </trkpt>
      <trkpt lat="44.66417" lon="1.35387">
        <ele>261</ele>
        <time>2019-07-16T23:00:54Z</time>
      </trkpt>
      <trkpt lat="44.66413" lon="1.35365">
        <ele>261</ele>
        <time>2019-07-16T23:00:57Z</time>
      </trkpt>
      <trkpt lat="44.66407" lon="1.35194">
        <ele>260</ele>
        <time>2019-07-16T23:01:19Z</time>
      </trkpt>
      <trkpt lat="44.664" lon="1.35174">
        <ele>260</ele>
        <time>2019-07-16T23:01:21Z</time>
      </trkpt>
      <trkpt lat="44.66391" lon="1.35164">
        <ele>260</ele>
        <time>2019-07-16T23:01:24Z</time>
      </trkpt>
      <trkpt lat="44.66382" lon="1.35156">
        <ele>260</ele>
        <time>2019-07-16T23:01:25Z</time>
      </trkpt>
      <trkpt lat="44.66372" lon="1.35154">
        <ele>260</ele>
        <time>2019-07-16T23:01:27Z</time>
      </trkpt>
      <trkpt lat="44.66301" lon="1.35156">
        <ele>261</ele>
        <time>2019-07-16T23:01:40Z</time>
      </trkpt>
      <trkpt lat="44.66283" lon="1.35153">
        <ele>261</ele>
        <time>2019-07-16T23:01:43Z</time>
      </trkpt>
      <trkpt lat="44.6626" lon="1.35142">
        <ele>261</ele>
        <time>2019-07-16T23:01:47Z</time>
      </trkpt>
      <trkpt lat="44.66247" lon="1.35132">
        <ele>261</ele>
        <time>2019-07-16T23:01:50Z</time>
      </trkpt>
      <trkpt lat="44.66237" lon="1.35118">
        <ele>262</ele>
        <time>2019-07-16T23:01:53Z</time>
      </trkpt>
      <trkpt lat="44.66225" lon="1.35098">
        <ele>263</ele>
        <time>2019-07-16T23:01:56Z</time>
      </trkpt>
      <trkpt lat="44.66195" lon="1.35021">
        <ele>264</ele>
        <time>2019-07-16T23:02:07Z</time>
      </trkpt>
      <trkpt lat="44.6619" lon="1.35002">
        <ele>263</ele>
        <time>2019-07-16T23:02:10Z</time>
      </trkpt>
      <trkpt lat="44.66189" lon="1.34984">
        <ele>264</ele>
        <time>2019-07-16T23:02:12Z</time>
      </trkpt>
      <trkpt lat="44.66192" lon="1.34969">
        <ele>264</ele>
        <time>2019-07-16T23:02:14Z</time>
      </trkpt>
      <trkpt lat="44.66209" lon="1.34915">
        <ele>265</ele>
        <time>2019-07-16T23:02:21Z</time>
      </trkpt>
      <trkpt lat="44.66247" lon="1.34805">
        <ele>266</ele>
        <time>2019-07-16T23:02:37Z</time>
      </trkpt>
      <trkpt lat="44.66251" lon="1.34784">
        <ele>265</ele>
        <time>2019-07-16T23:02:39Z</time>
      </trkpt>
      <trkpt lat="44.6625" lon="1.34763">
        <ele>266</ele>
        <time>2019-07-16T23:02:42Z</time>
      </trkpt>
      <trkpt lat="44.66248" lon="1.34747">
        <ele>266</ele>
        <time>2019-07-16T23:02:44Z</time>
      </trkpt>
      <trkpt lat="44.66242" lon="1.34735">
        <ele>266</ele>
        <time>2019-07-16T23:02:46Z</time>
      </trkpt>
      <trkpt lat="44.66234" lon="1.34724">
        <ele>266</ele>
        <time>2019-07-16T23:02:48Z</time>
      </trkpt>
      <trkpt lat="44.66221" lon="1.34714">
        <ele>266</ele>
        <time>2019-07-16T23:02:51Z</time>
      </trkpt>
      <trkpt lat="44.66196" lon="1.34701">
        <ele>266</ele>
        <time>2019-07-16T23:02:55Z</time>
      </trkpt>
      <trkpt lat="44.66162" lon="1.34693">
        <ele>266</ele>
        <time>2019-07-16T23:03:02Z</time>
      </trkpt>
      <trkpt lat="44.66016" lon="1.347">
        <ele>271</ele>
        <time>2019-07-16T23:03:28Z</time>
      </trkpt>
      <trkpt lat="44.66004" lon="1.34698">
        <ele>271</ele>
        <time>2019-07-16T23:03:30Z</time>
      </trkpt>
      <trkpt lat="44.65993" lon="1.34691">
        <ele>272</ele>
        <time>2019-07-16T23:03:32Z</time>
      </trkpt>
      <trkpt lat="44.6598" lon="1.34677">
        <ele>273</ele>
        <time>2019-07-16T23:03:35Z</time>
      </trkpt>
      <trkpt lat="44.65971" lon="1.34662">
        <ele>274</ele>
        <time>2019-07-16T23:03:37Z</time>
      </trkpt>
      <trkpt lat="44.65964" lon="1.34642">
        <ele>274</ele>
        <time>2019-07-16T23:03:40Z</time>
      </trkpt>
      <trkpt lat="44.65961" lon="1.34626">
        <ele>275</ele>
        <time>2019-07-16T23:03:42Z</time>
      </trkpt>
      <trkpt lat="44.65958" lon="1.34604">
        <ele>275</ele>
        <time>2019-07-16T23:03:45Z</time>
      </trkpt>
      <trkpt lat="44.65958" lon="1.34584">
        <ele>274</ele>
        <time>2019-07-16T23:03:48Z</time>
      </trkpt>
      <trkpt lat="44.65962" lon="1.34552">
        <ele>275</ele>
        <time>2019-07-16T23:03:52Z</time>
      </trkpt>
      <trkpt lat="44.65966" lon="1.34535">
        <ele>276</ele>
        <time>2019-07-16T23:03:54Z</time>
      </trkpt>
      <trkpt lat="44.65982" lon="1.34497">
        <ele>277</ele>
        <time>2019-07-16T23:03:59Z</time>
      </trkpt>
      <trkpt lat="44.65994" lon="1.3448">
        <ele>277</ele>
        <time>2019-07-16T23:04:03Z</time>
      </trkpt>
      <trkpt lat="44.6601" lon="1.34469">
        <ele>277</ele>
        <time>2019-07-16T23:04:06Z</time>
      </trkpt>
      <trkpt lat="44.66066" lon="1.3444">
        <ele>278</ele>
        <time>2019-07-16T23:04:16Z</time>
      </trkpt>
      <trkpt lat="44.66095" lon="1.3443">
        <ele>278</ele>
        <time>2019-07-16T23:04:22Z</time>
      </trkpt>
      <trkpt lat="44.66114" lon="1.34426">
        <ele>277</ele>
        <time>2019-07-16T23:04:25Z</time>
      </trkpt>
      <trkpt lat="44.6613" lon="1.34421">
        <ele>276</ele>
        <time>2019-07-16T23:04:28Z</time>
      </trkpt>
      <trkpt lat="44.66144" lon="1.34408">
        <ele>276</ele>
        <time>2019-07-16T23:04:31Z</time>
      </trkpt>
      <trkpt lat="44.66153" lon="1.3439">
        <ele>275</ele>
        <time>2019-07-16T23:04:34Z</time>
      </trkpt>
      <trkpt lat="44.66158" lon="1.34364">
        <ele>274</ele>
        <time>2019-07-16T23:04:37Z</time>
      </trkpt>
      <trkpt lat="44.66157" lon="1.34237">
        <ele>271</ele>
        <time>2019-07-16T23:04:53Z</time>
      </trkpt>
      <trkpt lat="44.66158" lon="1.34148">
        <ele>270</ele>
        <time>2019-07-16T23:05:04Z</time>
      </trkpt>
      <trkpt lat="44.66159" lon="1.34126">
        <ele>271</ele>
        <time>2019-07-16T23:05:07Z</time>
      </trkpt>
      <trkpt lat="44.66164" lon="1.34101">
        <ele>272</ele>
        <time>2019-07-16T23:05:11Z</time>
      </trkpt>
      <trkpt lat="44.66174" lon="1.34074">
        <ele>272</ele>
        <time>2019-07-16T23:05:14Z</time>
      </trkpt>
      <trkpt lat="44.66212" lon="1.34007">
        <ele>272</ele>
        <time>2019-07-16T23:05:25Z</time>
      </trkpt>
      <trkpt lat="44.66225" lon="1.3397">
        <ele>273</ele>
        <time>2019-07-16T23:05:30Z</time>
      </trkpt>
      <trkpt lat="44.66227" lon="1.33955">
        <ele>273</ele>
        <time>2019-07-16T23:05:32Z</time>
      </trkpt>
      <trkpt lat="44.66223" lon="1.33817">
        <ele>270</ele>
        <time>2019-07-16T23:05:50Z</time>
      </trkpt>
      <trkpt lat="44.66218" lon="1.33794">
        <ele>269</ele>
        <time>2019-07-16T23:05:53Z</time>
      </trkpt>
      <trkpt lat="44.66209" lon="1.33772">
        <ele>269</ele>
        <time>2019-07-16T23:05:56Z</time>
      </trkpt>
      <trkpt lat="44.66195" lon="1.33749">
        <ele>268</ele>
        <time>2019-07-16T23:06:00Z</time>
      </trkpt>
      <trkpt lat="44.6614" lon="1.33686">
        <ele>268</ele>
        <time>2019-07-16T23:06:13Z</time>
      </trkpt>
      <trkpt lat="44.66102" lon="1.33649">
        <ele>268</ele>
        <time>2019-07-16T23:06:21Z</time>
      </trkpt>
      <trkpt lat="44.66058" lon="1.336">
        <ele>267</ele>
        <time>2019-07-16T23:06:31Z</time>
      </trkpt>
      <trkpt lat="44.66048" lon="1.33581">
        <ele>267</ele>
        <time>2019-07-16T23:06:34Z</time>
      </trkpt>
      <trkpt lat="44.66043" lon="1.33565">
        <ele>266</ele>
        <time>2019-07-16T23:06:36Z</time>
      </trkpt>
      <trkpt lat="44.66043" lon="1.33546">
        <ele>265</ele>
        <time>2019-07-16T23:06:38Z</time>
      </trkpt>
      <trkpt lat="44.66048" lon="1.33528">
        <ele>265</ele>
        <time>2019-07-16T23:06:41Z</time>
      </trkpt>
      <trkpt lat="44.66167" lon="1.33207">
        <ele>254</ele>
        <time>2019-07-16T23:07:27Z</time>
      </trkpt>
      <trkpt lat="44.66179" lon="1.33182">
        <ele>253</ele>
        <time>2019-07-16T23:07:30Z</time>
      </trkpt>
      <trkpt lat="44.66191" lon="1.33162">
        <ele>252</ele>
        <time>2019-07-16T23:07:34Z</time>
      </trkpt>
      <trkpt lat="44.66337" lon="1.33018">
        <ele>242</ele>
        <time>2019-07-16T23:08:06Z</time>
      </trkpt>
      <trkpt lat="44.66354" lon="1.33008">
        <ele>241</ele>
        <time>2019-07-16T23:08:09Z</time>
      </trkpt>
      <trkpt lat="44.66364" lon="1.33004">
        <ele>240</ele>
        <time>2019-07-16T23:08:11Z</time>
      </trkpt>
      <trkpt lat="44.66374" lon="1.33004">
        <ele>240</ele>
        <time>2019-07-16T23:08:12Z</time>
      </trkpt>
      <trkpt lat="44.66404" lon="1.33017">
        <ele>242</ele>
        <time>2019-07-16T23:08:18Z</time>
      </trkpt>
      <trkpt lat="44.66413" lon="1.33019">
        <ele>243</ele>
        <time>2019-07-16T23:08:20Z</time>
      </trkpt>
      <trkpt lat="44.66421" lon="1.33015">
        <ele>243</ele>
        <time>2019-07-16T23:08:21Z</time>
      </trkpt>
      <trkpt lat="44.66428" lon="1.33007">
        <ele>243</ele>
        <time>2019-07-16T23:08:23Z</time>
      </trkpt>
      <trkpt lat="44.66433" lon="1.32993">
        <ele>243</ele>
        <time>2019-07-16T23:08:25Z</time>
      </trkpt>
      <trkpt lat="44.66435" lon="1.3298">
        <ele>243</ele>
        <time>2019-07-16T23:08:26Z</time>
      </trkpt>
      <trkpt lat="44.66434" lon="1.32964">
        <ele>244</ele>
        <time>2019-07-16T23:08:28Z</time>
      </trkpt>
      <trkpt lat="44.66429" lon="1.32947">
        <ele>244</ele>
        <time>2019-07-16T23:08:31Z</time>
      </trkpt>
      <trkpt lat="44.66413" lon="1.32913">
        <ele>243</ele>
        <time>2019-07-16T23:08:36Z</time>
      </trkpt>
      <trkpt lat="44.66404" lon="1.32903">
        <ele>243</ele>
        <time>2019-07-16T23:08:38Z</time>
      </trkpt>
      <trkpt lat="44.66384" lon="1.32892">
        <ele>242</ele>
        <time>2019-07-16T23:08:42Z</time>
      </trkpt>
      <trkpt lat="44.66202" lon="1.3284">
        <ele>226</ele>
        <time>2019-07-16T23:09:15Z</time>
      </trkpt>
      <trkpt lat="44.6619" lon="1.32835">
        <ele>224</ele>
        <time>2019-07-16T23:09:17Z</time>
      </trkpt>
      <trkpt lat="44.6616" lon="1.32815">
        <ele>220</ele>
        <time>2019-07-16T23:09:23Z</time>
      </trkpt>
      <trkpt lat="44.66142" lon="1.32798">
        <ele>218</ele>
        <time>2019-07-16T23:09:27Z</time>
      </trkpt>
      <trkpt lat="44.66132" lon="1.32784">
        <ele>217</ele>
        <time>2019-07-16T23:09:29Z</time>
      </trkpt>
      <trkpt lat="44.66127" lon="1.3277">
        <ele>216</ele>
        <time>2019-07-16T23:09:31Z</time>
      </trkpt>
      <trkpt lat="44.66127" lon="1.32754">
        <ele>216</ele>
        <time>2019-07-16T23:09:33Z</time>
      </trkpt>
      <trkpt lat="44.6613" lon="1.32734">
        <ele>215</ele>
        <time>2019-07-16T23:09:36Z</time>
      </trkpt>
      <trkpt lat="44.66174" lon="1.32632">
        <ele>214</ele>
        <time>2019-07-16T23:09:51Z</time>
      </trkpt>
      <trkpt lat="44.66187" lon="1.3261">
        <ele>213</ele>
        <time>2019-07-16T23:09:55Z</time>
      </trkpt>
      <trkpt lat="44.66201" lon="1.32593">
        <ele>212</ele>
        <time>2019-07-16T23:09:58Z</time>
      </trkpt>
      <trkpt lat="44.66226" lon="1.3257">
        <ele>212</ele>
        <time>2019-07-16T23:10:03Z</time>
      </trkpt>
      <trkpt lat="44.66241" lon="1.3256">
        <ele>213</ele>
        <time>2019-07-16T23:10:06Z</time>
      </trkpt>
      <trkpt lat="44.6627" lon="1.32553">
        <ele>217</ele>
        <time>2019-07-16T23:10:11Z</time>
      </trkpt>
      <trkpt lat="44.6628" lon="1.32548">
        <ele>218</ele>
        <time>2019-07-16T23:10:13Z</time>
      </trkpt>
      <trkpt lat="44.66287" lon="1.32539">
        <ele>218</ele>
        <time>2019-07-16T23:10:15Z</time>
      </trkpt>
      <trkpt lat="44.66289" lon="1.32528">
        <ele>217</ele>
        <time>2019-07-16T23:10:16Z</time>
      </trkpt>
      <trkpt lat="44.66289" lon="1.32514">
        <ele>215</ele>
        <time>2019-07-16T23:10:18Z</time>
      </trkpt>
      <trkpt lat="44.66285" lon="1.32499">
        <ele>212</ele>
        <time>2019-07-16T23:10:20Z</time>
      </trkpt>
      <trkpt lat="44.66282" lon="1.32481">
        <ele>210</ele>
        <time>2019-07-16T23:10:23Z</time>
      </trkpt>
      <trkpt lat="44.66284" lon="1.32462">
        <ele>208</ele>
        <time>2019-07-16T23:10:25Z</time>
      </trkpt>
      <trkpt lat="44.66291" lon="1.32433">
        <ele>207</ele>
        <time>2019-07-16T23:10:29Z</time>
      </trkpt>
      <trkpt lat="44.66317" lon="1.3235">
        <ele>203</ele>
        <time>2019-07-16T23:10:40Z</time>
      </trkpt>
      <trkpt lat="44.66333" lon="1.3232">
        <ele>202</ele>
        <time>2019-07-16T23:10:45Z</time>
      </trkpt>
      <trkpt lat="44.66479" lon="1.32111">
        <ele>201</ele>
        <time>2019-07-16T23:11:22Z</time>
      </trkpt>
      <trkpt lat="44.6649" lon="1.32086">
        <ele>200</ele>
        <time>2019-07-16T23:11:26Z</time>
      </trkpt>
      <trkpt lat="44.66509" lon="1.32036">
        <ele>199</ele>
        <time>2019-07-16T23:11:33Z</time>
      </trkpt>
      <trkpt lat="44.66538" lon="1.31942">
        <ele>196</ele>
        <time>2019-07-16T23:11:46Z</time>
      </trkpt>
      <trkpt lat="44.66544" lon="1.31916">
        <ele>193</ele>
        <time>2019-07-16T23:11:50Z</time>
      </trkpt>
      <trkpt lat="44.66548" lon="1.31887">
        <ele>193</ele>
        <time>2019-07-16T23:11:53Z</time>
      </trkpt>
      <trkpt lat="44.66549" lon="1.3184">
        <ele>191</ele>
        <time>2019-07-16T23:11:59Z</time>
      </trkpt>
      <trkpt lat="44.66551" lon="1.31819">
        <ele>191</ele>
        <time>2019-07-16T23:12:02Z</time>
      </trkpt>
      <trkpt lat="44.66559" lon="1.31799">
        <ele>190</ele>
        <time>2019-07-16T23:12:05Z</time>
      </trkpt>
      <trkpt lat="44.66545" lon="1.31782">
        <ele>190</ele>
        <time>2019-07-16T23:12:08Z</time>
      </trkpt>
      <trkpt lat="44.66538" lon="1.31762">
        <ele>190</ele>
        <time>2019-07-16T23:12:11Z</time>
      </trkpt>
      <trkpt lat="44.66532" lon="1.31655">
        <ele>191</ele>
        <time>2019-07-16T23:12:25Z</time>
      </trkpt>
      <trkpt lat="44.66539" lon="1.3156">
        <ele>192</ele>
        <time>2019-07-16T23:12:37Z</time>
      </trkpt>
      <trkpt lat="44.66536" lon="1.31543">
        <ele>192</ele>
        <time>2019-07-16T23:12:39Z</time>
      </trkpt>
      <trkpt lat="44.66526" lon="1.31529">
        <ele>194</ele>
        <time>2019-07-16T23:12:41Z</time>
      </trkpt>
      <trkpt lat="44.6657" lon="1.31363">
        <ele>188</ele>
        <time>2019-07-16T23:13:04Z</time>
      </trkpt>
      <trkpt lat="44.66591" lon="1.31245">
        <ele>191</ele>
        <time>2019-07-16T23:13:19Z</time>
      </trkpt>
      <trkpt lat="44.66599" lon="1.31241">
        <ele>191</ele>
        <time>2019-07-16T23:13:21Z</time>
      </trkpt>
      <trkpt lat="44.66619" lon="1.31222">
        <ele>191</ele>
        <time>2019-07-16T23:13:25Z</time>
      </trkpt>
      <trkpt lat="44.66634" lon="1.31203">
        <ele>190</ele>
        <time>2019-07-16T23:13:29Z</time>
      </trkpt>
      <trkpt lat="44.66664" lon="1.31156">
        <ele>188</ele>
        <time>2019-07-16T23:13:37Z</time>
      </trkpt>
      <trkpt lat="44.6669" lon="1.31109">
        <ele>187</ele>
        <time>2019-07-16T23:13:44Z</time>
      </trkpt>
      <trkpt lat="44.66707" lon="1.31071">
        <ele>185</ele>
        <time>2019-07-16T23:13:50Z</time>
      </trkpt>
      <trkpt lat="44.66735" lon="1.30987">
        <ele>182</ele>
        <time>2019-07-16T23:14:01Z</time>
      </trkpt>
      <trkpt lat="44.66785" lon="1.30812">
        <ele>186</ele>
        <time>2019-07-16T23:14:25Z</time>
      </trkpt>
      <trkpt lat="44.66807" lon="1.30748">
        <ele>187</ele>
        <time>2019-07-16T23:14:34Z</time>
      </trkpt>
      <trkpt lat="44.66883" lon="1.30613">
        <ele>183</ele>
        <time>2019-07-16T23:14:56Z</time>
      </trkpt>
      <trkpt lat="44.66911" lon="1.30547">
        <ele>179</ele>
        <time>2019-07-16T23:15:06Z</time>
      </trkpt>
      <trkpt lat="44.66926" lon="1.30522">
        <ele>179</ele>
        <time>2019-07-16T23:15:10Z</time>
      </trkpt>
      <trkpt lat="44.66946" lon="1.30497">
        <ele>180</ele>
        <time>2019-07-16T23:15:15Z</time>
      </trkpt>
      <trkpt lat="44.66966" lon="1.30481">
        <ele>181</ele>
        <time>2019-07-16T23:15:19Z</time>
      </trkpt>
      <trkpt lat="44.67022" lon="1.30452">
        <ele>183</ele>
        <time>2019-07-16T23:15:29Z</time>
      </trkpt>
      <trkpt lat="44.67075" lon="1.30427">
        <ele>183</ele>
        <time>2019-07-16T23:15:39Z</time>
      </trkpt>
      <trkpt lat="44.67312" lon="1.30328">
        <ele>170</ele>
        <time>2019-07-16T23:16:23Z</time>
      </trkpt>
      <trkpt lat="44.67336" lon="1.30313">
        <ele>171</ele>
        <time>2019-07-16T23:16:28Z</time>
      </trkpt>
      <trkpt lat="44.6735" lon="1.30298">
        <ele>171</ele>
        <time>2019-07-16T23:16:31Z</time>
      </trkpt>
      <trkpt lat="44.67364" lon="1.30278">
        <ele>171</ele>
        <time>2019-07-16T23:16:35Z</time>
      </trkpt>
      <trkpt lat="44.67389" lon="1.30235">
        <ele>170</ele>
        <time>2019-07-16T23:16:42Z</time>
      </trkpt>
      <trkpt lat="44.67453" lon="1.30115">
        <ele>168</ele>
        <time>2019-07-16T23:17:01Z</time>
      </trkpt>
      <trkpt lat="44.67494" lon="1.30045">
        <ele>169</ele>
        <time>2019-07-16T23:17:12Z</time>
      </trkpt>
      <trkpt lat="44.67523" lon="1.30009">
        <ele>170</ele>
        <time>2019-07-16T23:17:19Z</time>
      </trkpt>
      <trkpt lat="44.6756" lon="1.29979">
        <ele>169</ele>
        <time>2019-07-16T23:17:27Z</time>
      </trkpt>
      <trkpt lat="44.67588" lon="1.2996">
        <ele>169</ele>
        <time>2019-07-16T23:17:32Z</time>
      </trkpt>
      <trkpt lat="44.6768" lon="1.29909">
        <ele>170</ele>
        <time>2019-07-16T23:17:50Z</time>
      </trkpt>
      <trkpt lat="44.6768" lon="1.29903">
        <ele>171</ele>
        <time>2019-07-16T23:17:51Z</time>
      </trkpt>
      <trkpt lat="44.6769" lon="1.2989">
        <ele>171</ele>
        <time>2019-07-16T23:17:53Z</time>
      </trkpt>
      <trkpt lat="44.67738" lon="1.29845">
        <ele>170</ele>
        <time>2019-07-16T23:18:03Z</time>
      </trkpt>
      <trkpt lat="44.67791" lon="1.29757">
        <ele>171</ele>
        <time>2019-07-16T23:18:18Z</time>
      </trkpt>
      <trkpt lat="44.67812" lon="1.29734">
        <ele>173</ele>
        <time>2019-07-16T23:18:23Z</time>
      </trkpt>
      <trkpt lat="44.67893" lon="1.29668">
        <ele>177</ele>
        <time>2019-07-16T23:18:39Z</time>
      </trkpt>
      <trkpt lat="44.67906" lon="1.29649">
        <ele>179</ele>
        <time>2019-07-16T23:18:43Z</time>
      </trkpt>
      <trkpt lat="44.67914" lon="1.29628">
        <ele>182</ele>
        <time>2019-07-16T23:18:46Z</time>
      </trkpt>
      <trkpt lat="44.67925" lon="1.29594">
        <ele>186</ele>
        <time>2019-07-16T23:18:50Z</time>
      </trkpt>
      <trkpt lat="44.67939" lon="1.29562">
        <ele>188</ele>
        <time>2019-07-16T23:18:55Z</time>
      </trkpt>
      <trkpt lat="44.67953" lon="1.29536">
        <ele>188</ele>
        <time>2019-07-16T23:18:59Z</time>
      </trkpt>
      <trkpt lat="44.67984" lon="1.29502">
        <ele>189</ele>
        <time>2019-07-16T23:19:06Z</time>
      </trkpt>
      <trkpt lat="44.68017" lon="1.29477">
        <ele>188</ele>
        <time>2019-07-16T23:19:13Z</time>
      </trkpt>
      <trkpt lat="44.68026" lon="1.29465">
        <ele>189</ele>
        <time>2019-07-16T23:19:15Z</time>
      </trkpt>
      <trkpt lat="44.68033" lon="1.29447">
        <ele>189</ele>
        <time>2019-07-16T23:19:18Z</time>
      </trkpt>
      <trkpt lat="44.68034" lon="1.29439">
        <ele>189</ele>
        <time>2019-07-16T23:19:19Z</time>
      </trkpt>
      <trkpt lat="44.68034" lon="1.29429">
        <ele>189</ele>
        <time>2019-07-16T23:19:20Z</time>
      </trkpt>
      <trkpt lat="44.6803" lon="1.29411">
        <ele>190</ele>
        <time>2019-07-16T23:19:22Z</time>
      </trkpt>
      <trkpt lat="44.68013" lon="1.29369">
        <ele>191</ele>
        <time>2019-07-16T23:19:28Z</time>
      </trkpt>
      <trkpt lat="44.6801" lon="1.29351">
        <ele>191</ele>
        <time>2019-07-16T23:19:31Z</time>
      </trkpt>
      <trkpt lat="44.68009" lon="1.29334">
        <ele>191</ele>
        <time>2019-07-16T23:19:33Z</time>
      </trkpt>
      <trkpt lat="44.6801" lon="1.29321">
        <ele>192</ele>
        <time>2019-07-16T23:19:35Z</time>
      </trkpt>
      <trkpt lat="44.68013" lon="1.29309">
        <ele>193</ele>
        <time>2019-07-16T23:19:36Z</time>
      </trkpt>
      <trkpt lat="44.68021" lon="1.29298">
        <ele>194</ele>
        <time>2019-07-16T23:19:38Z</time>
      </trkpt>
      <trkpt lat="44.68033" lon="1.29271">
        <ele>195</ele>
        <time>2019-07-16T23:19:42Z</time>
      </trkpt>
      <trkpt lat="44.6807" lon="1.2921">
        <ele>196</ele>
        <time>2019-07-16T23:19:52Z</time>
      </trkpt>
      <trkpt lat="44.6809" lon="1.2917">
        <ele>196</ele>
        <time>2019-07-16T23:19:59Z</time>
      </trkpt>
      <trkpt lat="44.6812" lon="1.29101">
        <ele>200</ele>
        <time>2019-07-16T23:20:09Z</time>
      </trkpt>
      <trkpt lat="44.68141" lon="1.29064">
        <ele>200</ele>
        <time>2019-07-16T23:20:15Z</time>
      </trkpt>
      <trkpt lat="44.68177" lon="1.29013">
        <ele>199</ele>
        <time>2019-07-16T23:20:24Z</time>
      </trkpt>
      <trkpt lat="44.68251" lon="1.28889">
        <ele>195</ele>
        <time>2019-07-16T23:20:44Z</time>
      </trkpt>
      <trkpt lat="44.68266" lon="1.28857">
        <ele>195</ele>
        <time>2019-07-16T23:20:49Z</time>
      </trkpt>
      <trkpt lat="44.68292" lon="1.28775">
        <ele>195</ele>
        <time>2019-07-16T23:21:01Z</time>
      </trkpt>
      <trkpt lat="44.68301" lon="1.2874">
        <ele>194</ele>
        <time>2019-07-16T23:21:05Z</time>
      </trkpt>
      <trkpt lat="44.68305" lon="1.28708">
        <ele>193</ele>
        <time>2019-07-16T23:21:09Z</time>
      </trkpt>
      <trkpt lat="44.68306" lon="1.28683">
        <ele>192</ele>
        <time>2019-07-16T23:21:13Z</time>
      </trkpt>
      <trkpt lat="44.68305" lon="1.28639">
        <ele>190</ele>
        <time>2019-07-16T23:21:18Z</time>
      </trkpt>
      <trkpt lat="44.68307" lon="1.28609">
        <ele>188</ele>
        <time>2019-07-16T23:21:22Z</time>
      </trkpt>
      <trkpt lat="44.68314" lon="1.28574">
        <ele>186</ele>
        <time>2019-07-16T23:21:27Z</time>
      </trkpt>
      <trkpt lat="44.68321" lon="1.28556">
        <ele>185</ele>
        <time>2019-07-16T23:21:29Z</time>
      </trkpt>
      <trkpt lat="44.68398" lon="1.28415">
        <ele>176</ele>
        <time>2019-07-16T23:21:52Z</time>
      </trkpt>
      <trkpt lat="44.68406" lon="1.28405">
        <ele>176</ele>
        <time>2019-07-16T23:21:54Z</time>
      </trkpt>
      <trkpt lat="44.68448" lon="1.28377">
        <ele>175</ele>
        <time>2019-07-16T23:22:02Z</time>
      </trkpt>
      <trkpt lat="44.68467" lon="1.28353">
        <ele>174</ele>
        <time>2019-07-16T23:22:06Z</time>
      </trkpt>
      <trkpt lat="44.6848" lon="1.28316">
        <ele>173</ele>
        <time>2019-07-16T23:22:12Z</time>
      </trkpt>
      <trkpt lat="44.68486" lon="1.28284">
        <ele>171</ele>
        <time>2019-07-16T23:22:16Z</time>
      </trkpt>
      <trkpt lat="44.68486" lon="1.28258">
        <ele>170</ele>
        <time>2019-07-16T23:22:19Z</time>
      </trkpt>
      <trkpt lat="44.68476" lon="1.28222">
        <ele>166</ele>
        <time>2019-07-16T23:22:24Z</time>
      </trkpt>
      <trkpt lat="44.68463" lon="1.28198">
        <ele>164</ele>
        <time>2019-07-16T23:22:28Z</time>
      </trkpt>
      <trkpt lat="44.68445" lon="1.28182">
        <ele>163</ele>
        <time>2019-07-16T23:22:32Z</time>
      </trkpt>
      <trkpt lat="44.68405" lon="1.28161">
        <ele>162</ele>
        <time>2019-07-16T23:22:39Z</time>
      </trkpt>
      <trkpt lat="44.68385" lon="1.28139">
        <ele>160</ele>
        <time>2019-07-16T23:22:44Z</time>
      </trkpt>
      <trkpt lat="44.68378" lon="1.28122">
        <ele>158</ele>
        <time>2019-07-16T23:22:46Z</time>
      </trkpt>
      <trkpt lat="44.68367" lon="1.28085">
        <ele>155</ele>
        <time>2019-07-16T23:22:51Z</time>
      </trkpt>
      <trkpt lat="44.68362" lon="1.28055">
        <ele>154</ele>
        <time>2019-07-16T23:22:55Z</time>
      </trkpt>
      <trkpt lat="44.68361" lon="1.28029">
        <ele>153</ele>
        <time>2019-07-16T23:22:58Z</time>
      </trkpt>
      <trkpt lat="44.68376" lon="1.27939">
        <ele>152</ele>
        <time>2019-07-16T23:23:10Z</time>
      </trkpt>
      <trkpt lat="44.68379" lon="1.27916">
        <ele>152</ele>
        <time>2019-07-16T23:23:13Z</time>
      </trkpt>
      <trkpt lat="44.68379" lon="1.27892">
        <ele>152</ele>
        <time>2019-07-16T23:23:16Z</time>
      </trkpt>
      <trkpt lat="44.68375" lon="1.27838">
        <ele>152</ele>
        <time>2019-07-16T23:23:23Z</time>
      </trkpt>
      <trkpt lat="44.68355" lon="1.27758">
        <ele>157</ele>
        <time>2019-07-16T23:23:34Z</time>
      </trkpt>
      <trkpt lat="44.6834" lon="1.27713">
        <ele>159</ele>
        <time>2019-07-16T23:23:40Z</time>
      </trkpt>
      <trkpt lat="44.68283" lon="1.27465">
        <ele>155</ele>
        <time>2019-07-16T23:24:13Z</time>
      </trkpt>
      <trkpt lat="44.6822" lon="1.27183">
        <ele>156</ele>
        <time>2019-07-16T23:24:50Z</time>
      </trkpt>
      <trkpt lat="44.68178" lon="1.26962">
        <ele>159</ele>
        <time>2019-07-16T23:25:19Z</time>
      </trkpt>
      <trkpt lat="44.68155" lon="1.26769">
        <ele>160</ele>
        <time>2019-07-16T23:25:44Z</time>
      </trkpt>
      <trkpt lat="44.68155" lon="1.26735">
        <ele>159</ele>
        <time>2019-07-16T23:25:48Z</time>
      </trkpt>
      <trkpt lat="44.68153" lon="1.26709">
        <ele>160</ele>
        <time>2019-07-16T23:25:52Z</time>
      </trkpt>
      <trkpt lat="44.68144" lon="1.26679">
        <ele>160</ele>
        <time>2019-07-16T23:25:56Z</time>
      </trkpt>
      <trkpt lat="44.68137" lon="1.2665">
        <ele>161</ele>
        <time>2019-07-16T23:26:00Z</time>
      </trkpt>
      <trkpt lat="44.68125" lon="1.26609">
        <ele>162</ele>
        <time>2019-07-16T23:26:05Z</time>
      </trkpt>
      <trkpt lat="44.68121" lon="1.266">
        <ele>162</ele>
        <time>2019-07-16T23:26:07Z</time>
      </trkpt>
      <trkpt lat="44.68141" lon="1.2655">
        <ele>161</ele>
        <time>2019-07-16T23:26:14Z</time>
      </trkpt>
      <trkpt lat="44.68141" lon="1.26539">
        <ele>162</ele>
        <time>2019-07-16T23:26:15Z</time>
      </trkpt>
      <trkpt lat="44.68139" lon="1.26505">
        <ele>162</ele>
        <time>2019-07-16T23:26:20Z</time>
      </trkpt>
      <trkpt lat="44.68128" lon="1.26452">
        <ele>163</ele>
        <time>2019-07-16T23:26:27Z</time>
      </trkpt>
      <trkpt lat="44.68127" lon="1.26434">
        <ele>163</ele>
        <time>2019-07-16T23:26:29Z</time>
      </trkpt>
      <trkpt lat="44.68148" lon="1.26418">
        <ele>162</ele>
        <time>2019-07-16T23:26:33Z</time>
      </trkpt>
      <trkpt lat="44.68149" lon="1.26398">
        <ele>162</ele>
        <time>2019-07-16T23:26:36Z</time>
      </trkpt>
      <trkpt lat="44.68146" lon="1.26361">
        <ele>162</ele>
        <time>2019-07-16T23:26:40Z</time>
      </trkpt>
      <trkpt lat="44.68142" lon="1.26339">
        <ele>162</ele>
        <time>2019-07-16T23:26:43Z</time>
      </trkpt>
      <trkpt lat="44.68132" lon="1.26314">
        <ele>163</ele>
        <time>2019-07-16T23:26:47Z</time>
      </trkpt>
      <trkpt lat="44.68105" lon="1.26079">
        <ele>163</ele>
        <time>2019-07-16T23:27:17Z</time>
      </trkpt>
      <trkpt lat="44.68098" lon="1.26063">
        <ele>163</ele>
        <time>2019-07-16T23:27:19Z</time>
      </trkpt>
      <trkpt lat="44.68089" lon="1.26054">
        <ele>163</ele>
        <time>2019-07-16T23:27:21Z</time>
      </trkpt>
      <trkpt lat="44.68005" lon="1.26054">
        <ele>166</ele>
        <time>2019-07-16T23:27:36Z</time>
      </trkpt>
      <trkpt lat="44.68002" lon="1.25959">
        <ele>167</ele>
        <time>2019-07-16T23:27:48Z</time>
      </trkpt>
      <trkpt lat="44.68002" lon="1.25905">
        <ele>167</ele>
        <time>2019-07-16T23:27:55Z</time>
      </trkpt>
      <trkpt lat="44.68004" lon="1.25878">
        <ele>168</ele>
        <time>2019-07-16T23:27:59Z</time>
      </trkpt>
      <trkpt lat="44.6801" lon="1.2585">
        <ele>168</ele>
        <time>2019-07-16T23:28:02Z</time>
      </trkpt>
      <trkpt lat="44.6802" lon="1.25814">
        <ele>170</ele>
        <time>2019-07-16T23:28:07Z</time>
      </trkpt>
      <trkpt lat="44.68054" lon="1.25724">
        <ele>171</ele>
        <time>2019-07-16T23:28:20Z</time>
      </trkpt>
      <trkpt lat="44.68059" lon="1.257">
        <ele>172</ele>
        <time>2019-07-16T23:28:23Z</time>
      </trkpt>
      <trkpt lat="44.6808" lon="1.2555">
        <ele>174</ele>
        <time>2019-07-16T23:28:43Z</time>
      </trkpt>
      <trkpt lat="44.68099" lon="1.25423">
        <ele>174</ele>
        <time>2019-07-16T23:28:59Z</time>
      </trkpt>
      <trkpt lat="44.68101" lon="1.25401">
        <ele>174</ele>
        <time>2019-07-16T23:29:02Z</time>
      </trkpt>
      <trkpt lat="44.68101" lon="1.25371">
        <ele>174</ele>
        <time>2019-07-16T23:29:06Z</time>
      </trkpt>
      <trkpt lat="44.68085" lon="1.25212">
        <ele>173</ele>
        <time>2019-07-16T23:29:26Z</time>
      </trkpt>
      <trkpt lat="44.6806" lon="1.25017">
        <ele>176</ele>
        <time>2019-07-16T23:29:51Z</time>
      </trkpt>
      <trkpt lat="44.68045" lon="1.24959">
        <ele>177</ele>
        <time>2019-07-16T23:29:59Z</time>
      </trkpt>
      <trkpt lat="44.68027" lon="1.24898">
        <ele>177</ele>
        <time>2019-07-16T23:30:07Z</time>
      </trkpt>
      <trkpt lat="44.6802" lon="1.24868">
        <ele>179</ele>
        <time>2019-07-16T23:30:11Z</time>
      </trkpt>
      <trkpt lat="44.68021" lon="1.24839">
        <ele>180</ele>
        <time>2019-07-16T23:30:15Z</time>
      </trkpt>
      <trkpt lat="44.68037" lon="1.2467">
        <ele>176</ele>
        <time>2019-07-16T23:30:36Z</time>
      </trkpt>
      <trkpt lat="44.68066" lon="1.24562">
        <ele>180</ele>
        <time>2019-07-16T23:30:51Z</time>
      </trkpt>
      <trkpt lat="44.6813" lon="1.24444">
        <ele>180</ele>
        <time>2019-07-16T23:31:10Z</time>
      </trkpt>
      <trkpt lat="44.68167" lon="1.24369">
        <ele>181</ele>
        <time>2019-07-16T23:31:21Z</time>
      </trkpt>
      <trkpt lat="44.68177" lon="1.24336">
        <ele>181</ele>
        <time>2019-07-16T23:31:26Z</time>
      </trkpt>
      <trkpt lat="44.68181" lon="1.24312">
        <ele>181</ele>
        <time>2019-07-16T23:31:29Z</time>
      </trkpt>
      <trkpt lat="44.68183" lon="1.2429">
        <ele>181</ele>
        <time>2019-07-16T23:31:32Z</time>
      </trkpt>
      <trkpt lat="44.68191" lon="1.24291">
        <ele>181</ele>
        <time>2019-07-16T23:31:33Z</time>
      </trkpt>
      <trkpt lat="44.682" lon="1.24283">
        <ele>180</ele>
        <time>2019-07-16T23:31:35Z</time>
      </trkpt>
      <trkpt lat="44.6826" lon="1.24153">
        <ele>181</ele>
        <time>2019-07-16T23:31:55Z</time>
      </trkpt>
      <trkpt lat="44.68269" lon="1.24123">
        <ele>183</ele>
        <time>2019-07-16T23:31:59Z</time>
      </trkpt>
      <trkpt lat="44.68267" lon="1.24106">
        <ele>183</ele>
        <time>2019-07-16T23:32:01Z</time>
      </trkpt>
      <trkpt lat="44.68251" lon="1.2404">
        <ele>183</ele>
        <time>2019-07-16T23:32:10Z</time>
      </trkpt>
      <trkpt lat="44.6823" lon="1.23963">
        <ele>185</ele>
        <time>2019-07-16T23:32:20Z</time>
      </trkpt>
      <trkpt lat="44.68213" lon="1.23911">
        <ele>185</ele>
        <time>2019-07-16T23:32:27Z</time>
      </trkpt>
      <trkpt lat="44.68186" lon="1.23845">
        <ele>186</ele>
        <time>2019-07-16T23:32:37Z</time>
      </trkpt>
      <trkpt lat="44.68152" lon="1.23773">
        <ele>186</ele>
        <time>2019-07-16T23:32:48Z</time>
      </trkpt>
      <trkpt lat="44.68143" lon="1.23743">
        <ele>186</ele>
        <time>2019-07-16T23:32:52Z</time>
      </trkpt>
      <trkpt lat="44.68135" lon="1.23698">
        <ele>187</ele>
        <time>2019-07-16T23:32:58Z</time>
      </trkpt>
      <trkpt lat="44.68132" lon="1.2363">
        <ele>189</ele>
        <time>2019-07-16T23:33:07Z</time>
      </trkpt>
      <trkpt lat="44.68133" lon="1.23582">
        <ele>190</ele>
        <time>2019-07-16T23:33:13Z</time>
      </trkpt>
      <trkpt lat="44.68139" lon="1.23503">
        <ele>188</ele>
        <time>2019-07-16T23:33:23Z</time>
      </trkpt>
      <trkpt lat="44.68149" lon="1.23452">
        <ele>188</ele>
        <time>2019-07-16T23:33:29Z</time>
      </trkpt>
      <trkpt lat="44.68158" lon="1.23394">
        <ele>187</ele>
        <time>2019-07-16T23:33:37Z</time>
      </trkpt>
      <trkpt lat="44.68173" lon="1.2323">
        <ele>192</ele>
        <time>2019-07-16T23:33:58Z</time>
      </trkpt>
      <trkpt lat="44.68181" lon="1.23169">
        <ele>195</ele>
        <time>2019-07-16T23:34:06Z</time>
      </trkpt>
      <trkpt lat="44.68225" lon="1.22905">
        <ele>200</ele>
        <time>2019-07-16T23:34:40Z</time>
      </trkpt>
      <trkpt lat="44.68253" lon="1.22788">
        <ele>200</ele>
        <time>2019-07-16T23:34:56Z</time>
      </trkpt>
      <trkpt lat="44.68264" lon="1.22755">
        <ele>200</ele>
        <time>2019-07-16T23:35:00Z</time>
      </trkpt>
      <trkpt lat="44.68301" lon="1.22657">
        <ele>199</ele>
        <time>2019-07-16T23:35:14Z</time>
      </trkpt>
      <trkpt lat="44.68322" lon="1.22623">
        <ele>199</ele>
        <time>2019-07-16T23:35:20Z</time>
      </trkpt>
      <trkpt lat="44.68332" lon="1.22612">
        <ele>199</ele>
        <time>2019-07-16T23:35:22Z</time>
      </trkpt>
      <trkpt lat="44.6835" lon="1.22598">
        <ele>198</ele>
        <time>2019-07-16T23:35:26Z</time>
      </trkpt>
      <trkpt lat="44.68368" lon="1.22594">
        <ele>199</ele>
        <time>2019-07-16T23:35:29Z</time>
      </trkpt>
      <trkpt lat="44.68422" lon="1.22596">
        <ele>201</ele>
        <time>2019-07-16T23:35:39Z</time>
      </trkpt>
      <trkpt lat="44.6844" lon="1.22595">
        <ele>202</ele>
        <time>2019-07-16T23:35:42Z</time>
      </trkpt>
      <trkpt lat="44.6847" lon="1.22583">
        <ele>202</ele>
        <time>2019-07-16T23:35:48Z</time>
      </trkpt>
      <trkpt lat="44.68513" lon="1.22559">
        <ele>202</ele>
        <time>2019-07-16T23:35:56Z</time>
      </trkpt>
      <trkpt lat="44.68522" lon="1.22551">
        <ele>201</ele>
        <time>2019-07-16T23:35:58Z</time>
      </trkpt>
      <trkpt lat="44.68533" lon="1.22534">
        <ele>200</ele>
        <time>2019-07-16T23:36:01Z</time>
      </trkpt>
      <trkpt lat="44.68536" lon="1.22524">
        <ele>199</ele>
        <time>2019-07-16T23:36:02Z</time>
      </trkpt>
      <trkpt lat="44.68538" lon="1.2251">
        <ele>199</ele>
        <time>2019-07-16T23:36:04Z</time>
      </trkpt>
      <trkpt lat="44.68537" lon="1.22493">
        <ele>198</ele>
        <time>2019-07-16T23:36:06Z</time>
      </trkpt>
      <trkpt lat="44.68526" lon="1.22298">
        <ele>209</ele>
        <time>2019-07-16T23:36:31Z</time>
      </trkpt>
      <trkpt lat="44.68523" lon="1.22277">
        <ele>210</ele>
        <time>2019-07-16T23:36:33Z</time>
      </trkpt>
      <trkpt lat="44.68509" lon="1.22217">
        <ele>213</ele>
        <time>2019-07-16T23:36:41Z</time>
      </trkpt>
      <trkpt lat="44.68488" lon="1.22109">
        <ele>220</ele>
        <time>2019-07-16T23:36:56Z</time>
      </trkpt>
      <trkpt lat="44.68485" lon="1.22077">
        <ele>221</ele>
        <time>2019-07-16T23:37:00Z</time>
      </trkpt>
      <trkpt lat="44.68486" lon="1.22063">
        <ele>221</ele>
        <time>2019-07-16T23:37:01Z</time>
      </trkpt>
      <trkpt lat="44.68493" lon="1.22043">
        <ele>222</ele>
        <time>2019-07-16T23:37:04Z</time>
      </trkpt>
      <trkpt lat="44.68499" lon="1.22033">
        <ele>223</ele>
        <time>2019-07-16T23:37:06Z</time>
      </trkpt>
      <trkpt lat="44.68508" lon="1.22025">
        <ele>225</ele>
        <time>2019-07-16T23:37:08Z</time>
      </trkpt>
      <trkpt lat="44.68528" lon="1.22012">
        <ele>228</ele>
        <time>2019-07-16T23:37:12Z</time>
      </trkpt>
      <trkpt lat="44.68568" lon="1.22">
        <ele>234</ele>
        <time>2019-07-16T23:37:19Z</time>
      </trkpt>
      <trkpt lat="44.68596" lon="1.21981">
        <ele>237</ele>
        <time>2019-07-16T23:37:24Z</time>
      </trkpt>
      <trkpt lat="44.68607" lon="1.2197">
        <ele>237</ele>
        <time>2019-07-16T23:37:27Z</time>
      </trkpt>
      <trkpt lat="44.68621" lon="1.21955">
        <ele>238</ele>
        <time>2019-07-16T23:37:30Z</time>
      </trkpt>
      <trkpt lat="44.6867" lon="1.21868">
        <ele>243</ele>
        <time>2019-07-16T23:37:44Z</time>
      </trkpt>
      <trkpt lat="44.68691" lon="1.21841">
        <ele>244</ele>
        <time>2019-07-16T23:37:49Z</time>
      </trkpt>
      <trkpt lat="44.68707" lon="1.21809">
        <ele>245</ele>
        <time>2019-07-16T23:37:54Z</time>
      </trkpt>
      <trkpt lat="44.68725" lon="1.21762">
        <ele>247</ele>
        <time>2019-07-16T23:38:01Z</time>
      </trkpt>
      <trkpt lat="44.68732" lon="1.21739">
        <ele>247</ele>
        <time>2019-07-16T23:38:04Z</time>
      </trkpt>
      <trkpt lat="44.68747" lon="1.21675">
        <ele>251</ele>
        <time>2019-07-16T23:38:13Z</time>
      </trkpt>
      <trkpt lat="44.68755" lon="1.2165">
        <ele>252</ele>
        <time>2019-07-16T23:38:16Z</time>
      </trkpt>
      <trkpt lat="44.68761" lon="1.21638">
        <ele>253</ele>
        <time>2019-07-16T23:38:18Z</time>
      </trkpt>
      <trkpt lat="44.68808" lon="1.21562">
        <ele>254</ele>
        <time>2019-07-16T23:38:31Z</time>
      </trkpt>
      <trkpt lat="44.68813" lon="1.21547">
        <ele>253</ele>
        <time>2019-07-16T23:38:33Z</time>
      </trkpt>
      <trkpt lat="44.68849" lon="1.2142">
        <ele>249</ele>
        <time>2019-07-16T23:38:50Z</time>
      </trkpt>
      <trkpt lat="44.68857" lon="1.21399">
        <ele>248</ele>
        <time>2019-07-16T23:38:53Z</time>
      </trkpt>
      <trkpt lat="44.68919" lon="1.21278">
        <ele>247</ele>
        <time>2019-07-16T23:39:12Z</time>
      </trkpt>
      <trkpt lat="44.68932" lon="1.21233">
        <ele>247</ele>
        <time>2019-07-16T23:39:18Z</time>
      </trkpt>
      <trkpt lat="44.68942" lon="1.21214">
        <ele>247</ele>
        <time>2019-07-16T23:39:21Z</time>
      </trkpt>
      <trkpt lat="44.68983" lon="1.2118">
        <ele>247</ele>
        <time>2019-07-16T23:39:29Z</time>
      </trkpt>
      <trkpt lat="44.68996" lon="1.21163">
        <ele>248</ele>
        <time>2019-07-16T23:39:33Z</time>
      </trkpt>
      <trkpt lat="44.69006" lon="1.21148">
        <ele>249</ele>
        <time>2019-07-16T23:39:35Z</time>
      </trkpt>
      <trkpt lat="44.69021" lon="1.21118">
        <ele>252</ele>
        <time>2019-07-16T23:39:40Z</time>
      </trkpt>
      <trkpt lat="44.69024" lon="1.21107">
        <ele>252</ele>
        <time>2019-07-16T23:39:41Z</time>
      </trkpt>
      <trkpt lat="44.69024" lon="1.21091">
        <ele>253</ele>
        <time>2019-07-16T23:39:43Z</time>
      </trkpt>
      <trkpt lat="44.68999" lon="1.20974">
        <ele>261</ele>
        <time>2019-07-16T23:39:59Z</time>
      </trkpt>
      <trkpt lat="44.68989" lon="1.20892">
        <ele>264</ele>
        <time>2019-07-16T23:40:09Z</time>
      </trkpt>
      <trkpt lat="44.68986" lon="1.20808">
        <ele>266</ele>
        <time>2019-07-16T23:40:20Z</time>
      </trkpt>
      <trkpt lat="44.68986" lon="1.2073">
        <ele>267</ele>
        <time>2019-07-16T23:40:30Z</time>
      </trkpt>
      <trkpt lat="44.69009" lon="1.20573">
        <ele>260</ele>
        <time>2019-07-16T23:40:50Z</time>
      </trkpt>
      <trkpt lat="44.69008" lon="1.20557">
        <ele>260</ele>
        <time>2019-07-16T23:40:52Z</time>
      </trkpt>
      <trkpt lat="44.69003" lon="1.2051">
        <ele>260</ele>
        <time>2019-07-16T23:40:58Z</time>
      </trkpt>
      <trkpt lat="44.69003" lon="1.20473">
        <ele>260</ele>
        <time>2019-07-16T23:41:03Z</time>
      </trkpt>
      <trkpt lat="44.69005" lon="1.20461">
        <ele>260</ele>
        <time>2019-07-16T23:41:04Z</time>
      </trkpt>
      <trkpt lat="44.69028" lon="1.20385">
        <ele>257</ele>
        <time>2019-07-16T23:41:15Z</time>
      </trkpt>
      <trkpt lat="44.69034" lon="1.20348">
        <ele>256</ele>
        <time>2019-07-16T23:41:20Z</time>
      </trkpt>
      <trkpt lat="44.69037" lon="1.20309">
        <ele>254</ele>
        <time>2019-07-16T23:41:25Z</time>
      </trkpt>
      <trkpt lat="44.69038" lon="1.20252">
        <ele>252</ele>
        <time>2019-07-16T23:41:32Z</time>
      </trkpt>
      <trkpt lat="44.6903" lon="1.2017">
        <ele>250</ele>
        <time>2019-07-16T23:41:42Z</time>
      </trkpt>
      <trkpt lat="44.6903" lon="1.20127">
        <ele>252</ele>
        <time>2019-07-16T23:41:48Z</time>
      </trkpt>
      <trkpt lat="44.69034" lon="1.20059">
        <ele>254</ele>
        <time>2019-07-16T23:41:56Z</time>
      </trkpt>
      <trkpt lat="44.69032" lon="1.2004">
        <ele>255</ele>
        <time>2019-07-16T23:41:59Z</time>
      </trkpt>
      <trkpt lat="44.69026" lon="1.20008">
        <ele>256</ele>
        <time>2019-07-16T23:42:03Z</time>
      </trkpt>
      <trkpt lat="44.69017" lon="1.19983">
        <ele>257</ele>
        <time>2019-07-16T23:42:07Z</time>
      </trkpt>
      <trkpt lat="44.69012" lon="1.19959">
        <ele>258</ele>
        <time>2019-07-16T23:42:10Z</time>
      </trkpt>
      <trkpt lat="44.69011" lon="1.19948">
        <ele>259</ele>
        <time>2019-07-16T23:42:11Z</time>
      </trkpt>
      <trkpt lat="44.69014" lon="1.19931">
        <ele>260</ele>
        <time>2019-07-16T23:42:13Z</time>
      </trkpt>
      <trkpt lat="44.69025" lon="1.19902">
        <ele>261</ele>
        <time>2019-07-16T23:42:17Z</time>
      </trkpt>
      <trkpt lat="44.69036" lon="1.1986">
        <ele>262</ele>
        <time>2019-07-16T23:42:23Z</time>
      </trkpt>
      <trkpt lat="44.69045" lon="1.198">
        <ele>262</ele>
        <time>2019-07-16T23:42:31Z</time>
      </trkpt>
      <trkpt lat="44.69052" lon="1.19744">
        <ele>262</ele>
        <time>2019-07-16T23:42:38Z</time>
      </trkpt>
      <trkpt lat="44.69053" lon="1.19693">
        <ele>263</ele>
        <time>2019-07-16T23:42:45Z</time>
      </trkpt>
      <trkpt lat="44.69049" lon="1.19593">
        <ele>263</ele>
        <time>2019-07-16T23:42:57Z</time>
      </trkpt>
      <trkpt lat="44.69042" lon="1.19371">
        <ele>271</ele>
        <time>2019-07-16T23:43:25Z</time>
      </trkpt>
      <trkpt lat="44.69022" lon="1.19307">
        <ele>273</ele>
        <time>2019-07-16T23:43:34Z</time>
      </trkpt>
      <trkpt lat="44.69021" lon="1.19287">
        <ele>274</ele>
        <time>2019-07-16T23:43:37Z</time>
      </trkpt>
      <trkpt lat="44.69024" lon="1.19214">
        <ele>278</ele>
        <time>2019-07-16T23:43:46Z</time>
      </trkpt>
      <trkpt lat="44.6905" lon="1.19049">
        <ele>282</ele>
        <time>2019-07-16T23:44:07Z</time>
      </trkpt>
      <trkpt lat="44.69054" lon="1.18976">
        <ele>282</ele>
        <time>2019-07-16T23:44:17Z</time>
      </trkpt>
      <trkpt lat="44.69056" lon="1.18836">
        <ele>281</ele>
        <time>2019-07-16T23:44:34Z</time>
      </trkpt>
      <trkpt lat="44.69058" lon="1.18819">
        <ele>282</ele>
        <time>2019-07-16T23:44:36Z</time>
      </trkpt>
      <trkpt lat="44.69063" lon="1.18801">
        <ele>282</ele>
        <time>2019-07-16T23:44:39Z</time>
      </trkpt>
      <trkpt lat="44.69082" lon="1.18771">
        <ele>282</ele>
        <time>2019-07-16T23:44:44Z</time>
      </trkpt>
      <trkpt lat="44.69109" lon="1.1874">
        <ele>283</ele>
        <time>2019-07-16T23:44:50Z</time>
      </trkpt>
      <trkpt lat="44.69131" lon="1.18722">
        <ele>283</ele>
        <time>2019-07-16T23:44:55Z</time>
      </trkpt>
      <trkpt lat="44.6914" lon="1.18718">
        <ele>283</ele>
        <time>2019-07-16T23:44:56Z</time>
      </trkpt>
      <trkpt lat="44.69173" lon="1.18714">
        <ele>283</ele>
        <time>2019-07-16T23:45:02Z</time>
      </trkpt>
      <trkpt lat="44.69206" lon="1.18698">
        <ele>284</ele>
        <time>2019-07-16T23:45:09Z</time>
      </trkpt>
      <trkpt lat="44.69217" lon="1.18688">
        <ele>285</ele>
        <time>2019-07-16T23:45:11Z</time>
      </trkpt>
      <trkpt lat="44.69228" lon="1.18674">
        <ele>286</ele>
        <time>2019-07-16T23:45:13Z</time>
      </trkpt>
      <trkpt lat="44.69241" lon="1.18652">
        <ele>288</ele>
        <time>2019-07-16T23:45:17Z</time>
      </trkpt>
      <trkpt lat="44.69251" lon="1.18627">
        <ele>289</ele>
        <time>2019-07-16T23:45:21Z</time>
      </trkpt>
      <trkpt lat="44.69261" lon="1.18594">
        <ele>291</ele>
        <time>2019-07-16T23:45:25Z</time>
      </trkpt>
      <trkpt lat="44.69273" lon="1.18541">
        <ele>295</ele>
        <time>2019-07-16T23:45:32Z</time>
      </trkpt>
      <trkpt lat="44.69275" lon="1.18525">
        <ele>296</ele>
        <time>2019-07-16T23:45:34Z</time>
      </trkpt>
      <trkpt lat="44.69276" lon="1.18461">
        <ele>297</ele>
        <time>2019-07-16T23:45:42Z</time>
      </trkpt>
      <trkpt lat="44.69298" lon="1.1835">
        <ele>295</ele>
        <time>2019-07-16T23:45:57Z</time>
      </trkpt>
      <trkpt lat="44.69303" lon="1.18289">
        <ele>293</ele>
        <time>2019-07-16T23:46:05Z</time>
      </trkpt>
      <trkpt lat="44.69309" lon="1.18257">
        <ele>292</ele>
        <time>2019-07-16T23:46:09Z</time>
      </trkpt>
      <trkpt lat="44.69324" lon="1.18208">
        <ele>286</ele>
        <time>2019-07-16T23:46:16Z</time>
      </trkpt>
      <trkpt lat="44.6935" lon="1.18152">
        <ele>280</ele>
        <time>2019-07-16T23:46:24Z</time>
      </trkpt>
      <trkpt lat="44.69365" lon="1.1813">
        <ele>278</ele>
        <time>2019-07-16T23:46:28Z</time>
      </trkpt>
      <trkpt lat="44.69381" lon="1.18115">
        <ele>277</ele>
        <time>2019-07-16T23:46:31Z</time>
      </trkpt>
      <trkpt lat="44.69447" lon="1.18075">
        <ele>273</ele>
        <time>2019-07-16T23:46:44Z</time>
      </trkpt>
      <trkpt lat="44.69462" lon="1.18061">
        <ele>272</ele>
        <time>2019-07-16T23:46:47Z</time>
      </trkpt>
      <trkpt lat="44.69473" lon="1.18042">
        <ele>271</ele>
        <time>2019-07-16T23:46:51Z</time>
      </trkpt>
      <trkpt lat="44.69483" lon="1.1799">
        <ele>266</ele>
        <time>2019-07-16T23:46:57Z</time>
      </trkpt>
      <trkpt lat="44.69494" lon="1.17964">
        <ele>263</ele>
        <time>2019-07-16T23:47:01Z</time>
      </trkpt>
      <trkpt lat="44.69509" lon="1.1795">
        <ele>263</ele>
        <time>2019-07-16T23:47:04Z</time>
      </trkpt>
      <trkpt lat="44.69534" lon="1.17937">
        <ele>263</ele>
        <time>2019-07-16T23:47:09Z</time>
      </trkpt>
      <trkpt lat="44.69548" lon="1.17927">
        <ele>263</ele>
        <time>2019-07-16T23:47:12Z</time>
      </trkpt>
      <trkpt lat="44.69561" lon="1.17912">
        <ele>262</ele>
        <time>2019-07-16T23:47:15Z</time>
      </trkpt>
      <trkpt lat="44.69572" lon="1.17895">
        <ele>261</ele>
        <time>2019-07-16T23:47:18Z</time>
      </trkpt>
      <trkpt lat="44.69601" lon="1.17823">
        <ele>257</ele>
        <time>2019-07-16T23:47:28Z</time>
      </trkpt>
      <trkpt lat="44.6962" lon="1.17756">
        <ele>255</ele>
        <time>2019-07-16T23:47:37Z</time>
      </trkpt>
      <trkpt lat="44.69624" lon="1.1773">
        <ele>254</ele>
        <time>2019-07-16T23:47:41Z</time>
      </trkpt>
      <trkpt lat="44.69626" lon="1.17703">
        <ele>253</ele>
        <time>2019-07-16T23:47:44Z</time>
      </trkpt>
      <trkpt lat="44.69627" lon="1.17682">
        <ele>251</ele>
        <time>2019-07-16T23:47:47Z</time>
      </trkpt>
      <trkpt lat="44.69625" lon="1.17663">
        <ele>249</ele>
        <time>2019-07-16T23:47:49Z</time>
      </trkpt>
      <trkpt lat="44.6962" lon="1.17639">
        <ele>247</ele>
        <time>2019-07-16T23:47:52Z</time>
      </trkpt>
      <trkpt lat="44.69608" lon="1.17618">
        <ele>244</ele>
        <time>2019-07-16T23:47:56Z</time>
      </trkpt>
      <trkpt lat="44.69601" lon="1.17611">
        <ele>243</ele>
        <time>2019-07-16T23:47:57Z</time>
      </trkpt>
      <trkpt lat="44.69592" lon="1.17606">
        <ele>242</ele>
        <time>2019-07-16T23:47:59Z</time>
      </trkpt>
      <trkpt lat="44.69565" lon="1.17601">
        <ele>239</ele>
        <time>2019-07-16T23:48:04Z</time>
      </trkpt>
      <trkpt lat="44.69524" lon="1.17598">
        <ele>235</ele>
        <time>2019-07-16T23:48:11Z</time>
      </trkpt>
      <trkpt lat="44.695" lon="1.17592">
        <ele>233</ele>
        <time>2019-07-16T23:48:16Z</time>
      </trkpt>
      <trkpt lat="44.6949" lon="1.17588">
        <ele>233</ele>
        <time>2019-07-16T23:48:17Z</time>
      </trkpt>
      <trkpt lat="44.6947" lon="1.17571">
        <ele>234</ele>
        <time>2019-07-16T23:48:22Z</time>
      </trkpt>
      <trkpt lat="44.69452" lon="1.17547">
        <ele>234</ele>
        <time>2019-07-16T23:48:26Z</time>
      </trkpt>
      <trkpt lat="44.69447" lon="1.17538">
        <ele>234</ele>
        <time>2019-07-16T23:48:27Z</time>
      </trkpt>
      <trkpt lat="44.69439" lon="1.17508">
        <ele>235</ele>
        <time>2019-07-16T23:48:32Z</time>
      </trkpt>
      <trkpt lat="44.69437" lon="1.17493">
        <ele>235</ele>
        <time>2019-07-16T23:48:33Z</time>
      </trkpt>
      <trkpt lat="44.69438" lon="1.17474">
        <ele>235</ele>
        <time>2019-07-16T23:48:36Z</time>
      </trkpt>
      <trkpt lat="44.69441" lon="1.1746">
        <ele>235</ele>
        <time>2019-07-16T23:48:38Z</time>
      </trkpt>
      <trkpt lat="44.69444" lon="1.17452">
        <ele>235</ele>
        <time>2019-07-16T23:48:39Z</time>
      </trkpt>
      <trkpt lat="44.6948" lon="1.17403">
        <ele>231</ele>
        <time>2019-07-16T23:48:48Z</time>
      </trkpt>
      <trkpt lat="44.69484" lon="1.17394">
        <ele>230</ele>
        <time>2019-07-16T23:48:49Z</time>
      </trkpt>
      <trkpt lat="44.69486" lon="1.17382">
        <ele>230</ele>
        <time>2019-07-16T23:48:51Z</time>
      </trkpt>
      <trkpt lat="44.69489" lon="1.17357">
        <ele>230</ele>
        <time>2019-07-16T23:48:54Z</time>
      </trkpt>
      <trkpt lat="44.69495" lon="1.17323">
        <ele>230</ele>
        <time>2019-07-16T23:48:58Z</time>
      </trkpt>
      <trkpt lat="44.69504" lon="1.17294">
        <ele>229</ele>
        <time>2019-07-16T23:49:02Z</time>
      </trkpt>
      <trkpt lat="44.69516" lon="1.17272">
        <ele>228</ele>
        <time>2019-07-16T23:49:06Z</time>
      </trkpt>
      <trkpt lat="44.69533" lon="1.1725">
        <ele>227</ele>
        <time>2019-07-16T23:49:10Z</time>
      </trkpt>
      <trkpt lat="44.69547" lon="1.17225">
        <ele>225</ele>
        <time>2019-07-16T23:49:14Z</time>
      </trkpt>
      <trkpt lat="44.69553" lon="1.17211">
        <ele>225</ele>
        <time>2019-07-16T23:49:16Z</time>
      </trkpt>
      <trkpt lat="44.69582" lon="1.1708">
        <ele>218</ele>
        <time>2019-07-16T23:49:33Z</time>
      </trkpt>
      <trkpt lat="44.6959" lon="1.17057">
        <ele>216</ele>
        <time>2019-07-16T23:49:37Z</time>
      </trkpt>
      <trkpt lat="44.69599" lon="1.17041">
        <ele>215</ele>
        <time>2019-07-16T23:49:39Z</time>
      </trkpt>
      <trkpt lat="44.69619" lon="1.17015">
        <ele>213</ele>
        <time>2019-07-16T23:49:44Z</time>
      </trkpt>
      <trkpt lat="44.69629" lon="1.17012">
        <ele>213</ele>
        <time>2019-07-16T23:49:46Z</time>
      </trkpt>
      <trkpt lat="44.69645" lon="1.17002">
        <ele>213</ele>
        <time>2019-07-16T23:49:49Z</time>
      </trkpt>
      <trkpt lat="44.69656" lon="1.16992">
        <ele>212</ele>
        <time>2019-07-16T23:49:51Z</time>
      </trkpt>
      <trkpt lat="44.69672" lon="1.16971">
        <ele>212</ele>
        <time>2019-07-16T23:49:55Z</time>
      </trkpt>
      <trkpt lat="44.69681" lon="1.16955">
        <ele>213</ele>
        <time>2019-07-16T23:49:58Z</time>
      </trkpt>
      <trkpt lat="44.69689" lon="1.16935">
        <ele>214</ele>
        <time>2019-07-16T23:50:01Z</time>
      </trkpt>
      <trkpt lat="44.69705" lon="1.16887">
        <ele>216</ele>
        <time>2019-07-16T23:50:07Z</time>
      </trkpt>
      <trkpt lat="44.69714" lon="1.16842">
        <ele>215</ele>
        <time>2019-07-16T23:50:13Z</time>
      </trkpt>
      <trkpt lat="44.6972" lon="1.16793">
        <ele>213</ele>
        <time>2019-07-16T23:50:20Z</time>
      </trkpt>
      <trkpt lat="44.69728" lon="1.16759">
        <ele>211</ele>
        <time>2019-07-16T23:50:24Z</time>
      </trkpt>
      <trkpt lat="44.69737" lon="1.16726">
        <ele>208</ele>
        <time>2019-07-16T23:50:29Z</time>
      </trkpt>
      <trkpt lat="44.69755" lon="1.16687">
        <ele>206</ele>
        <time>2019-07-16T23:50:34Z</time>
      </trkpt>
      <trkpt lat="44.69815" lon="1.16598">
        <ele>205</ele>
        <time>2019-07-16T23:50:50Z</time>
      </trkpt>
      <trkpt lat="44.69835" lon="1.16563">
        <ele>202</ele>
        <time>2019-07-16T23:50:56Z</time>
      </trkpt>
      <trkpt lat="44.69848" lon="1.16519">
        <ele>203</ele>
        <time>2019-07-16T23:51:02Z</time>
      </trkpt>
      <trkpt lat="44.69856" lon="1.16453">
        <ele>202</ele>
        <time>2019-07-16T23:51:10Z</time>
      </trkpt>
      <trkpt lat="44.69861" lon="1.16429">
        <ele>202</ele>
        <time>2019-07-16T23:51:13Z</time>
      </trkpt>
      <trkpt lat="44.69899" lon="1.16361">
        <ele>202</ele>
        <time>2019-07-16T23:51:24Z</time>
      </trkpt>
      <trkpt lat="44.69921" lon="1.16315">
        <ele>198</ele>
        <time>2019-07-16T23:51:31Z</time>
      </trkpt>
      <trkpt lat="44.69929" lon="1.16297">
        <ele>197</ele>
        <time>2019-07-16T23:51:34Z</time>
      </trkpt>
      <trkpt lat="44.69938" lon="1.16284">
        <ele>196</ele>
        <time>2019-07-16T23:51:36Z</time>
      </trkpt>
      <trkpt lat="44.69947" lon="1.16276">
        <ele>196</ele>
        <time>2019-07-16T23:51:38Z</time>
      </trkpt>
      <trkpt lat="44.69955" lon="1.16272">
        <ele>195</ele>
        <time>2019-07-16T23:51:40Z</time>
      </trkpt>
      <trkpt lat="44.69964" lon="1.16271">
        <ele>195</ele>
        <time>2019-07-16T23:51:41Z</time>
      </trkpt>
      <trkpt lat="44.69978" lon="1.16274">
        <ele>195</ele>
        <time>2019-07-16T23:51:44Z</time>
      </trkpt>
      <trkpt lat="44.70097" lon="1.16316">
        <ele>193</ele>
        <time>2019-07-16T23:52:06Z</time>
      </trkpt>
      <trkpt lat="44.70113" lon="1.16315">
        <ele>195</ele>
        <time>2019-07-16T23:52:08Z</time>
      </trkpt>
      <trkpt lat="44.70121" lon="1.16311">
        <ele>195</ele>
        <time>2019-07-16T23:52:10Z</time>
      </trkpt>
      <trkpt lat="44.70134" lon="1.16298">
        <ele>194</ele>
        <time>2019-07-16T23:52:13Z</time>
      </trkpt>
      <trkpt lat="44.70164" lon="1.1625">
        <ele>192</ele>
        <time>2019-07-16T23:52:21Z</time>
      </trkpt>
      <trkpt lat="44.70178" lon="1.16231">
        <ele>193</ele>
        <time>2019-07-16T23:52:24Z</time>
      </trkpt>
      <trkpt lat="44.70187" lon="1.16221">
        <ele>193</ele>
        <time>2019-07-16T23:52:26Z</time>
      </trkpt>
      <trkpt lat="44.70195" lon="1.16215">
        <ele>193</ele>
        <time>2019-07-16T23:52:28Z</time>
      </trkpt>
      <trkpt lat="44.7026" lon="1.16191">
        <ele>193</ele>
        <time>2019-07-16T23:52:40Z</time>
      </trkpt>
      <trkpt lat="44.70272" lon="1.16184">
        <ele>192</ele>
        <time>2019-07-16T23:52:42Z</time>
      </trkpt>
      <trkpt lat="44.70297" lon="1.16169">
        <ele>191</ele>
        <time>2019-07-16T23:52:47Z</time>
      </trkpt>
      <trkpt lat="44.70342" lon="1.16129">
        <ele>189</ele>
        <time>2019-07-16T23:52:57Z</time>
      </trkpt>
      <trkpt lat="44.70402" lon="1.16056">
        <ele>190</ele>
        <time>2019-07-16T23:53:11Z</time>
      </trkpt>
      <trkpt lat="44.70488" lon="1.15941">
        <ele>187</ele>
        <time>2019-07-16T23:53:32Z</time>
      </trkpt>
      <trkpt lat="44.70529" lon="1.15895">
        <ele>185</ele>
        <time>2019-07-16T23:53:41Z</time>
      </trkpt>
      <trkpt lat="44.70546" lon="1.1588">
        <ele>185</ele>
        <time>2019-07-16T23:53:45Z</time>
      </trkpt>
      <trkpt lat="44.70568" lon="1.1586">
        <ele>183</ele>
        <time>2019-07-16T23:53:49Z</time>
      </trkpt>
      <trkpt lat="44.70606" lon="1.15836">
        <ele>178</ele>
        <time>2019-07-16T23:53:57Z</time>
      </trkpt>
      <trkpt lat="44.70632" lon="1.15822">
        <ele>177</ele>
        <time>2019-07-16T23:54:02Z</time>
      </trkpt>
      <trkpt lat="44.70677" lon="1.15805">
        <ele>176</ele>
        <time>2019-07-16T23:54:10Z</time>
      </trkpt>
      <trkpt lat="44.70723" lon="1.15784">
        <ele>178</ele>
        <time>2019-07-16T23:54:19Z</time>
      </trkpt>
      <trkpt lat="44.7074" lon="1.15768">
        <ele>177</ele>
        <time>2019-07-16T23:54:22Z</time>
      </trkpt>
      <trkpt lat="44.70782" lon="1.15712">
        <ele>180</ele>
        <time>2019-07-16T23:54:33Z</time>
      </trkpt>
      <trkpt lat="44.70806" lon="1.15676">
        <ele>179</ele>
        <time>2019-07-16T23:54:39Z</time>
      </trkpt>
      <trkpt lat="44.70834" lon="1.15619">
        <ele>175</ele>
        <time>2019-07-16T23:54:48Z</time>
      </trkpt>
      <trkpt lat="44.7086" lon="1.15572">
        <ele>174</ele>
        <time>2019-07-16T23:54:55Z</time>
      </trkpt>
      <trkpt lat="44.70876" lon="1.15549">
        <ele>175</ele>
        <time>2019-07-16T23:54:59Z</time>
      </trkpt>
      <trkpt lat="44.70891" lon="1.15532">
        <ele>174</ele>
        <time>2019-07-16T23:55:03Z</time>
      </trkpt>
      <trkpt lat="44.70947" lon="1.15482">
        <ele>170</ele>
        <time>2019-07-16T23:55:14Z</time>
      </trkpt>
      <trkpt lat="44.70971" lon="1.15463">
        <ele>169</ele>
        <time>2019-07-16T23:55:19Z</time>
      </trkpt>
      <trkpt lat="44.71" lon="1.15446">
        <ele>167</ele>
        <time>2019-07-16T23:55:25Z</time>
      </trkpt>
      <trkpt lat="44.71045" lon="1.15412">
        <ele>165</ele>
        <time>2019-07-16T23:55:34Z</time>
      </trkpt>
      <trkpt lat="44.71068" lon="1.15389">
        <ele>165</ele>
        <time>2019-07-16T23:55:39Z</time>
      </trkpt>
      <trkpt lat="44.71092" lon="1.15361">
        <ele>163</ele>
        <time>2019-07-16T23:55:45Z</time>
      </trkpt>
      <trkpt lat="44.71189" lon="1.15303">
        <ele>166</ele>
        <time>2019-07-16T23:56:03Z</time>
      </trkpt>
      <trkpt lat="44.71225" lon="1.15286">
        <ele>164</ele>
        <time>2019-07-16T23:56:10Z</time>
      </trkpt>
      <trkpt lat="44.71279" lon="1.15268">
        <ele>161</ele>
        <time>2019-07-16T23:56:20Z</time>
      </trkpt>
      <trkpt lat="44.71303" lon="1.15267">
        <ele>161</ele>
        <time>2019-07-16T23:56:24Z</time>
      </trkpt>
      <trkpt lat="44.71436" lon="1.15298">
        <ele>160</ele>
        <time>2019-07-16T23:56:48Z</time>
      </trkpt>
      <trkpt lat="44.71471" lon="1.15312">
        <ele>157</ele>
        <time>2019-07-16T23:56:55Z</time>
      </trkpt>
      <trkpt lat="44.71499" lon="1.1533">
        <ele>155</ele>
        <time>2019-07-16T23:57:00Z</time>
      </trkpt>
      <trkpt lat="44.71512" lon="1.1534">
        <ele>155</ele>
        <time>2019-07-16T23:57:03Z</time>
      </trkpt>
      <trkpt lat="44.71527" lon="1.15359">
        <ele>155</ele>
        <time>2019-07-16T23:57:06Z</time>
      </trkpt>
      <trkpt lat="44.71534" lon="1.15371">
        <ele>156</ele>
        <time>2019-07-16T23:57:08Z</time>
      </trkpt>
      <trkpt lat="44.71543" lon="1.15397">
        <ele>157</ele>
        <time>2019-07-16T23:57:12Z</time>
      </trkpt>
      <trkpt lat="44.71553" lon="1.15437">
        <ele>159</ele>
        <time>2019-07-16T23:57:17Z</time>
      </trkpt>
      <trkpt lat="44.71561" lon="1.15461">
        <ele>160</ele>
        <time>2019-07-16T23:57:21Z</time>
      </trkpt>
      <trkpt lat="44.71571" lon="1.15479">
        <ele>160</ele>
        <time>2019-07-16T23:57:24Z</time>
      </trkpt>
      <trkpt lat="44.71578" lon="1.15487">
        <ele>159</ele>
        <time>2019-07-16T23:57:25Z</time>
      </trkpt>
      <trkpt lat="44.71693" lon="1.1554">
        <ele>150</ele>
        <time>2019-07-16T23:57:47Z</time>
      </trkpt>
      <trkpt lat="44.71708" lon="1.15543">
        <ele>151</ele>
        <time>2019-07-16T23:57:49Z</time>
      </trkpt>
      <trkpt lat="44.71725" lon="1.15541">
        <ele>151</ele>
        <time>2019-07-16T23:57:52Z</time>
      </trkpt>
      <trkpt lat="44.71743" lon="1.15536">
        <ele>150</ele>
        <time>2019-07-16T23:57:56Z</time>
      </trkpt>
      <trkpt lat="44.71838" lon="1.15491">
        <ele>145</ele>
        <time>2019-07-16T23:58:14Z</time>
      </trkpt>
      <trkpt lat="44.71862" lon="1.15487">
        <ele>144</ele>
        <time>2019-07-16T23:58:18Z</time>
      </trkpt>
      <trkpt lat="44.71872" lon="1.1549">
        <ele>144</ele>
        <time>2019-07-16T23:58:20Z</time>
      </trkpt>
      <trkpt lat="44.71888" lon="1.15498">
        <ele>143</ele>
        <time>2019-07-16T23:58:23Z</time>
      </trkpt>
      <trkpt lat="44.71902" lon="1.15511">
        <ele>144</ele>
        <time>2019-07-16T23:58:26Z</time>
      </trkpt>
      <trkpt lat="44.7195" lon="1.15588">
        <ele>145</ele>
        <time>2019-07-16T23:58:39Z</time>
      </trkpt>
      <trkpt lat="44.71979" lon="1.15629">
        <ele>143</ele>
        <time>2019-07-16T23:58:46Z</time>
      </trkpt>
      <trkpt lat="44.71996" lon="1.15648">
        <ele>141</ele>
        <time>2019-07-16T23:58:50Z</time>
      </trkpt>
      <trkpt lat="44.72006" lon="1.15653">
        <ele>140</ele>
        <time>2019-07-16T23:58:52Z</time>
      </trkpt>
      <trkpt lat="44.72067" lon="1.15664">
        <ele>139</ele>
        <time>2019-07-16T23:59:03Z</time>
      </trkpt>
      <trkpt lat="44.72149" lon="1.15686">
        <ele>138</ele>
        <time>2019-07-16T23:59:17Z</time>
      </trkpt>
      <trkpt lat="44.72236" lon="1.15697">
        <ele>134</ele>
        <time>2019-07-16T23:59:33Z</time>
      </trkpt>
      <trkpt lat="44.72254" lon="1.15706">
        <ele>133</ele>
        <time>2019-07-16T23:59:36Z</time>
      </trkpt>
      <trkpt lat="44.72274" lon="1.15723">
        <ele>132</ele>
        <time>2019-07-16T23:59:41Z</time>
      </trkpt>
      <trkpt lat="44.72286" lon="1.15728">
        <ele>131</ele>
        <time>2019-07-16T23:59:43Z</time>
      </trkpt>
      <trkpt lat="44.72304" lon="1.15725">
        <ele>129</ele>
        <time>2019-07-16T23:59:46Z</time>
      </trkpt>
      <trkpt lat="44.72344" lon="1.15705">
        <ele>128</ele>
        <time>2019-07-16T23:59:54Z</time>
      </trkpt>
      <trkpt lat="44.7236" lon="1.15702">
        <ele>130</ele>
        <time>2019-07-16T23:59:56Z</time>
      </trkpt>
      <trkpt lat="44.72375" lon="1.15702">
        <ele>132</ele>
        <time>2019-07-16T23:59:59Z</time>
      </trkpt>
      <trkpt lat="44.72404" lon="1.15708">
        <ele>135</ele>
        <time>2019-07-17T00:00:04Z</time>
      </trkpt>
      <trkpt lat="44.72382" lon="1.15895">
        <ele>130</ele>
        <time>2019-07-17T00:00:28Z</time>
      </trkpt>
      <trkpt lat="44.72381" lon="1.15922">
        <ele>130</ele>
        <time>2019-07-17T00:00:32Z</time>
      </trkpt>
      <trkpt lat="44.72383" lon="1.1595">
        <ele>129</ele>
        <time>2019-07-17T00:00:35Z</time>
      </trkpt>
      <trkpt lat="44.72389" lon="1.15979">
        <ele>128</ele>
        <time>2019-07-17T00:00:39Z</time>
      </trkpt>
      <trkpt lat="44.72398" lon="1.15999">
        <ele>127</ele>
        <time>2019-07-17T00:00:42Z</time>
      </trkpt>
      <trkpt lat="44.72425" lon="1.16034">
        <ele>127</ele>
        <time>2019-07-17T00:00:49Z</time>
      </trkpt>
      <trkpt lat="44.72419" lon="1.16044">
        <ele>126</ele>
        <time>2019-07-17T00:00:50Z</time>
      </trkpt>
      <trkpt lat="44.72399" lon="1.16065">
        <ele>124</ele>
        <time>2019-07-17T00:00:55Z</time>
      </trkpt>
      <trkpt lat="44.72385" lon="1.16082">
        <ele>123</ele>
        <time>2019-07-17T00:00:58Z</time>
      </trkpt>
      <trkpt lat="44.7235" lon="1.16153">
        <ele>123</ele>
        <time>2019-07-17T00:01:09Z</time>
      </trkpt>
      <trkpt lat="44.72343" lon="1.16178">
        <ele>124</ele>
        <time>2019-07-17T00:01:12Z</time>
      </trkpt>
      <trkpt lat="44.72333" lon="1.16247">
        <ele>128</ele>
        <time>2019-07-17T00:01:21Z</time>
      </trkpt>
      <trkpt lat="44.72364" lon="1.1626">
        <ele>128</ele>
        <time>2019-07-17T00:01:27Z</time>
      </trkpt>
      <trkpt lat="44.72391" lon="1.16281">
        <ele>128</ele>
        <time>2019-07-17T00:01:32Z</time>
      </trkpt>
      <trkpt lat="44.72412" lon="1.16307">
        <ele>128</ele>
        <time>2019-07-17T00:01:37Z</time>
      </trkpt>
      <trkpt lat="44.72429" lon="1.16336">
        <ele>128</ele>
        <time>2019-07-17T00:01:42Z</time>
      </trkpt>
      <trkpt lat="44.72434" lon="1.1634">
        <ele>128</ele>
        <time>2019-07-17T00:01:43Z</time>
      </trkpt>
    </trkseg>
  </trk>
</gpx>